<?xml version="1.0" encoding="UTF-8" standalone="no" ?>
<gpx xmlns="http://www.topografix.com/GPX/1/1" xmlns:xsi="http://www.w3.org/2001/XMLSchema-instance" xsi:schemaLocation="http://www.topografix.com/GPX/1/1 http://www.topografix.com/GPX/1/1/gpx.xsd" version="1.1" creator="VisuGPX - https://www.visugpx.com">
  <metadata>
    <name>Vtt Marcilhac - J2</name>
  </metadata>
  <trk>
    <name><![CDATA[14681344-Vtt Marcilhac]]></name>
    <extensions>
      <line xmlns="http://www.topografix.com/GPX/gpx_style/0/2">
        <color>0000FF</color>
        <width>4</width>
      </line>
    </extensions>
    <trkseg>
      <trkpt lat="44.55348" lon="1.76926">
        <ele>170</ele>
        <time>2022-05-11T20:12:36Z</time>
      </trkpt>
      <trkpt lat="44.5536" lon="1.76822">
        <ele>177</ele>
        <time>2022-05-11T20:12:54Z</time>
      </trkpt>
      <trkpt lat="44.55347" lon="1.76799">
        <ele>179</ele>
        <time>2022-05-11T20:12:58Z</time>
      </trkpt>
      <trkpt lat="44.5534" lon="1.76765">
        <ele>183</ele>
        <time>2022-05-11T20:13:04Z</time>
      </trkpt>
      <trkpt lat="44.55335" lon="1.76753">
        <ele>184</ele>
        <time>2022-05-11T20:13:07Z</time>
      </trkpt>
      <trkpt lat="44.55318" lon="1.7672">
        <ele>185</ele>
        <time>2022-05-11T20:13:13Z</time>
      </trkpt>
      <trkpt lat="44.55307" lon="1.76681">
        <ele>188</ele>
        <time>2022-05-11T20:13:20Z</time>
      </trkpt>
      <trkpt lat="44.55306" lon="1.76657">
        <ele>191</ele>
        <time>2022-05-11T20:13:24Z</time>
      </trkpt>
      <trkpt lat="44.55311" lon="1.76635">
        <ele>195</ele>
        <time>2022-05-11T20:13:28Z</time>
      </trkpt>
      <trkpt lat="44.55311" lon="1.76608">
        <ele>199</ele>
        <time>2022-05-11T20:13:33Z</time>
      </trkpt>
      <trkpt lat="44.55297" lon="1.76494">
        <ele>213</ele>
        <time>2022-05-11T20:13:52Z</time>
      </trkpt>
      <trkpt lat="44.55287" lon="1.76386">
        <ele>225</ele>
        <time>2022-05-11T20:14:10Z</time>
      </trkpt>
      <trkpt lat="44.55276" lon="1.76326">
        <ele>230</ele>
        <time>2022-05-11T20:14:20Z</time>
      </trkpt>
      <trkpt lat="44.55257" lon="1.76239">
        <ele>237</ele>
        <time>2022-05-11T20:14:36Z</time>
      </trkpt>
      <trkpt lat="44.55232" lon="1.76162">
        <ele>238</ele>
        <time>2022-05-11T20:14:50Z</time>
      </trkpt>
      <trkpt lat="44.55233" lon="1.76159">
        <ele>239</ele>
        <time>2022-05-11T20:14:50Z</time>
      </trkpt>
      <trkpt lat="44.55237" lon="1.76159">
        <ele>241</ele>
        <time>2022-05-11T20:14:51Z</time>
      </trkpt>
      <trkpt lat="44.55241" lon="1.76162">
        <ele>243</ele>
        <time>2022-05-11T20:14:52Z</time>
      </trkpt>
      <trkpt lat="44.55278" lon="1.76214">
        <ele>246</ele>
        <time>2022-05-11T20:15:04Z</time>
      </trkpt>
      <trkpt lat="44.55278" lon="1.76209">
        <ele>247</ele>
        <time>2022-05-11T20:15:05Z</time>
      </trkpt>
      <trkpt lat="44.55229" lon="1.76105">
        <ele>244</ele>
        <time>2022-05-11T20:15:26Z</time>
      </trkpt>
      <trkpt lat="44.55225" lon="1.76082">
        <ele>246</ele>
        <time>2022-05-11T20:15:30Z</time>
      </trkpt>
      <trkpt lat="44.55218" lon="1.76068">
        <ele>245</ele>
        <time>2022-05-11T20:15:33Z</time>
      </trkpt>
      <trkpt lat="44.55206" lon="1.7605">
        <ele>244</ele>
        <time>2022-05-11T20:15:37Z</time>
      </trkpt>
      <trkpt lat="44.5519" lon="1.76033">
        <ele>243</ele>
        <time>2022-05-11T20:15:42Z</time>
      </trkpt>
      <trkpt lat="44.5521" lon="1.76037">
        <ele>247</ele>
        <time>2022-05-11T20:15:46Z</time>
      </trkpt>
      <trkpt lat="44.55238" lon="1.76048">
        <ele>252</ele>
        <time>2022-05-11T20:15:53Z</time>
      </trkpt>
      <trkpt lat="44.55256" lon="1.76059">
        <ele>255</ele>
        <time>2022-05-11T20:15:58Z</time>
      </trkpt>
      <trkpt lat="44.55308" lon="1.76106">
        <ele>260</ele>
        <time>2022-05-11T20:16:12Z</time>
      </trkpt>
      <trkpt lat="44.55312" lon="1.76113">
        <ele>260</ele>
        <time>2022-05-11T20:16:14Z</time>
      </trkpt>
      <trkpt lat="44.55312" lon="1.76122">
        <ele>260</ele>
        <time>2022-05-11T20:16:15Z</time>
      </trkpt>
      <trkpt lat="44.55309" lon="1.76145">
        <ele>259</ele>
        <time>2022-05-11T20:16:19Z</time>
      </trkpt>
      <trkpt lat="44.55308" lon="1.76189">
        <ele>257</ele>
        <time>2022-05-11T20:16:26Z</time>
      </trkpt>
      <trkpt lat="44.55312" lon="1.7626">
        <ele>250</ele>
        <time>2022-05-11T20:16:38Z</time>
      </trkpt>
      <trkpt lat="44.55337" lon="1.76344">
        <ele>249</ele>
        <time>2022-05-11T20:16:53Z</time>
      </trkpt>
      <trkpt lat="44.55372" lon="1.7642">
        <ele>248</ele>
        <time>2022-05-11T20:17:08Z</time>
      </trkpt>
      <trkpt lat="44.55389" lon="1.76436">
        <ele>250</ele>
        <time>2022-05-11T20:17:13Z</time>
      </trkpt>
      <trkpt lat="44.55414" lon="1.76448">
        <ele>256</ele>
        <time>2022-05-11T20:17:19Z</time>
      </trkpt>
      <trkpt lat="44.55514" lon="1.76456">
        <ele>257</ele>
        <time>2022-05-11T20:17:43Z</time>
      </trkpt>
      <trkpt lat="44.55528" lon="1.76474">
        <ele>256</ele>
        <time>2022-05-11T20:17:47Z</time>
      </trkpt>
      <trkpt lat="44.55545" lon="1.76515">
        <ele>253</ele>
        <time>2022-05-11T20:17:55Z</time>
      </trkpt>
      <trkpt lat="44.55555" lon="1.76555">
        <ele>247</ele>
        <time>2022-05-11T20:18:02Z</time>
      </trkpt>
      <trkpt lat="44.5556" lon="1.76586">
        <ele>243</ele>
        <time>2022-05-11T20:18:07Z</time>
      </trkpt>
      <trkpt lat="44.5558" lon="1.76621">
        <ele>241</ele>
        <time>2022-05-11T20:18:15Z</time>
      </trkpt>
      <trkpt lat="44.55632" lon="1.7665">
        <ele>245</ele>
        <time>2022-05-11T20:18:28Z</time>
      </trkpt>
      <trkpt lat="44.55635" lon="1.76646">
        <ele>246</ele>
        <time>2022-05-11T20:18:29Z</time>
      </trkpt>
      <trkpt lat="44.55647" lon="1.76647">
        <ele>248</ele>
        <time>2022-05-11T20:18:32Z</time>
      </trkpt>
      <trkpt lat="44.55661" lon="1.76652">
        <ele>249</ele>
        <time>2022-05-11T20:18:35Z</time>
      </trkpt>
      <trkpt lat="44.55708" lon="1.76678">
        <ele>250</ele>
        <time>2022-05-11T20:18:47Z</time>
      </trkpt>
      <trkpt lat="44.55711" lon="1.7666">
        <ele>254</ele>
        <time>2022-05-11T20:18:50Z</time>
      </trkpt>
      <trkpt lat="44.55712" lon="1.76618">
        <ele>258</ele>
        <time>2022-05-11T20:18:57Z</time>
      </trkpt>
      <trkpt lat="44.55721" lon="1.76602">
        <ele>261</ele>
        <time>2022-05-11T20:19:00Z</time>
      </trkpt>
      <trkpt lat="44.55738" lon="1.76566">
        <ele>265</ele>
        <time>2022-05-11T20:19:07Z</time>
      </trkpt>
      <trkpt lat="44.5575" lon="1.76528">
        <ele>269</ele>
        <time>2022-05-11T20:19:14Z</time>
      </trkpt>
      <trkpt lat="44.55765" lon="1.76488">
        <ele>272</ele>
        <time>2022-05-11T20:19:22Z</time>
      </trkpt>
      <trkpt lat="44.5577" lon="1.76468">
        <ele>274</ele>
        <time>2022-05-11T20:19:25Z</time>
      </trkpt>
      <trkpt lat="44.55784" lon="1.76432">
        <ele>276</ele>
        <time>2022-05-11T20:19:32Z</time>
      </trkpt>
      <trkpt lat="44.55787" lon="1.76401">
        <ele>278</ele>
        <time>2022-05-11T20:19:37Z</time>
      </trkpt>
      <trkpt lat="44.55804" lon="1.76347">
        <ele>282</ele>
        <time>2022-05-11T20:19:47Z</time>
      </trkpt>
      <trkpt lat="44.55814" lon="1.7632">
        <ele>283</ele>
        <time>2022-05-11T20:19:52Z</time>
      </trkpt>
      <trkpt lat="44.55829" lon="1.76299">
        <ele>284</ele>
        <time>2022-05-11T20:19:57Z</time>
      </trkpt>
      <trkpt lat="44.55843" lon="1.76254">
        <ele>286</ele>
        <time>2022-05-11T20:20:05Z</time>
      </trkpt>
      <trkpt lat="44.55873" lon="1.76188">
        <ele>287</ele>
        <time>2022-05-11T20:20:19Z</time>
      </trkpt>
      <trkpt lat="44.55887" lon="1.76168">
        <ele>288</ele>
        <time>2022-05-11T20:20:23Z</time>
      </trkpt>
      <trkpt lat="44.55897" lon="1.76143">
        <ele>289</ele>
        <time>2022-05-11T20:20:28Z</time>
      </trkpt>
      <trkpt lat="44.559" lon="1.76116">
        <ele>289</ele>
        <time>2022-05-11T20:20:33Z</time>
      </trkpt>
      <trkpt lat="44.55924" lon="1.76095">
        <ele>290</ele>
        <time>2022-05-11T20:20:39Z</time>
      </trkpt>
      <trkpt lat="44.55949" lon="1.76076">
        <ele>289</ele>
        <time>2022-05-11T20:20:46Z</time>
      </trkpt>
      <trkpt lat="44.55971" lon="1.76053">
        <ele>289</ele>
        <time>2022-05-11T20:20:52Z</time>
      </trkpt>
      <trkpt lat="44.55988" lon="1.76026">
        <ele>289</ele>
        <time>2022-05-11T20:20:58Z</time>
      </trkpt>
      <trkpt lat="44.55999" lon="1.76002">
        <ele>290</ele>
        <time>2022-05-11T20:21:03Z</time>
      </trkpt>
      <trkpt lat="44.56006" lon="1.75995">
        <ele>290</ele>
        <time>2022-05-11T20:21:05Z</time>
      </trkpt>
      <trkpt lat="44.56018" lon="1.75996">
        <ele>290</ele>
        <time>2022-05-11T20:21:08Z</time>
      </trkpt>
      <trkpt lat="44.56033" lon="1.75956">
        <ele>289</ele>
        <time>2022-05-11T20:21:15Z</time>
      </trkpt>
      <trkpt lat="44.56053" lon="1.7593">
        <ele>287</ele>
        <time>2022-05-11T20:21:22Z</time>
      </trkpt>
      <trkpt lat="44.56087" lon="1.75898">
        <ele>284</ele>
        <time>2022-05-11T20:21:31Z</time>
      </trkpt>
      <trkpt lat="44.56144" lon="1.75826">
        <ele>278</ele>
        <time>2022-05-11T20:21:49Z</time>
      </trkpt>
      <trkpt lat="44.56172" lon="1.75782">
        <ele>273</ele>
        <time>2022-05-11T20:21:59Z</time>
      </trkpt>
      <trkpt lat="44.56189" lon="1.75776">
        <ele>275</ele>
        <time>2022-05-11T20:22:03Z</time>
      </trkpt>
      <trkpt lat="44.56208" lon="1.75765">
        <ele>275</ele>
        <time>2022-05-11T20:22:08Z</time>
      </trkpt>
      <trkpt lat="44.5621" lon="1.75768">
        <ele>276</ele>
        <time>2022-05-11T20:22:08Z</time>
      </trkpt>
      <trkpt lat="44.56218" lon="1.75771">
        <ele>277</ele>
        <time>2022-05-11T20:22:10Z</time>
      </trkpt>
      <trkpt lat="44.56228" lon="1.7577">
        <ele>278</ele>
        <time>2022-05-11T20:22:13Z</time>
      </trkpt>
      <trkpt lat="44.56233" lon="1.75772">
        <ele>279</ele>
        <time>2022-05-11T20:22:14Z</time>
      </trkpt>
      <trkpt lat="44.56238" lon="1.75778">
        <ele>280</ele>
        <time>2022-05-11T20:22:15Z</time>
      </trkpt>
      <trkpt lat="44.56247" lon="1.75797">
        <ele>283</ele>
        <time>2022-05-11T20:22:19Z</time>
      </trkpt>
      <trkpt lat="44.56289" lon="1.75869">
        <ele>295</ele>
        <time>2022-05-11T20:22:35Z</time>
      </trkpt>
      <trkpt lat="44.56294" lon="1.75871">
        <ele>295</ele>
        <time>2022-05-11T20:22:36Z</time>
      </trkpt>
      <trkpt lat="44.56305" lon="1.7586">
        <ele>296</ele>
        <time>2022-05-11T20:22:39Z</time>
      </trkpt>
      <trkpt lat="44.56312" lon="1.75856">
        <ele>296</ele>
        <time>2022-05-11T20:22:41Z</time>
      </trkpt>
      <trkpt lat="44.56318" lon="1.75857">
        <ele>297</ele>
        <time>2022-05-11T20:22:42Z</time>
      </trkpt>
      <trkpt lat="44.56325" lon="1.75863">
        <ele>298</ele>
        <time>2022-05-11T20:22:44Z</time>
      </trkpt>
      <trkpt lat="44.56329" lon="1.75875">
        <ele>299</ele>
        <time>2022-05-11T20:22:46Z</time>
      </trkpt>
      <trkpt lat="44.56337" lon="1.75883">
        <ele>300</ele>
        <time>2022-05-11T20:22:49Z</time>
      </trkpt>
      <trkpt lat="44.56353" lon="1.75883">
        <ele>300</ele>
        <time>2022-05-11T20:22:52Z</time>
      </trkpt>
      <trkpt lat="44.56357" lon="1.75886">
        <ele>301</ele>
        <time>2022-05-11T20:22:54Z</time>
      </trkpt>
      <trkpt lat="44.56357" lon="1.75913">
        <ele>302</ele>
        <time>2022-05-11T20:22:58Z</time>
      </trkpt>
      <trkpt lat="44.5636" lon="1.75915">
        <ele>302</ele>
        <time>2022-05-11T20:22:59Z</time>
      </trkpt>
      <trkpt lat="44.56366" lon="1.75915">
        <ele>302</ele>
        <time>2022-05-11T20:23:00Z</time>
      </trkpt>
      <trkpt lat="44.56457" lon="1.75863">
        <ele>304</ele>
        <time>2022-05-11T20:23:23Z</time>
      </trkpt>
      <trkpt lat="44.56469" lon="1.75861">
        <ele>304</ele>
        <time>2022-05-11T20:23:26Z</time>
      </trkpt>
      <trkpt lat="44.56507" lon="1.75865">
        <ele>305</ele>
        <time>2022-05-11T20:23:35Z</time>
      </trkpt>
      <trkpt lat="44.56518" lon="1.75869">
        <ele>306</ele>
        <time>2022-05-11T20:23:38Z</time>
      </trkpt>
      <trkpt lat="44.56749" lon="1.75916">
        <ele>306</ele>
        <time>2022-05-11T20:24:32Z</time>
      </trkpt>
      <trkpt lat="44.56924" lon="1.75954">
        <ele>304</ele>
        <time>2022-05-11T20:25:13Z</time>
      </trkpt>
      <trkpt lat="44.57112" lon="1.7599">
        <ele>306</ele>
        <time>2022-05-11T20:25:58Z</time>
      </trkpt>
      <trkpt lat="44.5712" lon="1.75999">
        <ele>305</ele>
        <time>2022-05-11T20:26:00Z</time>
      </trkpt>
      <trkpt lat="44.57182" lon="1.76041">
        <ele>306</ele>
        <time>2022-05-11T20:26:16Z</time>
      </trkpt>
      <trkpt lat="44.57397" lon="1.76173">
        <ele>309</ele>
        <time>2022-05-11T20:27:11Z</time>
      </trkpt>
      <trkpt lat="44.57521" lon="1.76425">
        <ele>307</ele>
        <time>2022-05-11T20:28:02Z</time>
      </trkpt>
      <trkpt lat="44.5754" lon="1.76462">
        <ele>302</ele>
        <time>2022-05-11T20:28:09Z</time>
      </trkpt>
      <trkpt lat="44.57552" lon="1.76491">
        <ele>300</ele>
        <time>2022-05-11T20:28:15Z</time>
      </trkpt>
      <trkpt lat="44.57578" lon="1.76539">
        <ele>299</ele>
        <time>2022-05-11T20:28:25Z</time>
      </trkpt>
      <trkpt lat="44.57577" lon="1.76557">
        <ele>300</ele>
        <time>2022-05-11T20:28:28Z</time>
      </trkpt>
      <trkpt lat="44.57579" lon="1.76564">
        <ele>300</ele>
        <time>2022-05-11T20:28:29Z</time>
      </trkpt>
      <trkpt lat="44.57512" lon="1.76654">
        <ele>301</ele>
        <time>2022-05-11T20:28:51Z</time>
      </trkpt>
      <trkpt lat="44.5742" lon="1.76769">
        <ele>302</ele>
        <time>2022-05-11T20:29:20Z</time>
      </trkpt>
      <trkpt lat="44.57424" lon="1.76779">
        <ele>302</ele>
        <time>2022-05-11T20:29:22Z</time>
      </trkpt>
      <trkpt lat="44.57426" lon="1.76792">
        <ele>303</ele>
        <time>2022-05-11T20:29:24Z</time>
      </trkpt>
      <trkpt lat="44.57423" lon="1.76852">
        <ele>302</ele>
        <time>2022-05-11T20:29:34Z</time>
      </trkpt>
      <trkpt lat="44.57427" lon="1.76934">
        <ele>301</ele>
        <time>2022-05-11T20:29:48Z</time>
      </trkpt>
      <trkpt lat="44.5743" lon="1.76963">
        <ele>301</ele>
        <time>2022-05-11T20:29:52Z</time>
      </trkpt>
      <trkpt lat="44.57434" lon="1.7698">
        <ele>302</ele>
        <time>2022-05-11T20:29:55Z</time>
      </trkpt>
      <trkpt lat="44.57447" lon="1.77008">
        <ele>303</ele>
        <time>2022-05-11T20:30:01Z</time>
      </trkpt>
      <trkpt lat="44.57468" lon="1.77098">
        <ele>305</ele>
        <time>2022-05-11T20:30:17Z</time>
      </trkpt>
      <trkpt lat="44.57471" lon="1.77134">
        <ele>305</ele>
        <time>2022-05-11T20:30:23Z</time>
      </trkpt>
      <trkpt lat="44.57465" lon="1.77176">
        <ele>305</ele>
        <time>2022-05-11T20:30:30Z</time>
      </trkpt>
      <trkpt lat="44.57452" lon="1.7724">
        <ele>305</ele>
        <time>2022-05-11T20:30:41Z</time>
      </trkpt>
      <trkpt lat="44.57437" lon="1.77286">
        <ele>306</ele>
        <time>2022-05-11T20:30:49Z</time>
      </trkpt>
      <trkpt lat="44.57404" lon="1.77367">
        <ele>307</ele>
        <time>2022-05-11T20:31:05Z</time>
      </trkpt>
      <trkpt lat="44.57392" lon="1.77392">
        <ele>307</ele>
        <time>2022-05-11T20:31:10Z</time>
      </trkpt>
      <trkpt lat="44.57356" lon="1.77451">
        <ele>308</ele>
        <time>2022-05-11T20:31:23Z</time>
      </trkpt>
      <trkpt lat="44.57345" lon="1.77463">
        <ele>308</ele>
        <time>2022-05-11T20:31:26Z</time>
      </trkpt>
      <trkpt lat="44.57317" lon="1.77477">
        <ele>307</ele>
        <time>2022-05-11T20:31:33Z</time>
      </trkpt>
      <trkpt lat="44.57254" lon="1.77524">
        <ele>305</ele>
        <time>2022-05-11T20:31:50Z</time>
      </trkpt>
      <trkpt lat="44.57225" lon="1.7755">
        <ele>305</ele>
        <time>2022-05-11T20:31:58Z</time>
      </trkpt>
      <trkpt lat="44.57213" lon="1.77557">
        <ele>305</ele>
        <time>2022-05-11T20:32:01Z</time>
      </trkpt>
      <trkpt lat="44.57172" lon="1.77566">
        <ele>302</ele>
        <time>2022-05-11T20:32:10Z</time>
      </trkpt>
      <trkpt lat="44.57156" lon="1.77565">
        <ele>301</ele>
        <time>2022-05-11T20:32:14Z</time>
      </trkpt>
      <trkpt lat="44.57148" lon="1.77567">
        <ele>301</ele>
        <time>2022-05-11T20:32:16Z</time>
      </trkpt>
      <trkpt lat="44.57134" lon="1.77578">
        <ele>301</ele>
        <time>2022-05-11T20:32:20Z</time>
      </trkpt>
      <trkpt lat="44.5713" lon="1.77577">
        <ele>300</ele>
        <time>2022-05-11T20:32:21Z</time>
      </trkpt>
      <trkpt lat="44.57052" lon="1.77583">
        <ele>297</ele>
        <time>2022-05-11T20:32:39Z</time>
      </trkpt>
      <trkpt lat="44.57032" lon="1.7759">
        <ele>297</ele>
        <time>2022-05-11T20:32:44Z</time>
      </trkpt>
      <trkpt lat="44.56988" lon="1.77592">
        <ele>296</ele>
        <time>2022-05-11T20:32:54Z</time>
      </trkpt>
      <trkpt lat="44.56929" lon="1.77589">
        <ele>296</ele>
        <time>2022-05-11T20:33:08Z</time>
      </trkpt>
      <trkpt lat="44.56879" lon="1.7759">
        <ele>297</ele>
        <time>2022-05-11T20:33:20Z</time>
      </trkpt>
      <trkpt lat="44.56821" lon="1.77597">
        <ele>298</ele>
        <time>2022-05-11T20:33:33Z</time>
      </trkpt>
      <trkpt lat="44.56758" lon="1.77591">
        <ele>296</ele>
        <time>2022-05-11T20:33:48Z</time>
      </trkpt>
      <trkpt lat="44.56748" lon="1.77593">
        <ele>296</ele>
        <time>2022-05-11T20:33:50Z</time>
      </trkpt>
      <trkpt lat="44.56679" lon="1.7762">
        <ele>292</ele>
        <time>2022-05-11T20:34:07Z</time>
      </trkpt>
      <trkpt lat="44.56643" lon="1.77625">
        <ele>289</ele>
        <time>2022-05-11T20:34:15Z</time>
      </trkpt>
      <trkpt lat="44.56624" lon="1.77636">
        <ele>287</ele>
        <time>2022-05-11T20:34:20Z</time>
      </trkpt>
      <trkpt lat="44.56604" lon="1.77643">
        <ele>286</ele>
        <time>2022-05-11T20:34:25Z</time>
      </trkpt>
      <trkpt lat="44.56581" lon="1.77663">
        <ele>283</ele>
        <time>2022-05-11T20:34:31Z</time>
      </trkpt>
      <trkpt lat="44.5657" lon="1.77667">
        <ele>282</ele>
        <time>2022-05-11T20:34:34Z</time>
      </trkpt>
      <trkpt lat="44.56546" lon="1.77679">
        <ele>279</ele>
        <time>2022-05-11T20:34:40Z</time>
      </trkpt>
      <trkpt lat="44.56492" lon="1.77722">
        <ele>271</ele>
        <time>2022-05-11T20:34:55Z</time>
      </trkpt>
      <trkpt lat="44.56475" lon="1.77725">
        <ele>269</ele>
        <time>2022-05-11T20:34:59Z</time>
      </trkpt>
      <trkpt lat="44.56469" lon="1.77735">
        <ele>268</ele>
        <time>2022-05-11T20:35:01Z</time>
      </trkpt>
      <trkpt lat="44.56445" lon="1.77742">
        <ele>264</ele>
        <time>2022-05-11T20:35:06Z</time>
      </trkpt>
      <trkpt lat="44.56426" lon="1.77745">
        <ele>262</ele>
        <time>2022-05-11T20:35:11Z</time>
      </trkpt>
      <trkpt lat="44.56418" lon="1.77744">
        <ele>261</ele>
        <time>2022-05-11T20:35:13Z</time>
      </trkpt>
      <trkpt lat="44.56407" lon="1.77746">
        <ele>259</ele>
        <time>2022-05-11T20:35:15Z</time>
      </trkpt>
      <trkpt lat="44.56371" lon="1.77761">
        <ele>254</ele>
        <time>2022-05-11T20:35:24Z</time>
      </trkpt>
      <trkpt lat="44.56368" lon="1.77764">
        <ele>253</ele>
        <time>2022-05-11T20:35:25Z</time>
      </trkpt>
      <trkpt lat="44.5635" lon="1.77803">
        <ele>246</ele>
        <time>2022-05-11T20:35:33Z</time>
      </trkpt>
      <trkpt lat="44.56331" lon="1.77837">
        <ele>239</ele>
        <time>2022-05-11T20:35:40Z</time>
      </trkpt>
      <trkpt lat="44.56299" lon="1.77841">
        <ele>233</ele>
        <time>2022-05-11T20:35:47Z</time>
      </trkpt>
      <trkpt lat="44.56293" lon="1.77848">
        <ele>230</ele>
        <time>2022-05-11T20:35:49Z</time>
      </trkpt>
      <trkpt lat="44.5628" lon="1.77851">
        <ele>228</ele>
        <time>2022-05-11T20:35:52Z</time>
      </trkpt>
      <trkpt lat="44.56267" lon="1.77863">
        <ele>224</ele>
        <time>2022-05-11T20:35:56Z</time>
      </trkpt>
      <trkpt lat="44.56205" lon="1.77888">
        <ele>205</ele>
        <time>2022-05-11T20:36:11Z</time>
      </trkpt>
      <trkpt lat="44.56197" lon="1.77892">
        <ele>202</ele>
        <time>2022-05-11T20:36:13Z</time>
      </trkpt>
      <trkpt lat="44.56192" lon="1.77897">
        <ele>201</ele>
        <time>2022-05-11T20:36:14Z</time>
      </trkpt>
      <trkpt lat="44.56187" lon="1.77911">
        <ele>198</ele>
        <time>2022-05-11T20:36:17Z</time>
      </trkpt>
      <trkpt lat="44.56183" lon="1.77939">
        <ele>195</ele>
        <time>2022-05-11T20:36:22Z</time>
      </trkpt>
      <trkpt lat="44.5618" lon="1.77955">
        <ele>193</ele>
        <time>2022-05-11T20:36:25Z</time>
      </trkpt>
      <trkpt lat="44.56164" lon="1.77995">
        <ele>188</ele>
        <time>2022-05-11T20:36:32Z</time>
      </trkpt>
      <trkpt lat="44.56157" lon="1.78037">
        <ele>185</ele>
        <time>2022-05-11T20:36:39Z</time>
      </trkpt>
      <trkpt lat="44.56165" lon="1.78052">
        <ele>186</ele>
        <time>2022-05-11T20:36:42Z</time>
      </trkpt>
      <trkpt lat="44.56178" lon="1.78055">
        <ele>185</ele>
        <time>2022-05-11T20:36:46Z</time>
      </trkpt>
      <trkpt lat="44.56189" lon="1.78051">
        <ele>185</ele>
        <time>2022-05-11T20:36:48Z</time>
      </trkpt>
      <trkpt lat="44.56209" lon="1.78026">
        <ele>185</ele>
        <time>2022-05-11T20:36:54Z</time>
      </trkpt>
      <trkpt lat="44.56222" lon="1.78016">
        <ele>186</ele>
        <time>2022-05-11T20:36:58Z</time>
      </trkpt>
      <trkpt lat="44.56232" lon="1.78014">
        <ele>186</ele>
        <time>2022-05-11T20:37:00Z</time>
      </trkpt>
      <trkpt lat="44.5624" lon="1.78017">
        <ele>186</ele>
        <time>2022-05-11T20:37:02Z</time>
      </trkpt>
      <trkpt lat="44.56256" lon="1.78032">
        <ele>183</ele>
        <time>2022-05-11T20:37:07Z</time>
      </trkpt>
      <trkpt lat="44.5629" lon="1.78073">
        <ele>178</ele>
        <time>2022-05-11T20:37:17Z</time>
      </trkpt>
      <trkpt lat="44.56359" lon="1.78185">
        <ele>171</ele>
        <time>2022-05-11T20:37:42Z</time>
      </trkpt>
      <trkpt lat="44.56393" lon="1.78248">
        <ele>171</ele>
        <time>2022-05-11T20:37:55Z</time>
      </trkpt>
      <trkpt lat="44.56415" lon="1.783">
        <ele>169</ele>
        <time>2022-05-11T20:38:05Z</time>
      </trkpt>
      <trkpt lat="44.56438" lon="1.78339">
        <ele>172</ele>
        <time>2022-05-11T20:38:13Z</time>
      </trkpt>
      <trkpt lat="44.5646" lon="1.78363">
        <ele>177</ele>
        <time>2022-05-11T20:38:20Z</time>
      </trkpt>
      <trkpt lat="44.56466" lon="1.78373">
        <ele>178</ele>
        <time>2022-05-11T20:38:22Z</time>
      </trkpt>
      <trkpt lat="44.56469" lon="1.78391">
        <ele>179</ele>
        <time>2022-05-11T20:38:25Z</time>
      </trkpt>
      <trkpt lat="44.5647" lon="1.78442">
        <ele>180</ele>
        <time>2022-05-11T20:38:34Z</time>
      </trkpt>
      <trkpt lat="44.56474" lon="1.78453">
        <ele>181</ele>
        <time>2022-05-11T20:38:36Z</time>
      </trkpt>
      <trkpt lat="44.56486" lon="1.78467">
        <ele>182</ele>
        <time>2022-05-11T20:38:39Z</time>
      </trkpt>
      <trkpt lat="44.56521" lon="1.78487">
        <ele>189</ele>
        <time>2022-05-11T20:38:48Z</time>
      </trkpt>
      <trkpt lat="44.56564" lon="1.78536">
        <ele>190</ele>
        <time>2022-05-11T20:39:01Z</time>
      </trkpt>
      <trkpt lat="44.56577" lon="1.78556">
        <ele>187</ele>
        <time>2022-05-11T20:39:06Z</time>
      </trkpt>
      <trkpt lat="44.5659" lon="1.78563">
        <ele>186</ele>
        <time>2022-05-11T20:39:09Z</time>
      </trkpt>
      <trkpt lat="44.56603" lon="1.78565">
        <ele>187</ele>
        <time>2022-05-11T20:39:12Z</time>
      </trkpt>
      <trkpt lat="44.56617" lon="1.78564">
        <ele>188</ele>
        <time>2022-05-11T20:39:15Z</time>
      </trkpt>
      <trkpt lat="44.56639" lon="1.78557">
        <ele>192</ele>
        <time>2022-05-11T20:39:20Z</time>
      </trkpt>
      <trkpt lat="44.56651" lon="1.78551">
        <ele>195</ele>
        <time>2022-05-11T20:39:23Z</time>
      </trkpt>
      <trkpt lat="44.56666" lon="1.78531">
        <ele>204</ele>
        <time>2022-05-11T20:39:28Z</time>
      </trkpt>
      <trkpt lat="44.56686" lon="1.78516">
        <ele>213</ele>
        <time>2022-05-11T20:39:34Z</time>
      </trkpt>
      <trkpt lat="44.56714" lon="1.78519">
        <ele>218</ele>
        <time>2022-05-11T20:39:40Z</time>
      </trkpt>
      <trkpt lat="44.56737" lon="1.78543">
        <ele>212</ele>
        <time>2022-05-11T20:39:47Z</time>
      </trkpt>
      <trkpt lat="44.56752" lon="1.78562">
        <ele>206</ele>
        <time>2022-05-11T20:39:52Z</time>
      </trkpt>
      <trkpt lat="44.56769" lon="1.78574">
        <ele>205</ele>
        <time>2022-05-11T20:39:56Z</time>
      </trkpt>
      <trkpt lat="44.56819" lon="1.78574">
        <ele>219</ele>
        <time>2022-05-11T20:40:08Z</time>
      </trkpt>
      <trkpt lat="44.56862" lon="1.78589">
        <ele>220</ele>
        <time>2022-05-11T20:40:18Z</time>
      </trkpt>
      <trkpt lat="44.56879" lon="1.786">
        <ele>215</ele>
        <time>2022-05-11T20:40:22Z</time>
      </trkpt>
      <trkpt lat="44.5691" lon="1.7863">
        <ele>201</ele>
        <time>2022-05-11T20:40:31Z</time>
      </trkpt>
      <trkpt lat="44.56922" lon="1.78633">
        <ele>202</ele>
        <time>2022-05-11T20:40:34Z</time>
      </trkpt>
      <trkpt lat="44.56956" lon="1.78629">
        <ele>214</ele>
        <time>2022-05-11T20:40:42Z</time>
      </trkpt>
      <trkpt lat="44.56969" lon="1.78633">
        <ele>216</ele>
        <time>2022-05-11T20:40:45Z</time>
      </trkpt>
      <trkpt lat="44.56978" lon="1.78645">
        <ele>215</ele>
        <time>2022-05-11T20:40:48Z</time>
      </trkpt>
      <trkpt lat="44.56981" lon="1.7866">
        <ele>212</ele>
        <time>2022-05-11T20:40:51Z</time>
      </trkpt>
      <trkpt lat="44.56976" lon="1.78683">
        <ele>206</ele>
        <time>2022-05-11T20:40:55Z</time>
      </trkpt>
      <trkpt lat="44.56985" lon="1.78758">
        <ele>198</ele>
        <time>2022-05-11T20:41:07Z</time>
      </trkpt>
      <trkpt lat="44.56992" lon="1.78773">
        <ele>198</ele>
        <time>2022-05-11T20:41:10Z</time>
      </trkpt>
      <trkpt lat="44.57022" lon="1.78818">
        <ele>206</ele>
        <time>2022-05-11T20:41:20Z</time>
      </trkpt>
      <trkpt lat="44.57027" lon="1.78827">
        <ele>207</ele>
        <time>2022-05-11T20:41:22Z</time>
      </trkpt>
      <trkpt lat="44.57053" lon="1.78906">
        <ele>206</ele>
        <time>2022-05-11T20:41:37Z</time>
      </trkpt>
      <trkpt lat="44.57059" lon="1.78889">
        <ele>213</ele>
        <time>2022-05-11T20:41:40Z</time>
      </trkpt>
      <trkpt lat="44.57063" lon="1.78887">
        <ele>216</ele>
        <time>2022-05-11T20:41:41Z</time>
      </trkpt>
      <trkpt lat="44.57069" lon="1.78921">
        <ele>211</ele>
        <time>2022-05-11T20:41:47Z</time>
      </trkpt>
      <trkpt lat="44.57086" lon="1.78959">
        <ele>218</ele>
        <time>2022-05-11T20:41:54Z</time>
      </trkpt>
      <trkpt lat="44.57096" lon="1.7897">
        <ele>223</ele>
        <time>2022-05-11T20:41:57Z</time>
      </trkpt>
      <trkpt lat="44.57108" lon="1.79001">
        <ele>227</ele>
        <time>2022-05-11T20:42:03Z</time>
      </trkpt>
      <trkpt lat="44.57121" lon="1.79026">
        <ele>232</ele>
        <time>2022-05-11T20:42:08Z</time>
      </trkpt>
      <trkpt lat="44.57126" lon="1.79053">
        <ele>235</ele>
        <time>2022-05-11T20:42:13Z</time>
      </trkpt>
      <trkpt lat="44.57134" lon="1.79059">
        <ele>238</ele>
        <time>2022-05-11T20:42:15Z</time>
      </trkpt>
      <trkpt lat="44.57132" lon="1.79098">
        <ele>239</ele>
        <time>2022-05-11T20:42:22Z</time>
      </trkpt>
      <trkpt lat="44.57125" lon="1.79134">
        <ele>240</ele>
        <time>2022-05-11T20:42:28Z</time>
      </trkpt>
      <trkpt lat="44.57126" lon="1.79145">
        <ele>242</ele>
        <time>2022-05-11T20:42:30Z</time>
      </trkpt>
      <trkpt lat="44.5712" lon="1.79165">
        <ele>242</ele>
        <time>2022-05-11T20:42:33Z</time>
      </trkpt>
      <trkpt lat="44.57101" lon="1.79197">
        <ele>238</ele>
        <time>2022-05-11T20:42:40Z</time>
      </trkpt>
      <trkpt lat="44.57096" lon="1.79211">
        <ele>239</ele>
        <time>2022-05-11T20:42:43Z</time>
      </trkpt>
      <trkpt lat="44.57095" lon="1.79248">
        <ele>244</ele>
        <time>2022-05-11T20:42:49Z</time>
      </trkpt>
      <trkpt lat="44.57084" lon="1.79277">
        <ele>242</ele>
        <time>2022-05-11T20:42:54Z</time>
      </trkpt>
      <trkpt lat="44.57081" lon="1.79291">
        <ele>240</ele>
        <time>2022-05-11T20:42:57Z</time>
      </trkpt>
      <trkpt lat="44.57081" lon="1.79305">
        <ele>240</ele>
        <time>2022-05-11T20:42:59Z</time>
      </trkpt>
      <trkpt lat="44.57082" lon="1.79313">
        <ele>241</ele>
        <time>2022-05-11T20:43:00Z</time>
      </trkpt>
      <trkpt lat="44.57091" lon="1.79324">
        <ele>244</ele>
        <time>2022-05-11T20:43:03Z</time>
      </trkpt>
      <trkpt lat="44.57099" lon="1.79325">
        <ele>245</ele>
        <time>2022-05-11T20:43:05Z</time>
      </trkpt>
      <trkpt lat="44.57174" lon="1.79312">
        <ele>262</ele>
        <time>2022-05-11T20:43:23Z</time>
      </trkpt>
      <trkpt lat="44.5719" lon="1.79313">
        <ele>262</ele>
        <time>2022-05-11T20:43:27Z</time>
      </trkpt>
      <trkpt lat="44.57221" lon="1.7932">
        <ele>263</ele>
        <time>2022-05-11T20:43:34Z</time>
      </trkpt>
      <trkpt lat="44.57232" lon="1.79318">
        <ele>264</ele>
        <time>2022-05-11T20:43:36Z</time>
      </trkpt>
      <trkpt lat="44.5725" lon="1.79322">
        <ele>264</ele>
        <time>2022-05-11T20:43:41Z</time>
      </trkpt>
      <trkpt lat="44.57284" lon="1.79318">
        <ele>264</ele>
        <time>2022-05-11T20:43:49Z</time>
      </trkpt>
      <trkpt lat="44.57342" lon="1.79319">
        <ele>262</ele>
        <time>2022-05-11T20:44:02Z</time>
      </trkpt>
      <trkpt lat="44.57355" lon="1.79317">
        <ele>264</ele>
        <time>2022-05-11T20:44:05Z</time>
      </trkpt>
      <trkpt lat="44.57386" lon="1.79324">
        <ele>265</ele>
        <time>2022-05-11T20:44:13Z</time>
      </trkpt>
      <trkpt lat="44.57397" lon="1.79325">
        <ele>266</ele>
        <time>2022-05-11T20:44:15Z</time>
      </trkpt>
      <trkpt lat="44.57403" lon="1.79327">
        <ele>266</ele>
        <time>2022-05-11T20:44:17Z</time>
      </trkpt>
      <trkpt lat="44.57407" lon="1.7933">
        <ele>266</ele>
        <time>2022-05-11T20:44:18Z</time>
      </trkpt>
      <trkpt lat="44.57409" lon="1.79334">
        <ele>265</ele>
        <time>2022-05-11T20:44:19Z</time>
      </trkpt>
      <trkpt lat="44.57413" lon="1.79357">
        <ele>267</ele>
        <time>2022-05-11T20:44:22Z</time>
      </trkpt>
      <trkpt lat="44.57411" lon="1.79367">
        <ele>268</ele>
        <time>2022-05-11T20:44:24Z</time>
      </trkpt>
      <trkpt lat="44.57394" lon="1.79406">
        <ele>266</ele>
        <time>2022-05-11T20:44:32Z</time>
      </trkpt>
      <trkpt lat="44.57391" lon="1.79417">
        <ele>266</ele>
        <time>2022-05-11T20:44:34Z</time>
      </trkpt>
      <trkpt lat="44.57385" lon="1.79455">
        <ele>269</ele>
        <time>2022-05-11T20:44:40Z</time>
      </trkpt>
      <trkpt lat="44.57382" lon="1.79492">
        <ele>274</ele>
        <time>2022-05-11T20:44:46Z</time>
      </trkpt>
      <trkpt lat="44.57377" lon="1.7953">
        <ele>276</ele>
        <time>2022-05-11T20:44:53Z</time>
      </trkpt>
      <trkpt lat="44.57377" lon="1.79552">
        <ele>278</ele>
        <time>2022-05-11T20:44:57Z</time>
      </trkpt>
      <trkpt lat="44.57373" lon="1.79591">
        <ele>280</ele>
        <time>2022-05-11T20:45:03Z</time>
      </trkpt>
      <trkpt lat="44.57373" lon="1.79658">
        <ele>282</ele>
        <time>2022-05-11T20:45:14Z</time>
      </trkpt>
      <trkpt lat="44.57374" lon="1.79678">
        <ele>282</ele>
        <time>2022-05-11T20:45:18Z</time>
      </trkpt>
      <trkpt lat="44.5738" lon="1.79713">
        <ele>282</ele>
        <time>2022-05-11T20:45:24Z</time>
      </trkpt>
      <trkpt lat="44.57397" lon="1.79774">
        <ele>283</ele>
        <time>2022-05-11T20:45:34Z</time>
      </trkpt>
      <trkpt lat="44.57414" lon="1.79829">
        <ele>285</ele>
        <time>2022-05-11T20:45:44Z</time>
      </trkpt>
      <trkpt lat="44.57422" lon="1.7986">
        <ele>287</ele>
        <time>2022-05-11T20:45:50Z</time>
      </trkpt>
      <trkpt lat="44.57433" lon="1.79926">
        <ele>288</ele>
        <time>2022-05-11T20:46:01Z</time>
      </trkpt>
      <trkpt lat="44.57444" lon="1.79959">
        <ele>289</ele>
        <time>2022-05-11T20:46:07Z</time>
      </trkpt>
      <trkpt lat="44.57452" lon="1.79975">
        <ele>289</ele>
        <time>2022-05-11T20:46:10Z</time>
      </trkpt>
      <trkpt lat="44.57469" lon="1.79993">
        <ele>291</ele>
        <time>2022-05-11T20:46:15Z</time>
      </trkpt>
      <trkpt lat="44.57478" lon="1.80007">
        <ele>292</ele>
        <time>2022-05-11T20:46:19Z</time>
      </trkpt>
      <trkpt lat="44.57489" lon="1.80036">
        <ele>293</ele>
        <time>2022-05-11T20:46:24Z</time>
      </trkpt>
      <trkpt lat="44.57505" lon="1.8007">
        <ele>296</ele>
        <time>2022-05-11T20:46:31Z</time>
      </trkpt>
      <trkpt lat="44.57562" lon="1.80234">
        <ele>298</ele>
        <time>2022-05-11T20:47:01Z</time>
      </trkpt>
      <trkpt lat="44.5758" lon="1.80283">
        <ele>300</ele>
        <time>2022-05-11T20:47:10Z</time>
      </trkpt>
      <trkpt lat="44.57589" lon="1.80295">
        <ele>301</ele>
        <time>2022-05-11T20:47:13Z</time>
      </trkpt>
      <trkpt lat="44.57596" lon="1.80314">
        <ele>301</ele>
        <time>2022-05-11T20:47:17Z</time>
      </trkpt>
      <trkpt lat="44.57606" lon="1.80349">
        <ele>303</ele>
        <time>2022-05-11T20:47:23Z</time>
      </trkpt>
      <trkpt lat="44.57634" lon="1.80419">
        <ele>306</ele>
        <time>2022-05-11T20:47:36Z</time>
      </trkpt>
      <trkpt lat="44.57654" lon="1.80477">
        <ele>308</ele>
        <time>2022-05-11T20:47:47Z</time>
      </trkpt>
      <trkpt lat="44.57682" lon="1.80532">
        <ele>308</ele>
        <time>2022-05-11T20:47:58Z</time>
      </trkpt>
      <trkpt lat="44.57689" lon="1.8055">
        <ele>308</ele>
        <time>2022-05-11T20:48:02Z</time>
      </trkpt>
      <trkpt lat="44.57704" lon="1.80596">
        <ele>306</ele>
        <time>2022-05-11T20:48:10Z</time>
      </trkpt>
      <trkpt lat="44.5771" lon="1.80629">
        <ele>305</ele>
        <time>2022-05-11T20:48:16Z</time>
      </trkpt>
      <trkpt lat="44.57714" lon="1.8064">
        <ele>305</ele>
        <time>2022-05-11T20:48:18Z</time>
      </trkpt>
      <trkpt lat="44.57796" lon="1.80759">
        <ele>302</ele>
        <time>2022-05-11T20:48:45Z</time>
      </trkpt>
      <trkpt lat="44.57802" lon="1.80765">
        <ele>302</ele>
        <time>2022-05-11T20:48:47Z</time>
      </trkpt>
      <trkpt lat="44.57807" lon="1.80767">
        <ele>302</ele>
        <time>2022-05-11T20:48:48Z</time>
      </trkpt>
      <trkpt lat="44.57803" lon="1.80804">
        <ele>301</ele>
        <time>2022-05-11T20:48:55Z</time>
      </trkpt>
      <trkpt lat="44.57816" lon="1.80808">
        <ele>302</ele>
        <time>2022-05-11T20:48:58Z</time>
      </trkpt>
      <trkpt lat="44.57813" lon="1.80823">
        <ele>301</ele>
        <time>2022-05-11T20:49:00Z</time>
      </trkpt>
      <trkpt lat="44.5779" lon="1.80854">
        <ele>300</ele>
        <time>2022-05-11T20:49:08Z</time>
      </trkpt>
      <trkpt lat="44.57774" lon="1.80896">
        <ele>299</ele>
        <time>2022-05-11T20:49:16Z</time>
      </trkpt>
      <trkpt lat="44.57772" lon="1.80924">
        <ele>299</ele>
        <time>2022-05-11T20:49:20Z</time>
      </trkpt>
      <trkpt lat="44.57761" lon="1.8096">
        <ele>299</ele>
        <time>2022-05-11T20:49:27Z</time>
      </trkpt>
      <trkpt lat="44.5774" lon="1.80999">
        <ele>298</ele>
        <time>2022-05-11T20:49:35Z</time>
      </trkpt>
      <trkpt lat="44.57728" lon="1.81029">
        <ele>298</ele>
        <time>2022-05-11T20:49:41Z</time>
      </trkpt>
      <trkpt lat="44.57701" lon="1.8111">
        <ele>296</ele>
        <time>2022-05-11T20:49:56Z</time>
      </trkpt>
      <trkpt lat="44.57694" lon="1.81153">
        <ele>295</ele>
        <time>2022-05-11T20:50:03Z</time>
      </trkpt>
      <trkpt lat="44.57688" lon="1.81197">
        <ele>295</ele>
        <time>2022-05-11T20:50:10Z</time>
      </trkpt>
      <trkpt lat="44.57688" lon="1.81219">
        <ele>294</ele>
        <time>2022-05-11T20:50:14Z</time>
      </trkpt>
      <trkpt lat="44.57683" lon="1.8127">
        <ele>293</ele>
        <time>2022-05-11T20:50:23Z</time>
      </trkpt>
      <trkpt lat="44.57676" lon="1.81327">
        <ele>291</ele>
        <time>2022-05-11T20:50:32Z</time>
      </trkpt>
      <trkpt lat="44.5767" lon="1.81352">
        <ele>290</ele>
        <time>2022-05-11T20:50:37Z</time>
      </trkpt>
      <trkpt lat="44.57669" lon="1.8137">
        <ele>289</ele>
        <time>2022-05-11T20:50:40Z</time>
      </trkpt>
      <trkpt lat="44.57676" lon="1.81409">
        <ele>289</ele>
        <time>2022-05-11T20:50:46Z</time>
      </trkpt>
      <trkpt lat="44.57676" lon="1.81414">
        <ele>289</ele>
        <time>2022-05-11T20:50:47Z</time>
      </trkpt>
      <trkpt lat="44.57673" lon="1.81421">
        <ele>288</ele>
        <time>2022-05-11T20:50:49Z</time>
      </trkpt>
      <trkpt lat="44.57604" lon="1.81465">
        <ele>281</ele>
        <time>2022-05-11T20:51:06Z</time>
      </trkpt>
      <trkpt lat="44.57594" lon="1.81477">
        <ele>280</ele>
        <time>2022-05-11T20:51:09Z</time>
      </trkpt>
      <trkpt lat="44.57577" lon="1.81506">
        <ele>278</ele>
        <time>2022-05-11T20:51:16Z</time>
      </trkpt>
      <trkpt lat="44.57582" lon="1.81532">
        <ele>276</ele>
        <time>2022-05-11T20:51:20Z</time>
      </trkpt>
      <trkpt lat="44.57579" lon="1.81574">
        <ele>272</ele>
        <time>2022-05-11T20:51:27Z</time>
      </trkpt>
      <trkpt lat="44.57574" lon="1.81702">
        <ele>257</ele>
        <time>2022-05-11T20:51:48Z</time>
      </trkpt>
      <trkpt lat="44.57578" lon="1.81721">
        <ele>255</ele>
        <time>2022-05-11T20:51:52Z</time>
      </trkpt>
      <trkpt lat="44.57595" lon="1.81756">
        <ele>250</ele>
        <time>2022-05-11T20:51:59Z</time>
      </trkpt>
      <trkpt lat="44.57605" lon="1.81764">
        <ele>247</ele>
        <time>2022-05-11T20:52:01Z</time>
      </trkpt>
      <trkpt lat="44.57636" lon="1.81769">
        <ele>244</ele>
        <time>2022-05-11T20:52:09Z</time>
      </trkpt>
      <trkpt lat="44.57697" lon="1.81769">
        <ele>244</ele>
        <time>2022-05-11T20:52:23Z</time>
      </trkpt>
      <trkpt lat="44.57703" lon="1.81776">
        <ele>244</ele>
        <time>2022-05-11T20:52:25Z</time>
      </trkpt>
      <trkpt lat="44.57675" lon="1.81836">
        <ele>234</ele>
        <time>2022-05-11T20:52:37Z</time>
      </trkpt>
      <trkpt lat="44.57618" lon="1.81915">
        <ele>219</ele>
        <time>2022-05-11T20:52:55Z</time>
      </trkpt>
      <trkpt lat="44.5757" lon="1.81946">
        <ele>210</ele>
        <time>2022-05-11T20:53:08Z</time>
      </trkpt>
      <trkpt lat="44.57545" lon="1.81969">
        <ele>208</ele>
        <time>2022-05-11T20:53:15Z</time>
      </trkpt>
      <trkpt lat="44.5752" lon="1.8201">
        <ele>201</ele>
        <time>2022-05-11T20:53:24Z</time>
      </trkpt>
      <trkpt lat="44.57513" lon="1.8203">
        <ele>199</ele>
        <time>2022-05-11T20:53:27Z</time>
      </trkpt>
      <trkpt lat="44.57495" lon="1.82137">
        <ele>192</ele>
        <time>2022-05-11T20:53:46Z</time>
      </trkpt>
      <trkpt lat="44.57489" lon="1.82155">
        <ele>191</ele>
        <time>2022-05-11T20:53:49Z</time>
      </trkpt>
      <trkpt lat="44.57489" lon="1.82185">
        <ele>189</ele>
        <time>2022-05-11T20:53:54Z</time>
      </trkpt>
      <trkpt lat="44.57485" lon="1.82199">
        <ele>188</ele>
        <time>2022-05-11T20:53:57Z</time>
      </trkpt>
      <trkpt lat="44.57484" lon="1.82223">
        <ele>186</ele>
        <time>2022-05-11T20:54:01Z</time>
      </trkpt>
      <trkpt lat="44.57486" lon="1.82245">
        <ele>185</ele>
        <time>2022-05-11T20:54:04Z</time>
      </trkpt>
      <trkpt lat="44.57492" lon="1.82277">
        <ele>183</ele>
        <time>2022-05-11T20:54:10Z</time>
      </trkpt>
      <trkpt lat="44.57515" lon="1.82324">
        <ele>186</ele>
        <time>2022-05-11T20:54:19Z</time>
      </trkpt>
      <trkpt lat="44.57533" lon="1.82373">
        <ele>183</ele>
        <time>2022-05-11T20:54:28Z</time>
      </trkpt>
      <trkpt lat="44.5756" lon="1.82425">
        <ele>179</ele>
        <time>2022-05-11T20:54:39Z</time>
      </trkpt>
      <trkpt lat="44.57645" lon="1.82557">
        <ele>179</ele>
        <time>2022-05-11T20:55:09Z</time>
      </trkpt>
      <trkpt lat="44.57674" lon="1.82587">
        <ele>179</ele>
        <time>2022-05-11T20:55:17Z</time>
      </trkpt>
      <trkpt lat="44.57689" lon="1.82613">
        <ele>181</ele>
        <time>2022-05-11T20:55:23Z</time>
      </trkpt>
      <trkpt lat="44.57702" lon="1.82669">
        <ele>183</ele>
        <time>2022-05-11T20:55:32Z</time>
      </trkpt>
      <trkpt lat="44.57722" lon="1.82739">
        <ele>184</ele>
        <time>2022-05-11T20:55:45Z</time>
      </trkpt>
      <trkpt lat="44.57727" lon="1.82781">
        <ele>182</ele>
        <time>2022-05-11T20:55:52Z</time>
      </trkpt>
      <trkpt lat="44.57735" lon="1.82814">
        <ele>182</ele>
        <time>2022-05-11T20:55:58Z</time>
      </trkpt>
      <trkpt lat="44.57729" lon="1.82923">
        <ele>175</ele>
        <time>2022-05-11T20:56:16Z</time>
      </trkpt>
      <trkpt lat="44.57738" lon="1.82936">
        <ele>175</ele>
        <time>2022-05-11T20:56:19Z</time>
      </trkpt>
      <trkpt lat="44.57757" lon="1.82939">
        <ele>176</ele>
        <time>2022-05-11T20:56:24Z</time>
      </trkpt>
      <trkpt lat="44.57764" lon="1.82944">
        <ele>177</ele>
        <time>2022-05-11T20:56:25Z</time>
      </trkpt>
      <trkpt lat="44.57768" lon="1.82951">
        <ele>177</ele>
        <time>2022-05-11T20:56:27Z</time>
      </trkpt>
      <trkpt lat="44.57776" lon="1.82986">
        <ele>176</ele>
        <time>2022-05-11T20:56:33Z</time>
      </trkpt>
      <trkpt lat="44.57775" lon="1.83004">
        <ele>175</ele>
        <time>2022-05-11T20:56:36Z</time>
      </trkpt>
      <trkpt lat="44.57768" lon="1.83045">
        <ele>177</ele>
        <time>2022-05-11T20:56:43Z</time>
      </trkpt>
      <trkpt lat="44.57767" lon="1.83068">
        <ele>178</ele>
        <time>2022-05-11T20:56:47Z</time>
      </trkpt>
      <trkpt lat="44.5777" lon="1.83079">
        <ele>179</ele>
        <time>2022-05-11T20:56:49Z</time>
      </trkpt>
      <trkpt lat="44.57781" lon="1.83109">
        <ele>180</ele>
        <time>2022-05-11T20:56:54Z</time>
      </trkpt>
      <trkpt lat="44.57814" lon="1.83169">
        <ele>186</ele>
        <time>2022-05-11T20:57:07Z</time>
      </trkpt>
      <trkpt lat="44.57837" lon="1.83225">
        <ele>188</ele>
        <time>2022-05-11T20:57:18Z</time>
      </trkpt>
      <trkpt lat="44.57841" lon="1.83228">
        <ele>188</ele>
        <time>2022-05-11T20:57:19Z</time>
      </trkpt>
      <trkpt lat="44.57847" lon="1.83229">
        <ele>189</ele>
        <time>2022-05-11T20:57:20Z</time>
      </trkpt>
      <trkpt lat="44.5789" lon="1.83213">
        <ele>194</ele>
        <time>2022-05-11T20:57:31Z</time>
      </trkpt>
      <trkpt lat="44.57945" lon="1.83206">
        <ele>200</ele>
        <time>2022-05-11T20:57:44Z</time>
      </trkpt>
      <trkpt lat="44.57967" lon="1.832">
        <ele>202</ele>
        <time>2022-05-11T20:57:49Z</time>
      </trkpt>
      <trkpt lat="44.57975" lon="1.83195">
        <ele>203</ele>
        <time>2022-05-11T20:57:51Z</time>
      </trkpt>
      <trkpt lat="44.57982" lon="1.83196">
        <ele>204</ele>
        <time>2022-05-11T20:57:52Z</time>
      </trkpt>
      <trkpt lat="44.58002" lon="1.83194">
        <ele>206</ele>
        <time>2022-05-11T20:57:57Z</time>
      </trkpt>
      <trkpt lat="44.58016" lon="1.83189">
        <ele>209</ele>
        <time>2022-05-11T20:58:01Z</time>
      </trkpt>
      <trkpt lat="44.58024" lon="1.83182">
        <ele>211</ele>
        <time>2022-05-11T20:58:03Z</time>
      </trkpt>
      <trkpt lat="44.5803" lon="1.83171">
        <ele>213</ele>
        <time>2022-05-11T20:58:05Z</time>
      </trkpt>
      <trkpt lat="44.58037" lon="1.83144">
        <ele>214</ele>
        <time>2022-05-11T20:58:10Z</time>
      </trkpt>
      <trkpt lat="44.58041" lon="1.83137">
        <ele>215</ele>
        <time>2022-05-11T20:58:11Z</time>
      </trkpt>
      <trkpt lat="44.58045" lon="1.83123">
        <ele>216</ele>
        <time>2022-05-11T20:58:14Z</time>
      </trkpt>
      <trkpt lat="44.58052" lon="1.83135">
        <ele>218</ele>
        <time>2022-05-11T20:58:16Z</time>
      </trkpt>
      <trkpt lat="44.5809" lon="1.83161">
        <ele>227</ele>
        <time>2022-05-11T20:58:26Z</time>
      </trkpt>
      <trkpt lat="44.581" lon="1.8317">
        <ele>229</ele>
        <time>2022-05-11T20:58:29Z</time>
      </trkpt>
      <trkpt lat="44.58165" lon="1.83212">
        <ele>236</ele>
        <time>2022-05-11T20:58:46Z</time>
      </trkpt>
      <trkpt lat="44.58181" lon="1.83214">
        <ele>235</ele>
        <time>2022-05-11T20:58:49Z</time>
      </trkpt>
      <trkpt lat="44.58192" lon="1.83207">
        <ele>238</ele>
        <time>2022-05-11T20:58:52Z</time>
      </trkpt>
      <trkpt lat="44.58201" lon="1.83204">
        <ele>240</ele>
        <time>2022-05-11T20:58:54Z</time>
      </trkpt>
      <trkpt lat="44.58216" lon="1.83189">
        <ele>247</ele>
        <time>2022-05-11T20:58:59Z</time>
      </trkpt>
      <trkpt lat="44.58231" lon="1.83175">
        <ele>256</ele>
        <time>2022-05-11T20:59:03Z</time>
      </trkpt>
      <trkpt lat="44.58263" lon="1.83166">
        <ele>264</ele>
        <time>2022-05-11T20:59:11Z</time>
      </trkpt>
      <trkpt lat="44.58287" lon="1.83155">
        <ele>267</ele>
        <time>2022-05-11T20:59:16Z</time>
      </trkpt>
      <trkpt lat="44.58289" lon="1.83154">
        <ele>267</ele>
        <time>2022-05-11T20:59:17Z</time>
      </trkpt>
      <trkpt lat="44.58292" lon="1.83148">
        <ele>270</ele>
        <time>2022-05-11T20:59:18Z</time>
      </trkpt>
      <trkpt lat="44.58314" lon="1.8314">
        <ele>273</ele>
        <time>2022-05-11T20:59:24Z</time>
      </trkpt>
      <trkpt lat="44.58321" lon="1.83141">
        <ele>273</ele>
        <time>2022-05-11T20:59:25Z</time>
      </trkpt>
      <trkpt lat="44.58332" lon="1.83131">
        <ele>279</ele>
        <time>2022-05-11T20:59:28Z</time>
      </trkpt>
      <trkpt lat="44.58348" lon="1.83127">
        <ele>278</ele>
        <time>2022-05-11T20:59:32Z</time>
      </trkpt>
      <trkpt lat="44.58408" lon="1.83095">
        <ele>294</ele>
        <time>2022-05-11T20:59:47Z</time>
      </trkpt>
      <trkpt lat="44.58493" lon="1.83069">
        <ele>297</ele>
        <time>2022-05-11T21:00:07Z</time>
      </trkpt>
      <trkpt lat="44.58547" lon="1.83066">
        <ele>295</ele>
        <time>2022-05-11T21:00:20Z</time>
      </trkpt>
      <trkpt lat="44.58612" lon="1.83085">
        <ele>289</ele>
        <time>2022-05-11T21:00:35Z</time>
      </trkpt>
      <trkpt lat="44.58663" lon="1.8312">
        <ele>277</ele>
        <time>2022-05-11T21:00:49Z</time>
      </trkpt>
      <trkpt lat="44.58697" lon="1.83148">
        <ele>265</ele>
        <time>2022-05-11T21:00:58Z</time>
      </trkpt>
      <trkpt lat="44.58707" lon="1.83154">
        <ele>263</ele>
        <time>2022-05-11T21:01:00Z</time>
      </trkpt>
      <trkpt lat="44.58715" lon="1.83151">
        <ele>265</ele>
        <time>2022-05-11T21:01:02Z</time>
      </trkpt>
      <trkpt lat="44.58732" lon="1.83095">
        <ele>285</ele>
        <time>2022-05-11T21:01:12Z</time>
      </trkpt>
      <trkpt lat="44.58744" lon="1.83061">
        <ele>293</ele>
        <time>2022-05-11T21:01:19Z</time>
      </trkpt>
      <trkpt lat="44.5876" lon="1.83032">
        <ele>297</ele>
        <time>2022-05-11T21:01:25Z</time>
      </trkpt>
      <trkpt lat="44.58804" lon="1.82991">
        <ele>301</ele>
        <time>2022-05-11T21:01:37Z</time>
      </trkpt>
      <trkpt lat="44.58819" lon="1.82985">
        <ele>300</ele>
        <time>2022-05-11T21:01:41Z</time>
      </trkpt>
      <trkpt lat="44.58875" lon="1.82958">
        <ele>303</ele>
        <time>2022-05-11T21:01:55Z</time>
      </trkpt>
      <trkpt lat="44.58877" lon="1.82968">
        <ele>301</ele>
        <time>2022-05-11T21:01:56Z</time>
      </trkpt>
      <trkpt lat="44.58881" lon="1.82979">
        <ele>299</ele>
        <time>2022-05-11T21:01:58Z</time>
      </trkpt>
      <trkpt lat="44.5889" lon="1.82991">
        <ele>297</ele>
        <time>2022-05-11T21:02:01Z</time>
      </trkpt>
      <trkpt lat="44.58899" lon="1.83">
        <ele>295</ele>
        <time>2022-05-11T21:02:04Z</time>
      </trkpt>
      <trkpt lat="44.58925" lon="1.83016">
        <ele>294</ele>
        <time>2022-05-11T21:02:11Z</time>
      </trkpt>
      <trkpt lat="44.58932" lon="1.83043">
        <ele>293</ele>
        <time>2022-05-11T21:02:15Z</time>
      </trkpt>
      <trkpt lat="44.58941" lon="1.83066">
        <ele>293</ele>
        <time>2022-05-11T21:02:20Z</time>
      </trkpt>
      <trkpt lat="44.58944" lon="1.83089">
        <ele>293</ele>
        <time>2022-05-11T21:02:24Z</time>
      </trkpt>
      <trkpt lat="44.58941" lon="1.83098">
        <ele>294</ele>
        <time>2022-05-11T21:02:25Z</time>
      </trkpt>
      <trkpt lat="44.58903" lon="1.83136">
        <ele>291</ele>
        <time>2022-05-11T21:02:36Z</time>
      </trkpt>
      <trkpt lat="44.58882" lon="1.83168">
        <ele>287</ele>
        <time>2022-05-11T21:02:43Z</time>
      </trkpt>
      <trkpt lat="44.58875" lon="1.83189">
        <ele>287</ele>
        <time>2022-05-11T21:02:47Z</time>
      </trkpt>
      <trkpt lat="44.58872" lon="1.83209">
        <ele>287</ele>
        <time>2022-05-11T21:02:51Z</time>
      </trkpt>
      <trkpt lat="44.58856" lon="1.83256">
        <ele>285</ele>
        <time>2022-05-11T21:02:59Z</time>
      </trkpt>
      <trkpt lat="44.58852" lon="1.83277">
        <ele>283</ele>
        <time>2022-05-11T21:03:03Z</time>
      </trkpt>
      <trkpt lat="44.58855" lon="1.83283">
        <ele>284</ele>
        <time>2022-05-11T21:03:04Z</time>
      </trkpt>
      <trkpt lat="44.58859" lon="1.83296">
        <ele>285</ele>
        <time>2022-05-11T21:03:07Z</time>
      </trkpt>
      <trkpt lat="44.58859" lon="1.83304">
        <ele>285</ele>
        <time>2022-05-11T21:03:08Z</time>
      </trkpt>
      <trkpt lat="44.58861" lon="1.83319">
        <ele>286</ele>
        <time>2022-05-11T21:03:10Z</time>
      </trkpt>
      <trkpt lat="44.58859" lon="1.83337">
        <ele>284</ele>
        <time>2022-05-11T21:03:13Z</time>
      </trkpt>
      <trkpt lat="44.58859" lon="1.83384">
        <ele>282</ele>
        <time>2022-05-11T21:03:21Z</time>
      </trkpt>
      <trkpt lat="44.58855" lon="1.83428">
        <ele>278</ele>
        <time>2022-05-11T21:03:29Z</time>
      </trkpt>
      <trkpt lat="44.58856" lon="1.83443">
        <ele>278</ele>
        <time>2022-05-11T21:03:31Z</time>
      </trkpt>
      <trkpt lat="44.58859" lon="1.83453">
        <ele>279</ele>
        <time>2022-05-11T21:03:33Z</time>
      </trkpt>
      <trkpt lat="44.58854" lon="1.83458">
        <ele>277</ele>
        <time>2022-05-11T21:03:34Z</time>
      </trkpt>
      <trkpt lat="44.58849" lon="1.83496">
        <ele>273</ele>
        <time>2022-05-11T21:03:41Z</time>
      </trkpt>
      <trkpt lat="44.58854" lon="1.83538">
        <ele>275</ele>
        <time>2022-05-11T21:03:48Z</time>
      </trkpt>
      <trkpt lat="44.58862" lon="1.8358">
        <ele>278</ele>
        <time>2022-05-11T21:03:55Z</time>
      </trkpt>
      <trkpt lat="44.58877" lon="1.83638">
        <ele>279</ele>
        <time>2022-05-11T21:04:05Z</time>
      </trkpt>
      <trkpt lat="44.5888" lon="1.83646">
        <ele>280</ele>
        <time>2022-05-11T21:04:07Z</time>
      </trkpt>
      <trkpt lat="44.58914" lon="1.83671">
        <ele>289</ele>
        <time>2022-05-11T21:04:16Z</time>
      </trkpt>
      <trkpt lat="44.58927" lon="1.83675">
        <ele>289</ele>
        <time>2022-05-11T21:04:19Z</time>
      </trkpt>
      <trkpt lat="44.58941" lon="1.83683">
        <ele>288</ele>
        <time>2022-05-11T21:04:22Z</time>
      </trkpt>
      <trkpt lat="44.58946" lon="1.83682">
        <ele>288</ele>
        <time>2022-05-11T21:04:24Z</time>
      </trkpt>
      <trkpt lat="44.58954" lon="1.83687">
        <ele>287</ele>
        <time>2022-05-11T21:04:26Z</time>
      </trkpt>
      <trkpt lat="44.58967" lon="1.83685">
        <ele>287</ele>
        <time>2022-05-11T21:04:29Z</time>
      </trkpt>
      <trkpt lat="44.58995" lon="1.83668">
        <ele>293</ele>
        <time>2022-05-11T21:04:36Z</time>
      </trkpt>
      <trkpt lat="44.59025" lon="1.83644">
        <ele>295</ele>
        <time>2022-05-11T21:04:44Z</time>
      </trkpt>
      <trkpt lat="44.59044" lon="1.83639">
        <ele>294</ele>
        <time>2022-05-11T21:04:48Z</time>
      </trkpt>
      <trkpt lat="44.59064" lon="1.83624">
        <ele>296</ele>
        <time>2022-05-11T21:04:54Z</time>
      </trkpt>
      <trkpt lat="44.59082" lon="1.83607">
        <ele>299</ele>
        <time>2022-05-11T21:04:59Z</time>
      </trkpt>
      <trkpt lat="44.59114" lon="1.83592">
        <ele>302</ele>
        <time>2022-05-11T21:05:07Z</time>
      </trkpt>
      <trkpt lat="44.59119" lon="1.83588">
        <ele>303</ele>
        <time>2022-05-11T21:05:08Z</time>
      </trkpt>
      <trkpt lat="44.5912" lon="1.83581">
        <ele>304</ele>
        <time>2022-05-11T21:05:09Z</time>
      </trkpt>
      <trkpt lat="44.59123" lon="1.83577">
        <ele>305</ele>
        <time>2022-05-11T21:05:10Z</time>
      </trkpt>
      <trkpt lat="44.59142" lon="1.83571">
        <ele>305</ele>
        <time>2022-05-11T21:05:15Z</time>
      </trkpt>
      <trkpt lat="44.59148" lon="1.83564">
        <ele>305</ele>
        <time>2022-05-11T21:05:17Z</time>
      </trkpt>
      <trkpt lat="44.5916" lon="1.83557">
        <ele>306</ele>
        <time>2022-05-11T21:05:20Z</time>
      </trkpt>
      <trkpt lat="44.59166" lon="1.8355">
        <ele>307</ele>
        <time>2022-05-11T21:05:21Z</time>
      </trkpt>
      <trkpt lat="44.59178" lon="1.83547">
        <ele>308</ele>
        <time>2022-05-11T21:05:24Z</time>
      </trkpt>
      <trkpt lat="44.59179" lon="1.83549">
        <ele>307</ele>
        <time>2022-05-11T21:05:25Z</time>
      </trkpt>
      <trkpt lat="44.59184" lon="1.8355">
        <ele>307</ele>
        <time>2022-05-11T21:05:26Z</time>
      </trkpt>
      <trkpt lat="44.59179" lon="1.83549">
        <ele>307</ele>
        <time>2022-05-11T21:05:27Z</time>
      </trkpt>
      <trkpt lat="44.59178" lon="1.83547">
        <ele>308</ele>
        <time>2022-05-11T21:05:27Z</time>
      </trkpt>
      <trkpt lat="44.59209" lon="1.83539">
        <ele>309</ele>
        <time>2022-05-11T21:05:35Z</time>
      </trkpt>
      <trkpt lat="44.59236" lon="1.83535">
        <ele>311</ele>
        <time>2022-05-11T21:05:41Z</time>
      </trkpt>
      <trkpt lat="44.59254" lon="1.83538">
        <ele>310</ele>
        <time>2022-05-11T21:05:45Z</time>
      </trkpt>
      <trkpt lat="44.59272" lon="1.83544">
        <ele>310</ele>
        <time>2022-05-11T21:05:50Z</time>
      </trkpt>
      <trkpt lat="44.59309" lon="1.83542">
        <ele>313</ele>
        <time>2022-05-11T21:05:58Z</time>
      </trkpt>
      <trkpt lat="44.59321" lon="1.83539">
        <ele>314</ele>
        <time>2022-05-11T21:06:01Z</time>
      </trkpt>
      <trkpt lat="44.5933" lon="1.83543">
        <ele>314</ele>
        <time>2022-05-11T21:06:03Z</time>
      </trkpt>
      <trkpt lat="44.59346" lon="1.83566">
        <ele>311</ele>
        <time>2022-05-11T21:06:09Z</time>
      </trkpt>
      <trkpt lat="44.59379" lon="1.83629">
        <ele>302</ele>
        <time>2022-05-11T21:06:22Z</time>
      </trkpt>
      <trkpt lat="44.59412" lon="1.83673">
        <ele>295</ele>
        <time>2022-05-11T21:06:32Z</time>
      </trkpt>
      <trkpt lat="44.59464" lon="1.83682">
        <ele>284</ele>
        <time>2022-05-11T21:06:45Z</time>
      </trkpt>
      <trkpt lat="44.5948" lon="1.83705">
        <ele>275</ele>
        <time>2022-05-11T21:06:50Z</time>
      </trkpt>
      <trkpt lat="44.59489" lon="1.83713">
        <ele>271</ele>
        <time>2022-05-11T21:06:52Z</time>
      </trkpt>
      <trkpt lat="44.59529" lon="1.83719">
        <ele>262</ele>
        <time>2022-05-11T21:07:02Z</time>
      </trkpt>
      <trkpt lat="44.59549" lon="1.83717">
        <ele>258</ele>
        <time>2022-05-11T21:07:07Z</time>
      </trkpt>
      <trkpt lat="44.59564" lon="1.83748">
        <ele>251</ele>
        <time>2022-05-11T21:07:13Z</time>
      </trkpt>
      <trkpt lat="44.59574" lon="1.83783">
        <ele>243</ele>
        <time>2022-05-11T21:07:19Z</time>
      </trkpt>
      <trkpt lat="44.59581" lon="1.83791">
        <ele>242</ele>
        <time>2022-05-11T21:07:21Z</time>
      </trkpt>
      <trkpt lat="44.59585" lon="1.83792">
        <ele>241</ele>
        <time>2022-05-11T21:07:22Z</time>
      </trkpt>
      <trkpt lat="44.59593" lon="1.83774">
        <ele>243</ele>
        <time>2022-05-11T21:07:26Z</time>
      </trkpt>
      <trkpt lat="44.59599" lon="1.83843">
        <ele>231</ele>
        <time>2022-05-11T21:07:37Z</time>
      </trkpt>
      <trkpt lat="44.59582" lon="1.83885">
        <ele>221</ele>
        <time>2022-05-11T21:07:45Z</time>
      </trkpt>
      <trkpt lat="44.59559" lon="1.83868">
        <ele>222</ele>
        <time>2022-05-11T21:07:51Z</time>
      </trkpt>
      <trkpt lat="44.59529" lon="1.83827">
        <ele>230</ele>
        <time>2022-05-11T21:08:01Z</time>
      </trkpt>
      <trkpt lat="44.59511" lon="1.83812">
        <ele>234</ele>
        <time>2022-05-11T21:08:06Z</time>
      </trkpt>
      <trkpt lat="44.59495" lon="1.83815">
        <ele>231</ele>
        <time>2022-05-11T21:08:10Z</time>
      </trkpt>
      <trkpt lat="44.59486" lon="1.83832">
        <ele>221</ele>
        <time>2022-05-11T21:08:13Z</time>
      </trkpt>
      <trkpt lat="44.59491" lon="1.83857">
        <ele>212</ele>
        <time>2022-05-11T21:08:18Z</time>
      </trkpt>
      <trkpt lat="44.59546" lon="1.83993">
        <ele>184</ele>
        <time>2022-05-11T21:08:44Z</time>
      </trkpt>
      <trkpt lat="44.59561" lon="1.8402">
        <ele>183</ele>
        <time>2022-05-11T21:08:49Z</time>
      </trkpt>
      <trkpt lat="44.59561" lon="1.84034">
        <ele>181</ele>
        <time>2022-05-11T21:08:52Z</time>
      </trkpt>
      <trkpt lat="44.59551" lon="1.84031">
        <ele>180</ele>
        <time>2022-05-11T21:08:54Z</time>
      </trkpt>
      <trkpt lat="44.59543" lon="1.84033">
        <ele>178</ele>
        <time>2022-05-11T21:08:56Z</time>
      </trkpt>
      <trkpt lat="44.59537" lon="1.84037">
        <ele>177</ele>
        <time>2022-05-11T21:08:57Z</time>
      </trkpt>
      <trkpt lat="44.5953" lon="1.84051">
        <ele>175</ele>
        <time>2022-05-11T21:09:00Z</time>
      </trkpt>
      <trkpt lat="44.59518" lon="1.84066">
        <ele>172</ele>
        <time>2022-05-11T21:09:04Z</time>
      </trkpt>
      <trkpt lat="44.59511" lon="1.84072">
        <ele>170</ele>
        <time>2022-05-11T21:09:06Z</time>
      </trkpt>
      <trkpt lat="44.59464" lon="1.83959">
        <ele>177</ele>
        <time>2022-05-11T21:09:28Z</time>
      </trkpt>
      <trkpt lat="44.59441" lon="1.8391">
        <ele>182</ele>
        <time>2022-05-11T21:09:37Z</time>
      </trkpt>
      <trkpt lat="44.59425" lon="1.83889">
        <ele>188</ele>
        <time>2022-05-11T21:09:43Z</time>
      </trkpt>
      <trkpt lat="44.59411" lon="1.83876">
        <ele>191</ele>
        <time>2022-05-11T21:09:46Z</time>
      </trkpt>
      <trkpt lat="44.5939" lon="1.83864">
        <ele>193</ele>
        <time>2022-05-11T21:09:52Z</time>
      </trkpt>
      <trkpt lat="44.59368" lon="1.83854">
        <ele>193</ele>
        <time>2022-05-11T21:09:57Z</time>
      </trkpt>
      <trkpt lat="44.59324" lon="1.8384">
        <ele>193</ele>
        <time>2022-05-11T21:10:08Z</time>
      </trkpt>
      <trkpt lat="44.59321" lon="1.83857">
        <ele>188</ele>
        <time>2022-05-11T21:10:11Z</time>
      </trkpt>
      <trkpt lat="44.59305" lon="1.83915">
        <ele>170</ele>
        <time>2022-05-11T21:10:21Z</time>
      </trkpt>
      <trkpt lat="44.59302" lon="1.83927">
        <ele>169</ele>
        <time>2022-05-11T21:10:23Z</time>
      </trkpt>
      <trkpt lat="44.593" lon="1.83958">
        <ele>170</ele>
        <time>2022-05-11T21:10:28Z</time>
      </trkpt>
      <trkpt lat="44.593" lon="1.83975">
        <ele>170</ele>
        <time>2022-05-11T21:10:31Z</time>
      </trkpt>
      <trkpt lat="44.59298" lon="1.83994">
        <ele>170</ele>
        <time>2022-05-11T21:10:34Z</time>
      </trkpt>
      <trkpt lat="44.59295" lon="1.84004">
        <ele>171</ele>
        <time>2022-05-11T21:10:36Z</time>
      </trkpt>
      <trkpt lat="44.59284" lon="1.84018">
        <ele>172</ele>
        <time>2022-05-11T21:10:40Z</time>
      </trkpt>
      <trkpt lat="44.59248" lon="1.84033">
        <ele>172</ele>
        <time>2022-05-11T21:10:48Z</time>
      </trkpt>
      <trkpt lat="44.59223" lon="1.84051">
        <ele>173</ele>
        <time>2022-05-11T21:10:55Z</time>
      </trkpt>
      <trkpt lat="44.59222" lon="1.84061">
        <ele>173</ele>
        <time>2022-05-11T21:10:57Z</time>
      </trkpt>
      <trkpt lat="44.59224" lon="1.84069">
        <ele>174</ele>
        <time>2022-05-11T21:10:58Z</time>
      </trkpt>
      <trkpt lat="44.59228" lon="1.84072">
        <ele>174</ele>
        <time>2022-05-11T21:10:59Z</time>
      </trkpt>
      <trkpt lat="44.5925" lon="1.84077">
        <ele>176</ele>
        <time>2022-05-11T21:11:04Z</time>
      </trkpt>
      <trkpt lat="44.59263" lon="1.84084">
        <ele>176</ele>
        <time>2022-05-11T21:11:07Z</time>
      </trkpt>
      <trkpt lat="44.59286" lon="1.84102">
        <ele>178</ele>
        <time>2022-05-11T21:11:14Z</time>
      </trkpt>
      <trkpt lat="44.59301" lon="1.84119">
        <ele>179</ele>
        <time>2022-05-11T21:11:18Z</time>
      </trkpt>
      <trkpt lat="44.59308" lon="1.84133">
        <ele>180</ele>
        <time>2022-05-11T21:11:21Z</time>
      </trkpt>
      <trkpt lat="44.59309" lon="1.84144">
        <ele>180</ele>
        <time>2022-05-11T21:11:23Z</time>
      </trkpt>
      <trkpt lat="44.59307" lon="1.84158">
        <ele>181</ele>
        <time>2022-05-11T21:11:25Z</time>
      </trkpt>
      <trkpt lat="44.593" lon="1.84178">
        <ele>182</ele>
        <time>2022-05-11T21:11:29Z</time>
      </trkpt>
      <trkpt lat="44.59295" lon="1.8419">
        <ele>183</ele>
        <time>2022-05-11T21:11:31Z</time>
      </trkpt>
      <trkpt lat="44.59271" lon="1.84224">
        <ele>187</ele>
        <time>2022-05-11T21:11:39Z</time>
      </trkpt>
      <trkpt lat="44.59272" lon="1.84231">
        <ele>187</ele>
        <time>2022-05-11T21:11:40Z</time>
      </trkpt>
      <trkpt lat="44.59271" lon="1.84238">
        <ele>187</ele>
        <time>2022-05-11T21:11:42Z</time>
      </trkpt>
      <trkpt lat="44.59259" lon="1.84261">
        <ele>190</ele>
        <time>2022-05-11T21:11:46Z</time>
      </trkpt>
      <trkpt lat="44.59256" lon="1.84275">
        <ele>192</ele>
        <time>2022-05-11T21:11:49Z</time>
      </trkpt>
      <trkpt lat="44.59256" lon="1.84285">
        <ele>192</ele>
        <time>2022-05-11T21:11:50Z</time>
      </trkpt>
      <trkpt lat="44.59258" lon="1.84292">
        <ele>192</ele>
        <time>2022-05-11T21:11:52Z</time>
      </trkpt>
      <trkpt lat="44.59271" lon="1.84312">
        <ele>190</ele>
        <time>2022-05-11T21:11:56Z</time>
      </trkpt>
      <trkpt lat="44.59281" lon="1.8435">
        <ele>189</ele>
        <time>2022-05-11T21:12:03Z</time>
      </trkpt>
      <trkpt lat="44.59287" lon="1.8441">
        <ele>189</ele>
        <time>2022-05-11T21:12:13Z</time>
      </trkpt>
      <trkpt lat="44.59301" lon="1.84624">
        <ele>190</ele>
        <time>2022-05-11T21:12:49Z</time>
      </trkpt>
      <trkpt lat="44.59311" lon="1.8466">
        <ele>186</ele>
        <time>2022-05-11T21:12:55Z</time>
      </trkpt>
      <trkpt lat="44.59324" lon="1.84747">
        <ele>178</ele>
        <time>2022-05-11T21:13:10Z</time>
      </trkpt>
      <trkpt lat="44.59327" lon="1.8481">
        <ele>179</ele>
        <time>2022-05-11T21:13:20Z</time>
      </trkpt>
      <trkpt lat="44.59339" lon="1.84902">
        <ele>176</ele>
        <time>2022-05-11T21:13:36Z</time>
      </trkpt>
      <trkpt lat="44.59338" lon="1.84967">
        <ele>178</ele>
        <time>2022-05-11T21:13:47Z</time>
      </trkpt>
      <trkpt lat="44.59348" lon="1.85016">
        <ele>178</ele>
        <time>2022-05-11T21:13:55Z</time>
      </trkpt>
      <trkpt lat="44.59357" lon="1.85093">
        <ele>178</ele>
        <time>2022-05-11T21:14:08Z</time>
      </trkpt>
      <trkpt lat="44.59362" lon="1.85158">
        <ele>176</ele>
        <time>2022-05-11T21:14:19Z</time>
      </trkpt>
      <trkpt lat="44.59362" lon="1.85177">
        <ele>176</ele>
        <time>2022-05-11T21:14:22Z</time>
      </trkpt>
      <trkpt lat="44.59343" lon="1.85294">
        <ele>176</ele>
        <time>2022-05-11T21:14:42Z</time>
      </trkpt>
      <trkpt lat="44.59328" lon="1.85376">
        <ele>178</ele>
        <time>2022-05-11T21:14:56Z</time>
      </trkpt>
      <trkpt lat="44.59313" lon="1.85418">
        <ele>186</ele>
        <time>2022-05-11T21:15:04Z</time>
      </trkpt>
      <trkpt lat="44.59292" lon="1.8546">
        <ele>196</ele>
        <time>2022-05-11T21:15:13Z</time>
      </trkpt>
      <trkpt lat="44.5928" lon="1.85496">
        <ele>202</ele>
        <time>2022-05-11T21:15:19Z</time>
      </trkpt>
      <trkpt lat="44.59272" lon="1.85535">
        <ele>201</ele>
        <time>2022-05-11T21:15:26Z</time>
      </trkpt>
      <trkpt lat="44.59251" lon="1.85682">
        <ele>188</ele>
        <time>2022-05-11T21:15:51Z</time>
      </trkpt>
      <trkpt lat="44.59248" lon="1.85719">
        <ele>186</ele>
        <time>2022-05-11T21:15:57Z</time>
      </trkpt>
      <trkpt lat="44.59248" lon="1.85818">
        <ele>179</ele>
        <time>2022-05-11T21:16:14Z</time>
      </trkpt>
      <trkpt lat="44.59251" lon="1.85891">
        <ele>176</ele>
        <time>2022-05-11T21:16:26Z</time>
      </trkpt>
      <trkpt lat="44.59248" lon="1.85919">
        <ele>177</ele>
        <time>2022-05-11T21:16:30Z</time>
      </trkpt>
      <trkpt lat="44.59223" lon="1.86064">
        <ele>178</ele>
        <time>2022-05-11T21:16:55Z</time>
      </trkpt>
      <trkpt lat="44.59223" lon="1.86079">
        <ele>177</ele>
        <time>2022-05-11T21:16:58Z</time>
      </trkpt>
      <trkpt lat="44.59225" lon="1.86087">
        <ele>176</ele>
        <time>2022-05-11T21:16:59Z</time>
      </trkpt>
      <trkpt lat="44.59221" lon="1.86097">
        <ele>177</ele>
        <time>2022-05-11T21:17:01Z</time>
      </trkpt>
      <trkpt lat="44.5922" lon="1.8611">
        <ele>177</ele>
        <time>2022-05-11T21:17:03Z</time>
      </trkpt>
      <trkpt lat="44.59219" lon="1.86136">
        <ele>177</ele>
        <time>2022-05-11T21:17:08Z</time>
      </trkpt>
      <trkpt lat="44.59221" lon="1.8617">
        <ele>177</ele>
        <time>2022-05-11T21:17:13Z</time>
      </trkpt>
      <trkpt lat="44.5922" lon="1.86253">
        <ele>179</ele>
        <time>2022-05-11T21:17:27Z</time>
      </trkpt>
      <trkpt lat="44.59214" lon="1.86281">
        <ele>180</ele>
        <time>2022-05-11T21:17:32Z</time>
      </trkpt>
      <trkpt lat="44.59209" lon="1.86333">
        <ele>181</ele>
        <time>2022-05-11T21:17:41Z</time>
      </trkpt>
      <trkpt lat="44.59204" lon="1.86371">
        <ele>183</ele>
        <time>2022-05-11T21:17:47Z</time>
      </trkpt>
      <trkpt lat="44.59189" lon="1.86441">
        <ele>186</ele>
        <time>2022-05-11T21:17:59Z</time>
      </trkpt>
      <trkpt lat="44.59185" lon="1.86468">
        <ele>185</ele>
        <time>2022-05-11T21:18:04Z</time>
      </trkpt>
      <trkpt lat="44.59189" lon="1.86505">
        <ele>182</ele>
        <time>2022-05-11T21:18:10Z</time>
      </trkpt>
      <trkpt lat="44.59187" lon="1.86525">
        <ele>181</ele>
        <time>2022-05-11T21:18:13Z</time>
      </trkpt>
      <trkpt lat="44.59174" lon="1.86557">
        <ele>180</ele>
        <time>2022-05-11T21:18:20Z</time>
      </trkpt>
      <trkpt lat="44.59154" lon="1.86584">
        <ele>183</ele>
        <time>2022-05-11T21:18:26Z</time>
      </trkpt>
      <trkpt lat="44.59149" lon="1.86603">
        <ele>183</ele>
        <time>2022-05-11T21:18:29Z</time>
      </trkpt>
      <trkpt lat="44.59135" lon="1.86629">
        <ele>185</ele>
        <time>2022-05-11T21:18:35Z</time>
      </trkpt>
      <trkpt lat="44.59122" lon="1.86659">
        <ele>185</ele>
        <time>2022-05-11T21:18:41Z</time>
      </trkpt>
      <trkpt lat="44.59102" lon="1.8669">
        <ele>187</ele>
        <time>2022-05-11T21:18:48Z</time>
      </trkpt>
      <trkpt lat="44.59092" lon="1.86718">
        <ele>185</ele>
        <time>2022-05-11T21:18:53Z</time>
      </trkpt>
      <trkpt lat="44.5908" lon="1.86734">
        <ele>185</ele>
        <time>2022-05-11T21:18:57Z</time>
      </trkpt>
      <trkpt lat="44.59061" lon="1.86773">
        <ele>186</ele>
        <time>2022-05-11T21:19:05Z</time>
      </trkpt>
      <trkpt lat="44.59053" lon="1.86781">
        <ele>187</ele>
        <time>2022-05-11T21:19:07Z</time>
      </trkpt>
      <trkpt lat="44.59018" lon="1.86842">
        <ele>195</ele>
        <time>2022-05-11T21:19:20Z</time>
      </trkpt>
      <trkpt lat="44.59007" lon="1.86855">
        <ele>196</ele>
        <time>2022-05-11T21:19:23Z</time>
      </trkpt>
      <trkpt lat="44.5899" lon="1.86887">
        <ele>198</ele>
        <time>2022-05-11T21:19:30Z</time>
      </trkpt>
      <trkpt lat="44.58957" lon="1.86954">
        <ele>209</ele>
        <time>2022-05-11T21:19:43Z</time>
      </trkpt>
      <trkpt lat="44.58951" lon="1.86976">
        <ele>209</ele>
        <time>2022-05-11T21:19:47Z</time>
      </trkpt>
      <trkpt lat="44.58947" lon="1.86999">
        <ele>206</ele>
        <time>2022-05-11T21:19:51Z</time>
      </trkpt>
      <trkpt lat="44.58945" lon="1.87042">
        <ele>202</ele>
        <time>2022-05-11T21:19:58Z</time>
      </trkpt>
      <trkpt lat="44.5894" lon="1.87082">
        <ele>199</ele>
        <time>2022-05-11T21:20:05Z</time>
      </trkpt>
      <trkpt lat="44.58944" lon="1.87111">
        <ele>196</ele>
        <time>2022-05-11T21:20:10Z</time>
      </trkpt>
      <trkpt lat="44.58946" lon="1.87162">
        <ele>195</ele>
        <time>2022-05-11T21:20:19Z</time>
      </trkpt>
      <trkpt lat="44.58953" lon="1.87197">
        <ele>195</ele>
        <time>2022-05-11T21:20:25Z</time>
      </trkpt>
      <trkpt lat="44.58964" lon="1.87229">
        <ele>192</ele>
        <time>2022-05-11T21:20:31Z</time>
      </trkpt>
      <trkpt lat="44.58987" lon="1.87257">
        <ele>182</ele>
        <time>2022-05-11T21:20:38Z</time>
      </trkpt>
      <trkpt lat="44.58995" lon="1.87274">
        <ele>178</ele>
        <time>2022-05-11T21:20:41Z</time>
      </trkpt>
      <trkpt lat="44.59011" lon="1.87297">
        <ele>176</ele>
        <time>2022-05-11T21:20:46Z</time>
      </trkpt>
      <trkpt lat="44.59068" lon="1.8736">
        <ele>170</ele>
        <time>2022-05-11T21:21:03Z</time>
      </trkpt>
      <trkpt lat="44.59056" lon="1.87385">
        <ele>171</ele>
        <time>2022-05-11T21:21:08Z</time>
      </trkpt>
      <trkpt lat="44.59046" lon="1.87399">
        <ele>172</ele>
        <time>2022-05-11T21:21:12Z</time>
      </trkpt>
      <trkpt lat="44.59034" lon="1.87427">
        <ele>175</ele>
        <time>2022-05-11T21:21:17Z</time>
      </trkpt>
      <trkpt lat="44.59003" lon="1.87449">
        <ele>179</ele>
        <time>2022-05-11T21:21:25Z</time>
      </trkpt>
      <trkpt lat="44.58997" lon="1.87462">
        <ele>180</ele>
        <time>2022-05-11T21:21:28Z</time>
      </trkpt>
      <trkpt lat="44.58993" lon="1.87476">
        <ele>181</ele>
        <time>2022-05-11T21:21:30Z</time>
      </trkpt>
      <trkpt lat="44.5899" lon="1.87496">
        <ele>182</ele>
        <time>2022-05-11T21:21:34Z</time>
      </trkpt>
      <trkpt lat="44.58993" lon="1.8751">
        <ele>184</ele>
        <time>2022-05-11T21:21:36Z</time>
      </trkpt>
      <trkpt lat="44.59001" lon="1.8753">
        <ele>188</ele>
        <time>2022-05-11T21:21:40Z</time>
      </trkpt>
      <trkpt lat="44.59005" lon="1.87532">
        <ele>188</ele>
        <time>2022-05-11T21:21:41Z</time>
      </trkpt>
      <trkpt lat="44.59017" lon="1.87536">
        <ele>190</ele>
        <time>2022-05-11T21:21:44Z</time>
      </trkpt>
      <trkpt lat="44.59043" lon="1.87539">
        <ele>191</ele>
        <time>2022-05-11T21:21:50Z</time>
      </trkpt>
      <trkpt lat="44.59091" lon="1.87534">
        <ele>191</ele>
        <time>2022-05-11T21:22:01Z</time>
      </trkpt>
      <trkpt lat="44.59123" lon="1.87538">
        <ele>189</ele>
        <time>2022-05-11T21:22:09Z</time>
      </trkpt>
      <trkpt lat="44.59235" lon="1.87581">
        <ele>188</ele>
        <time>2022-05-11T21:22:36Z</time>
      </trkpt>
      <trkpt lat="44.59304" lon="1.87597">
        <ele>187</ele>
        <time>2022-05-11T21:22:52Z</time>
      </trkpt>
      <trkpt lat="44.59365" lon="1.87591">
        <ele>181</ele>
        <time>2022-05-11T21:23:06Z</time>
      </trkpt>
      <trkpt lat="44.59378" lon="1.87592">
        <ele>180</ele>
        <time>2022-05-11T21:23:09Z</time>
      </trkpt>
      <trkpt lat="44.59404" lon="1.876">
        <ele>180</ele>
        <time>2022-05-11T21:23:16Z</time>
      </trkpt>
      <trkpt lat="44.59429" lon="1.87609">
        <ele>180</ele>
        <time>2022-05-11T21:23:22Z</time>
      </trkpt>
      <trkpt lat="44.59503" lon="1.87638">
        <ele>177</ele>
        <time>2022-05-11T21:23:40Z</time>
      </trkpt>
      <trkpt lat="44.5952" lon="1.87656">
        <ele>177</ele>
        <time>2022-05-11T21:23:45Z</time>
      </trkpt>
      <trkpt lat="44.59544" lon="1.8769">
        <ele>178</ele>
        <time>2022-05-11T21:23:52Z</time>
      </trkpt>
      <trkpt lat="44.59571" lon="1.87742">
        <ele>179</ele>
        <time>2022-05-11T21:24:03Z</time>
      </trkpt>
      <trkpt lat="44.59581" lon="1.87765">
        <ele>179</ele>
        <time>2022-05-11T21:24:08Z</time>
      </trkpt>
      <trkpt lat="44.59588" lon="1.8779">
        <ele>181</ele>
        <time>2022-05-11T21:24:12Z</time>
      </trkpt>
      <trkpt lat="44.59601" lon="1.87858">
        <ele>188</ele>
        <time>2022-05-11T21:24:24Z</time>
      </trkpt>
      <trkpt lat="44.59603" lon="1.8798">
        <ele>202</ele>
        <time>2022-05-11T21:24:44Z</time>
      </trkpt>
      <trkpt lat="44.59615" lon="1.88037">
        <ele>200</ele>
        <time>2022-05-11T21:24:54Z</time>
      </trkpt>
      <trkpt lat="44.59623" lon="1.8806">
        <ele>197</ele>
        <time>2022-05-11T21:24:58Z</time>
      </trkpt>
      <trkpt lat="44.59664" lon="1.88414">
        <ele>185</ele>
        <time>2022-05-11T21:25:58Z</time>
      </trkpt>
      <trkpt lat="44.59718" lon="1.88546">
        <ele>191</ele>
        <time>2022-05-11T21:26:23Z</time>
      </trkpt>
      <trkpt lat="44.59805" lon="1.88705">
        <ele>188</ele>
        <time>2022-05-11T21:26:57Z</time>
      </trkpt>
      <trkpt lat="44.59817" lon="1.88724">
        <ele>186</ele>
        <time>2022-05-11T21:27:01Z</time>
      </trkpt>
      <trkpt lat="44.59825" lon="1.8875">
        <ele>186</ele>
        <time>2022-05-11T21:27:06Z</time>
      </trkpt>
      <trkpt lat="44.59923" lon="1.89015">
        <ele>198</ele>
        <time>2022-05-11T21:27:55Z</time>
      </trkpt>
      <trkpt lat="44.59934" lon="1.89059">
        <ele>203</ele>
        <time>2022-05-11T21:28:03Z</time>
      </trkpt>
      <trkpt lat="44.59977" lon="1.89195">
        <ele>213</ele>
        <time>2022-05-11T21:28:28Z</time>
      </trkpt>
      <trkpt lat="44.59987" lon="1.89267">
        <ele>224</ele>
        <time>2022-05-11T21:28:40Z</time>
      </trkpt>
      <trkpt lat="44.60003" lon="1.89311">
        <ele>228</ele>
        <time>2022-05-11T21:28:48Z</time>
      </trkpt>
      <trkpt lat="44.60017" lon="1.89338">
        <ele>230</ele>
        <time>2022-05-11T21:28:54Z</time>
      </trkpt>
      <trkpt lat="44.60043" lon="1.89365">
        <ele>229</ele>
        <time>2022-05-11T21:29:01Z</time>
      </trkpt>
      <trkpt lat="44.60081" lon="1.89393">
        <ele>228</ele>
        <time>2022-05-11T21:29:11Z</time>
      </trkpt>
      <trkpt lat="44.60131" lon="1.89412">
        <ele>227</ele>
        <time>2022-05-11T21:29:23Z</time>
      </trkpt>
      <trkpt lat="44.60158" lon="1.89416">
        <ele>224</ele>
        <time>2022-05-11T21:29:30Z</time>
      </trkpt>
      <trkpt lat="44.60186" lon="1.89415">
        <ele>223</ele>
        <time>2022-05-11T21:29:36Z</time>
      </trkpt>
      <trkpt lat="44.60216" lon="1.89411">
        <ele>223</ele>
        <time>2022-05-11T21:29:43Z</time>
      </trkpt>
      <trkpt lat="44.60226" lon="1.89416">
        <ele>224</ele>
        <time>2022-05-11T21:29:46Z</time>
      </trkpt>
      <trkpt lat="44.60262" lon="1.89386">
        <ele>219</ele>
        <time>2022-05-11T21:29:55Z</time>
      </trkpt>
      <trkpt lat="44.60289" lon="1.89357">
        <ele>216</ele>
        <time>2022-05-11T21:30:03Z</time>
      </trkpt>
      <trkpt lat="44.6036" lon="1.89268">
        <ele>202</ele>
        <time>2022-05-11T21:30:26Z</time>
      </trkpt>
      <trkpt lat="44.60374" lon="1.89243">
        <ele>198</ele>
        <time>2022-05-11T21:30:31Z</time>
      </trkpt>
      <trkpt lat="44.60378" lon="1.89224">
        <ele>196</ele>
        <time>2022-05-11T21:30:34Z</time>
      </trkpt>
      <trkpt lat="44.60401" lon="1.89174">
        <ele>192</ele>
        <time>2022-05-11T21:30:44Z</time>
      </trkpt>
      <trkpt lat="44.60408" lon="1.89167">
        <ele>192</ele>
        <time>2022-05-11T21:30:46Z</time>
      </trkpt>
      <trkpt lat="44.60418" lon="1.89166">
        <ele>193</ele>
        <time>2022-05-11T21:30:48Z</time>
      </trkpt>
      <trkpt lat="44.60422" lon="1.89171">
        <ele>192</ele>
        <time>2022-05-11T21:30:50Z</time>
      </trkpt>
      <trkpt lat="44.60428" lon="1.89194">
        <ele>193</ele>
        <time>2022-05-11T21:30:54Z</time>
      </trkpt>
      <trkpt lat="44.60433" lon="1.892">
        <ele>193</ele>
        <time>2022-05-11T21:30:55Z</time>
      </trkpt>
      <trkpt lat="44.60441" lon="1.89498">
        <ele>198</ele>
        <time>2022-05-11T21:31:45Z</time>
      </trkpt>
      <trkpt lat="44.60442" lon="1.8956">
        <ele>201</ele>
        <time>2022-05-11T21:31:55Z</time>
      </trkpt>
      <trkpt lat="44.60441" lon="1.89632">
        <ele>204</ele>
        <time>2022-05-11T21:32:07Z</time>
      </trkpt>
      <trkpt lat="44.60446" lon="1.897">
        <ele>206</ele>
        <time>2022-05-11T21:32:19Z</time>
      </trkpt>
      <trkpt lat="44.60451" lon="1.8971">
        <ele>205</ele>
        <time>2022-05-11T21:32:21Z</time>
      </trkpt>
      <trkpt lat="44.60458" lon="1.89715">
        <ele>201</ele>
        <time>2022-05-11T21:32:22Z</time>
      </trkpt>
      <trkpt lat="44.60474" lon="1.89719">
        <ele>191</ele>
        <time>2022-05-11T21:32:26Z</time>
      </trkpt>
      <trkpt lat="44.60506" lon="1.89714">
        <ele>175</ele>
        <time>2022-05-11T21:32:34Z</time>
      </trkpt>
      <trkpt lat="44.60546" lon="1.89703">
        <ele>174</ele>
        <time>2022-05-11T21:32:43Z</time>
      </trkpt>
      <trkpt lat="44.60563" lon="1.89699">
        <ele>174</ele>
        <time>2022-05-11T21:32:47Z</time>
      </trkpt>
      <trkpt lat="44.60577" lon="1.89709">
        <ele>174</ele>
        <time>2022-05-11T21:32:51Z</time>
      </trkpt>
      <trkpt lat="44.60591" lon="1.89728">
        <ele>174</ele>
        <time>2022-05-11T21:32:56Z</time>
      </trkpt>
      <trkpt lat="44.60607" lon="1.89767">
        <ele>175</ele>
        <time>2022-05-11T21:33:03Z</time>
      </trkpt>
      <trkpt lat="44.60623" lon="1.89806">
        <ele>175</ele>
        <time>2022-05-11T21:33:10Z</time>
      </trkpt>
      <trkpt lat="44.60639" lon="1.89852">
        <ele>176</ele>
        <time>2022-05-11T21:33:19Z</time>
      </trkpt>
      <trkpt lat="44.60651" lon="1.89892">
        <ele>175</ele>
        <time>2022-05-11T21:33:26Z</time>
      </trkpt>
      <trkpt lat="44.60658" lon="1.89903">
        <ele>175</ele>
        <time>2022-05-11T21:33:29Z</time>
      </trkpt>
      <trkpt lat="44.60672" lon="1.8992">
        <ele>175</ele>
        <time>2022-05-11T21:33:33Z</time>
      </trkpt>
      <trkpt lat="44.60686" lon="1.89929">
        <ele>177</ele>
        <time>2022-05-11T21:33:37Z</time>
      </trkpt>
      <trkpt lat="44.60718" lon="1.89939">
        <ele>179</ele>
        <time>2022-05-11T21:33:44Z</time>
      </trkpt>
      <trkpt lat="44.60728" lon="1.89942">
        <ele>180</ele>
        <time>2022-05-11T21:33:47Z</time>
      </trkpt>
      <trkpt lat="44.60763" lon="1.89963">
        <ele>186</ele>
        <time>2022-05-11T21:33:56Z</time>
      </trkpt>
      <trkpt lat="44.60788" lon="1.89995">
        <ele>192</ele>
        <time>2022-05-11T21:34:03Z</time>
      </trkpt>
      <trkpt lat="44.60792" lon="1.90016">
        <ele>192</ele>
        <time>2022-05-11T21:34:07Z</time>
      </trkpt>
      <trkpt lat="44.6079" lon="1.90029">
        <ele>190</ele>
        <time>2022-05-11T21:34:09Z</time>
      </trkpt>
      <trkpt lat="44.60813" lon="1.90036">
        <ele>195</ele>
        <time>2022-05-11T21:34:15Z</time>
      </trkpt>
      <trkpt lat="44.60839" lon="1.90069">
        <ele>197</ele>
        <time>2022-05-11T21:34:23Z</time>
      </trkpt>
      <trkpt lat="44.6086" lon="1.90116">
        <ele>200</ele>
        <time>2022-05-11T21:34:32Z</time>
      </trkpt>
      <trkpt lat="44.60849" lon="1.90131">
        <ele>192</ele>
        <time>2022-05-11T21:34:36Z</time>
      </trkpt>
      <trkpt lat="44.60846" lon="1.90148">
        <ele>188</ele>
        <time>2022-05-11T21:34:39Z</time>
      </trkpt>
      <trkpt lat="44.60844" lon="1.9017">
        <ele>183</ele>
        <time>2022-05-11T21:34:42Z</time>
      </trkpt>
      <trkpt lat="44.60908" lon="1.90235">
        <ele>195</ele>
        <time>2022-05-11T21:35:01Z</time>
      </trkpt>
      <trkpt lat="44.60977" lon="1.90369">
        <ele>209</ele>
        <time>2022-05-11T21:35:28Z</time>
      </trkpt>
      <trkpt lat="44.61" lon="1.90441">
        <ele>205</ele>
        <time>2022-05-11T21:35:41Z</time>
      </trkpt>
      <trkpt lat="44.61008" lon="1.90515">
        <ele>208</ele>
        <time>2022-05-11T21:35:54Z</time>
      </trkpt>
      <trkpt lat="44.60999" lon="1.90603">
        <ele>198</ele>
        <time>2022-05-11T21:36:09Z</time>
      </trkpt>
      <trkpt lat="44.60987" lon="1.90648">
        <ele>193</ele>
        <time>2022-05-11T21:36:17Z</time>
      </trkpt>
      <trkpt lat="44.60969" lon="1.90677">
        <ele>192</ele>
        <time>2022-05-11T21:36:23Z</time>
      </trkpt>
      <trkpt lat="44.60895" lon="1.90721">
        <ele>195</ele>
        <time>2022-05-11T21:36:42Z</time>
      </trkpt>
      <trkpt lat="44.60846" lon="1.90728">
        <ele>193</ele>
        <time>2022-05-11T21:36:53Z</time>
      </trkpt>
      <trkpt lat="44.6072" lon="1.90689">
        <ele>183</ele>
        <time>2022-05-11T21:37:23Z</time>
      </trkpt>
      <trkpt lat="44.60651" lon="1.90687">
        <ele>184</ele>
        <time>2022-05-11T21:37:39Z</time>
      </trkpt>
      <trkpt lat="44.60624" lon="1.9069">
        <ele>184</ele>
        <time>2022-05-11T21:37:46Z</time>
      </trkpt>
      <trkpt lat="44.60478" lon="1.90723">
        <ele>188</ele>
        <time>2022-05-11T21:38:20Z</time>
      </trkpt>
      <trkpt lat="44.60464" lon="1.9073">
        <ele>188</ele>
        <time>2022-05-11T21:38:24Z</time>
      </trkpt>
      <trkpt lat="44.60273" lon="1.90907">
        <ele>192</ele>
        <time>2022-05-11T21:39:17Z</time>
      </trkpt>
      <trkpt lat="44.6014" lon="1.91109">
        <ele>187</ele>
        <time>2022-05-11T21:40:03Z</time>
      </trkpt>
      <trkpt lat="44.60094" lon="1.91315">
        <ele>192</ele>
        <time>2022-05-11T21:40:39Z</time>
      </trkpt>
      <trkpt lat="44.60087" lon="1.91335">
        <ele>192</ele>
        <time>2022-05-11T21:40:43Z</time>
      </trkpt>
      <trkpt lat="44.60077" lon="1.91354">
        <ele>192</ele>
        <time>2022-05-11T21:40:47Z</time>
      </trkpt>
      <trkpt lat="44.60066" lon="1.91379">
        <ele>193</ele>
        <time>2022-05-11T21:40:51Z</time>
      </trkpt>
      <trkpt lat="44.60057" lon="1.91413">
        <ele>194</ele>
        <time>2022-05-11T21:40:57Z</time>
      </trkpt>
      <trkpt lat="44.6005" lon="1.91452">
        <ele>195</ele>
        <time>2022-05-11T21:41:04Z</time>
      </trkpt>
      <trkpt lat="44.60039" lon="1.91546">
        <ele>199</ele>
        <time>2022-05-11T21:41:20Z</time>
      </trkpt>
      <trkpt lat="44.60041" lon="1.91563">
        <ele>199</ele>
        <time>2022-05-11T21:41:23Z</time>
      </trkpt>
      <trkpt lat="44.60053" lon="1.91618">
        <ele>197</ele>
        <time>2022-05-11T21:41:32Z</time>
      </trkpt>
      <trkpt lat="44.60053" lon="1.91634">
        <ele>196</ele>
        <time>2022-05-11T21:41:35Z</time>
      </trkpt>
      <trkpt lat="44.60049" lon="1.91645">
        <ele>195</ele>
        <time>2022-05-11T21:41:37Z</time>
      </trkpt>
      <trkpt lat="44.60038" lon="1.91659">
        <ele>194</ele>
        <time>2022-05-11T21:41:41Z</time>
      </trkpt>
      <trkpt lat="44.59997" lon="1.91694">
        <ele>190</ele>
        <time>2022-05-11T21:41:52Z</time>
      </trkpt>
      <trkpt lat="44.59961" lon="1.91731">
        <ele>184</ele>
        <time>2022-05-11T21:42:02Z</time>
      </trkpt>
      <trkpt lat="44.59954" lon="1.91753">
        <ele>181</ele>
        <time>2022-05-11T21:42:06Z</time>
      </trkpt>
      <trkpt lat="44.59936" lon="1.91743">
        <ele>182</ele>
        <time>2022-05-11T21:42:11Z</time>
      </trkpt>
      <trkpt lat="44.59905" lon="1.91713">
        <ele>187</ele>
        <time>2022-05-11T21:42:20Z</time>
      </trkpt>
      <trkpt lat="44.59772" lon="1.91708">
        <ele>179</ele>
        <time>2022-05-11T21:42:51Z</time>
      </trkpt>
      <trkpt lat="44.59766" lon="1.91708">
        <ele>178</ele>
        <time>2022-05-11T21:42:52Z</time>
      </trkpt>
      <trkpt lat="44.59663" lon="1.91706">
        <ele>178</ele>
        <time>2022-05-11T21:43:16Z</time>
      </trkpt>
      <trkpt lat="44.59603" lon="1.91706">
        <ele>187</ele>
        <time>2022-05-11T21:43:30Z</time>
      </trkpt>
      <trkpt lat="44.59599" lon="1.91706">
        <ele>188</ele>
        <time>2022-05-11T21:43:31Z</time>
      </trkpt>
      <trkpt lat="44.59604" lon="1.91741">
        <ele>186</ele>
        <time>2022-05-11T21:43:37Z</time>
      </trkpt>
      <trkpt lat="44.59604" lon="1.9175">
        <ele>186</ele>
        <time>2022-05-11T21:43:38Z</time>
      </trkpt>
      <trkpt lat="44.59601" lon="1.91762">
        <ele>185</ele>
        <time>2022-05-11T21:43:41Z</time>
      </trkpt>
      <trkpt lat="44.59586" lon="1.91786">
        <ele>185</ele>
        <time>2022-05-11T21:43:46Z</time>
      </trkpt>
      <trkpt lat="44.59567" lon="1.91806">
        <ele>186</ele>
        <time>2022-05-11T21:43:51Z</time>
      </trkpt>
      <trkpt lat="44.59559" lon="1.91819">
        <ele>186</ele>
        <time>2022-05-11T21:43:54Z</time>
      </trkpt>
      <trkpt lat="44.59543" lon="1.91899">
        <ele>194</ele>
        <time>2022-05-11T21:44:08Z</time>
      </trkpt>
      <trkpt lat="44.59538" lon="1.91986">
        <ele>198</ele>
        <time>2022-05-11T21:44:23Z</time>
      </trkpt>
      <trkpt lat="44.59549" lon="1.92055">
        <ele>192</ele>
        <time>2022-05-11T21:44:34Z</time>
      </trkpt>
      <trkpt lat="44.59534" lon="1.92127">
        <ele>195</ele>
        <time>2022-05-11T21:44:47Z</time>
      </trkpt>
      <trkpt lat="44.59529" lon="1.92211">
        <ele>193</ele>
        <time>2022-05-11T21:45:01Z</time>
      </trkpt>
      <trkpt lat="44.59527" lon="1.92381">
        <ele>192</ele>
        <time>2022-05-11T21:45:29Z</time>
      </trkpt>
      <trkpt lat="44.59524" lon="1.92455">
        <ele>192</ele>
        <time>2022-05-11T21:45:41Z</time>
      </trkpt>
      <trkpt lat="44.59495" lon="1.92612">
        <ele>191</ele>
        <time>2022-05-11T21:46:08Z</time>
      </trkpt>
      <trkpt lat="44.5948" lon="1.92709">
        <ele>190</ele>
        <time>2022-05-11T21:46:25Z</time>
      </trkpt>
      <trkpt lat="44.59472" lon="1.92805">
        <ele>190</ele>
        <time>2022-05-11T21:46:41Z</time>
      </trkpt>
      <trkpt lat="44.59468" lon="1.92816">
        <ele>191</ele>
        <time>2022-05-11T21:46:43Z</time>
      </trkpt>
      <trkpt lat="44.59465" lon="1.92838">
        <ele>191</ele>
        <time>2022-05-11T21:46:47Z</time>
      </trkpt>
      <trkpt lat="44.59478" lon="1.92862">
        <ele>187</ele>
        <time>2022-05-11T21:46:52Z</time>
      </trkpt>
      <trkpt lat="44.59489" lon="1.92865">
        <ele>185</ele>
        <time>2022-05-11T21:46:54Z</time>
      </trkpt>
      <trkpt lat="44.59505" lon="1.92882">
        <ele>182</ele>
        <time>2022-05-11T21:46:59Z</time>
      </trkpt>
      <trkpt lat="44.59516" lon="1.92901">
        <ele>181</ele>
        <time>2022-05-11T21:47:03Z</time>
      </trkpt>
      <trkpt lat="44.59514" lon="1.92938">
        <ele>180</ele>
        <time>2022-05-11T21:47:09Z</time>
      </trkpt>
      <trkpt lat="44.59505" lon="1.92982">
        <ele>178</ele>
        <time>2022-05-11T21:47:17Z</time>
      </trkpt>
      <trkpt lat="44.59486" lon="1.93022">
        <ele>178</ele>
        <time>2022-05-11T21:47:25Z</time>
      </trkpt>
      <trkpt lat="44.59474" lon="1.93064">
        <ele>179</ele>
        <time>2022-05-11T21:47:32Z</time>
      </trkpt>
      <trkpt lat="44.59466" lon="1.93119">
        <ele>178</ele>
        <time>2022-05-11T21:47:42Z</time>
      </trkpt>
      <trkpt lat="44.59453" lon="1.93179">
        <ele>177</ele>
        <time>2022-05-11T21:47:52Z</time>
      </trkpt>
      <trkpt lat="44.59451" lon="1.93208">
        <ele>177</ele>
        <time>2022-05-11T21:47:57Z</time>
      </trkpt>
      <trkpt lat="44.59457" lon="1.93234">
        <ele>177</ele>
        <time>2022-05-11T21:48:02Z</time>
      </trkpt>
      <trkpt lat="44.59461" lon="1.93258">
        <ele>177</ele>
        <time>2022-05-11T21:48:06Z</time>
      </trkpt>
      <trkpt lat="44.59448" lon="1.93296">
        <ele>177</ele>
        <time>2022-05-11T21:48:13Z</time>
      </trkpt>
      <trkpt lat="44.59405" lon="1.93404">
        <ele>178</ele>
        <time>2022-05-11T21:48:33Z</time>
      </trkpt>
      <trkpt lat="44.59409" lon="1.93453">
        <ele>178</ele>
        <time>2022-05-11T21:48:42Z</time>
      </trkpt>
      <trkpt lat="44.59401" lon="1.9348">
        <ele>179</ele>
        <time>2022-05-11T21:48:46Z</time>
      </trkpt>
      <trkpt lat="44.59371" lon="1.93524">
        <ele>178</ele>
        <time>2022-05-11T21:48:57Z</time>
      </trkpt>
      <trkpt lat="44.5935" lon="1.93561">
        <ele>178</ele>
        <time>2022-05-11T21:49:04Z</time>
      </trkpt>
      <trkpt lat="44.59293" lon="1.93701">
        <ele>178</ele>
        <time>2022-05-11T21:49:31Z</time>
      </trkpt>
      <trkpt lat="44.59218" lon="1.93881">
        <ele>178</ele>
        <time>2022-05-11T21:50:06Z</time>
      </trkpt>
      <trkpt lat="44.59174" lon="1.94009">
        <ele>177</ele>
        <time>2022-05-11T21:50:30Z</time>
      </trkpt>
      <trkpt lat="44.59161" lon="1.94028">
        <ele>177</ele>
        <time>2022-05-11T21:50:34Z</time>
      </trkpt>
      <trkpt lat="44.59133" lon="1.94025">
        <ele>177</ele>
        <time>2022-05-11T21:50:40Z</time>
      </trkpt>
      <trkpt lat="44.59103" lon="1.94034">
        <ele>177</ele>
        <time>2022-05-11T21:50:48Z</time>
      </trkpt>
      <trkpt lat="44.59075" lon="1.94056">
        <ele>178</ele>
        <time>2022-05-11T21:50:55Z</time>
      </trkpt>
      <trkpt lat="44.59054" lon="1.94088">
        <ele>179</ele>
        <time>2022-05-11T21:51:02Z</time>
      </trkpt>
      <trkpt lat="44.59033" lon="1.94163">
        <ele>181</ele>
        <time>2022-05-11T21:51:16Z</time>
      </trkpt>
      <trkpt lat="44.5903" lon="1.94204">
        <ele>181</ele>
        <time>2022-05-11T21:51:23Z</time>
      </trkpt>
      <trkpt lat="44.58974" lon="1.94301">
        <ele>183</ele>
        <time>2022-05-11T21:51:43Z</time>
      </trkpt>
      <trkpt lat="44.58935" lon="1.94518">
        <ele>179</ele>
        <time>2022-05-11T21:52:21Z</time>
      </trkpt>
      <trkpt lat="44.58882" lon="1.94655">
        <ele>179</ele>
        <time>2022-05-11T21:52:47Z</time>
      </trkpt>
      <trkpt lat="44.58825" lon="1.94872">
        <ele>180</ele>
        <time>2022-05-11T21:53:25Z</time>
      </trkpt>
      <trkpt lat="44.58816" lon="1.94937">
        <ele>179</ele>
        <time>2022-05-11T21:53:36Z</time>
      </trkpt>
      <trkpt lat="44.5877" lon="1.94977">
        <ele>179</ele>
        <time>2022-05-11T21:53:49Z</time>
      </trkpt>
      <trkpt lat="44.58756" lon="1.95014">
        <ele>179</ele>
        <time>2022-05-11T21:53:56Z</time>
      </trkpt>
      <trkpt lat="44.58484" lon="1.95107">
        <ele>193</ele>
        <time>2022-05-11T21:55:01Z</time>
      </trkpt>
      <trkpt lat="44.58445" lon="1.95011">
        <ele>197</ele>
        <time>2022-05-11T21:55:19Z</time>
      </trkpt>
      <trkpt lat="44.5845" lon="1.94945">
        <ele>198</ele>
        <time>2022-05-11T21:55:30Z</time>
      </trkpt>
      <trkpt lat="44.58419" lon="1.94941">
        <ele>202</ele>
        <time>2022-05-11T21:55:38Z</time>
      </trkpt>
      <trkpt lat="44.58358" lon="1.94891">
        <ele>215</ele>
        <time>2022-05-11T21:55:54Z</time>
      </trkpt>
      <trkpt lat="44.58293" lon="1.94855">
        <ele>231</ele>
        <time>2022-05-11T21:56:10Z</time>
      </trkpt>
      <trkpt lat="44.58287" lon="1.94852">
        <ele>233</ele>
        <time>2022-05-11T21:56:12Z</time>
      </trkpt>
      <trkpt lat="44.58267" lon="1.94858">
        <ele>236</ele>
        <time>2022-05-11T21:56:17Z</time>
      </trkpt>
      <trkpt lat="44.58238" lon="1.94853">
        <ele>244</ele>
        <time>2022-05-11T21:56:24Z</time>
      </trkpt>
      <trkpt lat="44.58226" lon="1.94854">
        <ele>248</ele>
        <time>2022-05-11T21:56:26Z</time>
      </trkpt>
      <trkpt lat="44.58219" lon="1.94858">
        <ele>249</ele>
        <time>2022-05-11T21:56:28Z</time>
      </trkpt>
      <trkpt lat="44.58207" lon="1.94875">
        <ele>252</ele>
        <time>2022-05-11T21:56:32Z</time>
      </trkpt>
      <trkpt lat="44.58198" lon="1.94882">
        <ele>254</ele>
        <time>2022-05-11T21:56:35Z</time>
      </trkpt>
      <trkpt lat="44.58172" lon="1.94881">
        <ele>262</ele>
        <time>2022-05-11T21:56:41Z</time>
      </trkpt>
      <trkpt lat="44.58167" lon="1.94895">
        <ele>263</ele>
        <time>2022-05-11T21:56:43Z</time>
      </trkpt>
      <trkpt lat="44.58157" lon="1.94909">
        <ele>265</ele>
        <time>2022-05-11T21:56:47Z</time>
      </trkpt>
      <trkpt lat="44.58131" lon="1.94931">
        <ele>268</ele>
        <time>2022-05-11T21:56:54Z</time>
      </trkpt>
      <trkpt lat="44.58122" lon="1.94948">
        <ele>268</ele>
        <time>2022-05-11T21:56:57Z</time>
      </trkpt>
      <trkpt lat="44.58095" lon="1.94962">
        <ele>273</ele>
        <time>2022-05-11T21:57:04Z</time>
      </trkpt>
      <trkpt lat="44.58092" lon="1.94927">
        <ele>277</ele>
        <time>2022-05-11T21:57:10Z</time>
      </trkpt>
      <trkpt lat="44.58096" lon="1.94858">
        <ele>283</ele>
        <time>2022-05-11T21:57:21Z</time>
      </trkpt>
      <trkpt lat="44.58094" lon="1.94847">
        <ele>284</ele>
        <time>2022-05-11T21:57:23Z</time>
      </trkpt>
      <trkpt lat="44.58086" lon="1.94842">
        <ele>287</ele>
        <time>2022-05-11T21:57:25Z</time>
      </trkpt>
      <trkpt lat="44.58087" lon="1.94836">
        <ele>287</ele>
        <time>2022-05-11T21:57:26Z</time>
      </trkpt>
      <trkpt lat="44.58095" lon="1.94801">
        <ele>287</ele>
        <time>2022-05-11T21:57:32Z</time>
      </trkpt>
      <trkpt lat="44.58086" lon="1.94792">
        <ele>289</ele>
        <time>2022-05-11T21:57:35Z</time>
      </trkpt>
      <trkpt lat="44.58117" lon="1.94724">
        <ele>285</ele>
        <time>2022-05-11T21:57:48Z</time>
      </trkpt>
      <trkpt lat="44.58121" lon="1.94709">
        <ele>285</ele>
        <time>2022-05-11T21:57:51Z</time>
      </trkpt>
      <trkpt lat="44.58124" lon="1.94663">
        <ele>286</ele>
        <time>2022-05-11T21:57:59Z</time>
      </trkpt>
      <trkpt lat="44.58133" lon="1.94337">
        <ele>291</ele>
        <time>2022-05-11T21:58:53Z</time>
      </trkpt>
      <trkpt lat="44.58139" lon="1.94336">
        <ele>292</ele>
        <time>2022-05-11T21:58:54Z</time>
      </trkpt>
      <trkpt lat="44.58149" lon="1.94325">
        <ele>293</ele>
        <time>2022-05-11T21:58:57Z</time>
      </trkpt>
      <trkpt lat="44.58152" lon="1.94315">
        <ele>294</ele>
        <time>2022-05-11T21:58:59Z</time>
      </trkpt>
      <trkpt lat="44.58157" lon="1.94284">
        <ele>297</ele>
        <time>2022-05-11T21:59:04Z</time>
      </trkpt>
      <trkpt lat="44.58164" lon="1.94259">
        <ele>299</ele>
        <time>2022-05-11T21:59:09Z</time>
      </trkpt>
      <trkpt lat="44.58164" lon="1.94177">
        <ele>306</ele>
        <time>2022-05-11T21:59:23Z</time>
      </trkpt>
      <trkpt lat="44.58171" lon="1.94163">
        <ele>308</ele>
        <time>2022-05-11T21:59:25Z</time>
      </trkpt>
      <trkpt lat="44.58157" lon="1.94156">
        <ele>307</ele>
        <time>2022-05-11T21:59:29Z</time>
      </trkpt>
      <trkpt lat="44.58153" lon="1.94148">
        <ele>307</ele>
        <time>2022-05-11T21:59:30Z</time>
      </trkpt>
      <trkpt lat="44.58155" lon="1.94132">
        <ele>309</ele>
        <time>2022-05-11T21:59:33Z</time>
      </trkpt>
      <trkpt lat="44.58156" lon="1.94116">
        <ele>311</ele>
        <time>2022-05-11T21:59:36Z</time>
      </trkpt>
      <trkpt lat="44.58153" lon="1.94093">
        <ele>313</ele>
        <time>2022-05-11T21:59:40Z</time>
      </trkpt>
      <trkpt lat="44.58148" lon="1.94076">
        <ele>313</ele>
        <time>2022-05-11T21:59:43Z</time>
      </trkpt>
      <trkpt lat="44.58147" lon="1.94067">
        <ele>314</ele>
        <time>2022-05-11T21:59:44Z</time>
      </trkpt>
      <trkpt lat="44.5815" lon="1.94008">
        <ele>316</ele>
        <time>2022-05-11T21:59:54Z</time>
      </trkpt>
      <trkpt lat="44.58161" lon="1.93987">
        <ele>318</ele>
        <time>2022-05-11T21:59:58Z</time>
      </trkpt>
      <trkpt lat="44.58175" lon="1.93951">
        <ele>319</ele>
        <time>2022-05-11T22:00:05Z</time>
      </trkpt>
      <trkpt lat="44.58195" lon="1.93935">
        <ele>320</ele>
        <time>2022-05-11T22:00:11Z</time>
      </trkpt>
      <trkpt lat="44.58265" lon="1.93863">
        <ele>319</ele>
        <time>2022-05-11T22:00:31Z</time>
      </trkpt>
      <trkpt lat="44.5827" lon="1.93852">
        <ele>318</ele>
        <time>2022-05-11T22:00:33Z</time>
      </trkpt>
      <trkpt lat="44.58275" lon="1.93803">
        <ele>317</ele>
        <time>2022-05-11T22:00:41Z</time>
      </trkpt>
      <trkpt lat="44.58276" lon="1.93761">
        <ele>318</ele>
        <time>2022-05-11T22:00:48Z</time>
      </trkpt>
      <trkpt lat="44.58279" lon="1.93689">
        <ele>316</ele>
        <time>2022-05-11T22:01:00Z</time>
      </trkpt>
      <trkpt lat="44.58277" lon="1.93655">
        <ele>316</ele>
        <time>2022-05-11T22:01:06Z</time>
      </trkpt>
      <trkpt lat="44.58264" lon="1.93597">
        <ele>315</ele>
        <time>2022-05-11T22:01:16Z</time>
      </trkpt>
      <trkpt lat="44.58262" lon="1.93506">
        <ele>308</ele>
        <time>2022-05-11T22:01:31Z</time>
      </trkpt>
      <trkpt lat="44.58242" lon="1.93427">
        <ele>306</ele>
        <time>2022-05-11T22:01:45Z</time>
      </trkpt>
      <trkpt lat="44.5825" lon="1.9337">
        <ele>302</ele>
        <time>2022-05-11T22:01:55Z</time>
      </trkpt>
      <trkpt lat="44.58282" lon="1.93251">
        <ele>294</ele>
        <time>2022-05-11T22:02:16Z</time>
      </trkpt>
      <trkpt lat="44.58297" lon="1.93179">
        <ele>297</ele>
        <time>2022-05-11T22:02:28Z</time>
      </trkpt>
      <trkpt lat="44.58301" lon="1.93134">
        <ele>298</ele>
        <time>2022-05-11T22:02:36Z</time>
      </trkpt>
      <trkpt lat="44.58307" lon="1.93037">
        <ele>303</ele>
        <time>2022-05-11T22:02:52Z</time>
      </trkpt>
      <trkpt lat="44.58313" lon="1.92976">
        <ele>308</ele>
        <time>2022-05-11T22:03:02Z</time>
      </trkpt>
      <trkpt lat="44.58321" lon="1.9296">
        <ele>309</ele>
        <time>2022-05-11T22:03:06Z</time>
      </trkpt>
      <trkpt lat="44.58366" lon="1.92907">
        <ele>312</ele>
        <time>2022-05-11T22:03:19Z</time>
      </trkpt>
      <trkpt lat="44.58378" lon="1.92896">
        <ele>312</ele>
        <time>2022-05-11T22:03:23Z</time>
      </trkpt>
      <trkpt lat="44.58368" lon="1.92889">
        <ele>313</ele>
        <time>2022-05-11T22:03:25Z</time>
      </trkpt>
      <trkpt lat="44.58227" lon="1.92876">
        <ele>320</ele>
        <time>2022-05-11T22:03:58Z</time>
      </trkpt>
      <trkpt lat="44.58214" lon="1.92872">
        <ele>321</ele>
        <time>2022-05-11T22:04:01Z</time>
      </trkpt>
      <trkpt lat="44.582" lon="1.9286">
        <ele>322</ele>
        <time>2022-05-11T22:04:05Z</time>
      </trkpt>
      <trkpt lat="44.58136" lon="1.9279">
        <ele>326</ele>
        <time>2022-05-11T22:04:24Z</time>
      </trkpt>
      <trkpt lat="44.58079" lon="1.9276">
        <ele>326</ele>
        <time>2022-05-11T22:04:38Z</time>
      </trkpt>
      <trkpt lat="44.58056" lon="1.92739">
        <ele>328</ele>
        <time>2022-05-11T22:04:45Z</time>
      </trkpt>
      <trkpt lat="44.58043" lon="1.92724">
        <ele>328</ele>
        <time>2022-05-11T22:04:49Z</time>
      </trkpt>
      <trkpt lat="44.58025" lon="1.92709">
        <ele>329</ele>
        <time>2022-05-11T22:04:54Z</time>
      </trkpt>
      <trkpt lat="44.57941" lon="1.9271">
        <ele>332</ele>
        <time>2022-05-11T22:05:13Z</time>
      </trkpt>
      <trkpt lat="44.5791" lon="1.92712">
        <ele>334</ele>
        <time>2022-05-11T22:05:21Z</time>
      </trkpt>
      <trkpt lat="44.5789" lon="1.9271">
        <ele>336</ele>
        <time>2022-05-11T22:05:25Z</time>
      </trkpt>
      <trkpt lat="44.57874" lon="1.92704">
        <ele>337</ele>
        <time>2022-05-11T22:05:29Z</time>
      </trkpt>
      <trkpt lat="44.57868" lon="1.92693">
        <ele>337</ele>
        <time>2022-05-11T22:05:31Z</time>
      </trkpt>
      <trkpt lat="44.57857" lon="1.92664">
        <ele>338</ele>
        <time>2022-05-11T22:05:37Z</time>
      </trkpt>
      <trkpt lat="44.57849" lon="1.92636">
        <ele>337</ele>
        <time>2022-05-11T22:05:42Z</time>
      </trkpt>
      <trkpt lat="44.57847" lon="1.92616">
        <ele>336</ele>
        <time>2022-05-11T22:05:45Z</time>
      </trkpt>
      <trkpt lat="44.57849" lon="1.92579">
        <ele>334</ele>
        <time>2022-05-11T22:05:51Z</time>
      </trkpt>
      <trkpt lat="44.57846" lon="1.92548">
        <ele>332</ele>
        <time>2022-05-11T22:05:57Z</time>
      </trkpt>
      <trkpt lat="44.57837" lon="1.92524">
        <ele>331</ele>
        <time>2022-05-11T22:06:01Z</time>
      </trkpt>
      <trkpt lat="44.57835" lon="1.92506">
        <ele>330</ele>
        <time>2022-05-11T22:06:04Z</time>
      </trkpt>
      <trkpt lat="44.57821" lon="1.92471">
        <ele>327</ele>
        <time>2022-05-11T22:06:11Z</time>
      </trkpt>
      <trkpt lat="44.57805" lon="1.92439">
        <ele>324</ele>
        <time>2022-05-11T22:06:17Z</time>
      </trkpt>
      <trkpt lat="44.57794" lon="1.924">
        <ele>322</ele>
        <time>2022-05-11T22:06:24Z</time>
      </trkpt>
      <trkpt lat="44.57788" lon="1.92392">
        <ele>321</ele>
        <time>2022-05-11T22:06:26Z</time>
      </trkpt>
      <trkpt lat="44.5778" lon="1.92385">
        <ele>320</ele>
        <time>2022-05-11T22:06:28Z</time>
      </trkpt>
      <trkpt lat="44.57771" lon="1.92365">
        <ele>318</ele>
        <time>2022-05-11T22:06:32Z</time>
      </trkpt>
      <trkpt lat="44.57766" lon="1.92332">
        <ele>316</ele>
        <time>2022-05-11T22:06:38Z</time>
      </trkpt>
      <trkpt lat="44.57763" lon="1.92285">
        <ele>312</ele>
        <time>2022-05-11T22:06:46Z</time>
      </trkpt>
      <trkpt lat="44.57765" lon="1.92266">
        <ele>311</ele>
        <time>2022-05-11T22:06:49Z</time>
      </trkpt>
      <trkpt lat="44.57771" lon="1.92264">
        <ele>311</ele>
        <time>2022-05-11T22:06:51Z</time>
      </trkpt>
      <trkpt lat="44.57765" lon="1.92266">
        <ele>311</ele>
        <time>2022-05-11T22:06:52Z</time>
      </trkpt>
      <trkpt lat="44.57764" lon="1.92243">
        <ele>309</ele>
        <time>2022-05-11T22:06:56Z</time>
      </trkpt>
      <trkpt lat="44.57766" lon="1.92223">
        <ele>308</ele>
        <time>2022-05-11T22:06:59Z</time>
      </trkpt>
      <trkpt lat="44.57772" lon="1.92194">
        <ele>306</ele>
        <time>2022-05-11T22:07:04Z</time>
      </trkpt>
      <trkpt lat="44.57795" lon="1.92133">
        <ele>303</ele>
        <time>2022-05-11T22:07:16Z</time>
      </trkpt>
      <trkpt lat="44.57806" lon="1.92089">
        <ele>300</ele>
        <time>2022-05-11T22:07:23Z</time>
      </trkpt>
      <trkpt lat="44.57817" lon="1.92058">
        <ele>298</ele>
        <time>2022-05-11T22:07:29Z</time>
      </trkpt>
      <trkpt lat="44.57833" lon="1.92021">
        <ele>295</ele>
        <time>2022-05-11T22:07:36Z</time>
      </trkpt>
      <trkpt lat="44.57845" lon="1.9198">
        <ele>291</ele>
        <time>2022-05-11T22:07:44Z</time>
      </trkpt>
      <trkpt lat="44.57851" lon="1.91947">
        <ele>289</ele>
        <time>2022-05-11T22:07:49Z</time>
      </trkpt>
      <trkpt lat="44.57851" lon="1.91918">
        <ele>287</ele>
        <time>2022-05-11T22:07:54Z</time>
      </trkpt>
      <trkpt lat="44.57849" lon="1.91894">
        <ele>285</ele>
        <time>2022-05-11T22:07:58Z</time>
      </trkpt>
      <trkpt lat="44.57841" lon="1.9186">
        <ele>283</ele>
        <time>2022-05-11T22:08:04Z</time>
      </trkpt>
      <trkpt lat="44.57837" lon="1.91828">
        <ele>281</ele>
        <time>2022-05-11T22:08:10Z</time>
      </trkpt>
      <trkpt lat="44.57839" lon="1.9181">
        <ele>281</ele>
        <time>2022-05-11T22:08:13Z</time>
      </trkpt>
      <trkpt lat="44.57862" lon="1.91727">
        <ele>282</ele>
        <time>2022-05-11T22:08:27Z</time>
      </trkpt>
      <trkpt lat="44.57878" lon="1.91677">
        <ele>284</ele>
        <time>2022-05-11T22:08:37Z</time>
      </trkpt>
      <trkpt lat="44.57884" lon="1.91643">
        <ele>285</ele>
        <time>2022-05-11T22:08:42Z</time>
      </trkpt>
      <trkpt lat="44.57892" lon="1.91558">
        <ele>288</ele>
        <time>2022-05-11T22:08:57Z</time>
      </trkpt>
      <trkpt lat="44.57902" lon="1.91515">
        <ele>290</ele>
        <time>2022-05-11T22:09:04Z</time>
      </trkpt>
      <trkpt lat="44.57907" lon="1.91454">
        <ele>294</ele>
        <time>2022-05-11T22:09:14Z</time>
      </trkpt>
      <trkpt lat="44.57914" lon="1.9142">
        <ele>297</ele>
        <time>2022-05-11T22:09:20Z</time>
      </trkpt>
      <trkpt lat="44.57915" lon="1.91387">
        <ele>298</ele>
        <time>2022-05-11T22:09:26Z</time>
      </trkpt>
      <trkpt lat="44.57923" lon="1.91348">
        <ele>300</ele>
        <time>2022-05-11T22:09:33Z</time>
      </trkpt>
      <trkpt lat="44.57965" lon="1.91227">
        <ele>306</ele>
        <time>2022-05-11T22:09:55Z</time>
      </trkpt>
      <trkpt lat="44.5797" lon="1.91191">
        <ele>307</ele>
        <time>2022-05-11T22:10:01Z</time>
      </trkpt>
      <trkpt lat="44.57981" lon="1.91156">
        <ele>308</ele>
        <time>2022-05-11T22:10:07Z</time>
      </trkpt>
      <trkpt lat="44.57985" lon="1.91134">
        <ele>309</ele>
        <time>2022-05-11T22:10:11Z</time>
      </trkpt>
      <trkpt lat="44.5799" lon="1.91103">
        <ele>309</ele>
        <time>2022-05-11T22:10:16Z</time>
      </trkpt>
      <trkpt lat="44.5799" lon="1.91081">
        <ele>309</ele>
        <time>2022-05-11T22:10:20Z</time>
      </trkpt>
      <trkpt lat="44.57991" lon="1.91067">
        <ele>309</ele>
        <time>2022-05-11T22:10:22Z</time>
      </trkpt>
      <trkpt lat="44.57997" lon="1.91068">
        <ele>309</ele>
        <time>2022-05-11T22:10:24Z</time>
      </trkpt>
      <trkpt lat="44.58026" lon="1.90974">
        <ele>309</ele>
        <time>2022-05-11T22:10:41Z</time>
      </trkpt>
      <trkpt lat="44.58035" lon="1.90924">
        <ele>307</ele>
        <time>2022-05-11T22:10:49Z</time>
      </trkpt>
      <trkpt lat="44.58038" lon="1.90764">
        <ele>313</ele>
        <time>2022-05-11T22:11:16Z</time>
      </trkpt>
      <trkpt lat="44.58033" lon="1.90724">
        <ele>316</ele>
        <time>2022-05-11T22:11:23Z</time>
      </trkpt>
      <trkpt lat="44.58034" lon="1.90691">
        <ele>319</ele>
        <time>2022-05-11T22:11:28Z</time>
      </trkpt>
      <trkpt lat="44.58032" lon="1.90637">
        <ele>321</ele>
        <time>2022-05-11T22:11:37Z</time>
      </trkpt>
      <trkpt lat="44.58037" lon="1.90622">
        <ele>321</ele>
        <time>2022-05-11T22:11:40Z</time>
      </trkpt>
      <trkpt lat="44.58032" lon="1.90609">
        <ele>321</ele>
        <time>2022-05-11T22:11:43Z</time>
      </trkpt>
      <trkpt lat="44.58034" lon="1.90588">
        <ele>321</ele>
        <time>2022-05-11T22:11:46Z</time>
      </trkpt>
      <trkpt lat="44.58046" lon="1.90524">
        <ele>320</ele>
        <time>2022-05-11T22:11:57Z</time>
      </trkpt>
      <trkpt lat="44.58052" lon="1.90479">
        <ele>319</ele>
        <time>2022-05-11T22:12:05Z</time>
      </trkpt>
      <trkpt lat="44.58063" lon="1.90328">
        <ele>322</ele>
        <time>2022-05-11T22:12:30Z</time>
      </trkpt>
      <trkpt lat="44.58064" lon="1.90283">
        <ele>326</ele>
        <time>2022-05-11T22:12:37Z</time>
      </trkpt>
      <trkpt lat="44.58063" lon="1.90247">
        <ele>330</ele>
        <time>2022-05-11T22:12:43Z</time>
      </trkpt>
      <trkpt lat="44.58052" lon="1.9018">
        <ele>334</ele>
        <time>2022-05-11T22:12:55Z</time>
      </trkpt>
      <trkpt lat="44.58051" lon="1.90159">
        <ele>334</ele>
        <time>2022-05-11T22:12:58Z</time>
      </trkpt>
      <trkpt lat="44.58053" lon="1.9014">
        <ele>334</ele>
        <time>2022-05-11T22:13:02Z</time>
      </trkpt>
      <trkpt lat="44.58057" lon="1.90117">
        <ele>334</ele>
        <time>2022-05-11T22:13:06Z</time>
      </trkpt>
      <trkpt lat="44.58075" lon="1.90077">
        <ele>333</ele>
        <time>2022-05-11T22:13:13Z</time>
      </trkpt>
      <trkpt lat="44.5809" lon="1.90036">
        <ele>331</ele>
        <time>2022-05-11T22:13:21Z</time>
      </trkpt>
      <trkpt lat="44.58102" lon="1.89994">
        <ele>331</ele>
        <time>2022-05-11T22:13:29Z</time>
      </trkpt>
      <trkpt lat="44.58111" lon="1.89944">
        <ele>329</ele>
        <time>2022-05-11T22:13:37Z</time>
      </trkpt>
      <trkpt lat="44.58112" lon="1.89924">
        <ele>328</ele>
        <time>2022-05-11T22:13:40Z</time>
      </trkpt>
      <trkpt lat="44.58106" lon="1.89863">
        <ele>324</ele>
        <time>2022-05-11T22:13:51Z</time>
      </trkpt>
      <trkpt lat="44.58106" lon="1.89827">
        <ele>322</ele>
        <time>2022-05-11T22:13:57Z</time>
      </trkpt>
      <trkpt lat="44.58111" lon="1.89741">
        <ele>319</ele>
        <time>2022-05-11T22:14:11Z</time>
      </trkpt>
      <trkpt lat="44.58109" lon="1.89724">
        <ele>319</ele>
        <time>2022-05-11T22:14:14Z</time>
      </trkpt>
      <trkpt lat="44.58084" lon="1.89669">
        <ele>319</ele>
        <time>2022-05-11T22:14:25Z</time>
      </trkpt>
      <trkpt lat="44.5807" lon="1.89631">
        <ele>320</ele>
        <time>2022-05-11T22:14:32Z</time>
      </trkpt>
      <trkpt lat="44.58056" lon="1.89558">
        <ele>323</ele>
        <time>2022-05-11T22:14:44Z</time>
      </trkpt>
      <trkpt lat="44.58054" lon="1.89526">
        <ele>324</ele>
        <time>2022-05-11T22:14:50Z</time>
      </trkpt>
      <trkpt lat="44.58056" lon="1.89517">
        <ele>324</ele>
        <time>2022-05-11T22:14:51Z</time>
      </trkpt>
      <trkpt lat="44.58066" lon="1.8951">
        <ele>324</ele>
        <time>2022-05-11T22:14:54Z</time>
      </trkpt>
      <trkpt lat="44.58078" lon="1.89506">
        <ele>323</ele>
        <time>2022-05-11T22:14:57Z</time>
      </trkpt>
      <trkpt lat="44.58105" lon="1.89486">
        <ele>325</ele>
        <time>2022-05-11T22:15:04Z</time>
      </trkpt>
      <trkpt lat="44.58127" lon="1.89458">
        <ele>326</ele>
        <time>2022-05-11T22:15:11Z</time>
      </trkpt>
      <trkpt lat="44.58142" lon="1.89426">
        <ele>326</ele>
        <time>2022-05-11T22:15:17Z</time>
      </trkpt>
      <trkpt lat="44.58151" lon="1.89402">
        <ele>325</ele>
        <time>2022-05-11T22:15:22Z</time>
      </trkpt>
      <trkpt lat="44.58169" lon="1.89365">
        <ele>324</ele>
        <time>2022-05-11T22:15:29Z</time>
      </trkpt>
      <trkpt lat="44.58174" lon="1.89349">
        <ele>324</ele>
        <time>2022-05-11T22:15:32Z</time>
      </trkpt>
      <trkpt lat="44.58185" lon="1.89287">
        <ele>321</ele>
        <time>2022-05-11T22:15:43Z</time>
      </trkpt>
      <trkpt lat="44.58206" lon="1.89243">
        <ele>320</ele>
        <time>2022-05-11T22:15:52Z</time>
      </trkpt>
      <trkpt lat="44.58218" lon="1.89221">
        <ele>320</ele>
        <time>2022-05-11T22:15:56Z</time>
      </trkpt>
      <trkpt lat="44.58232" lon="1.89168">
        <ele>318</ele>
        <time>2022-05-11T22:16:06Z</time>
      </trkpt>
      <trkpt lat="44.58246" lon="1.89143">
        <ele>317</ele>
        <time>2022-05-11T22:16:11Z</time>
      </trkpt>
      <trkpt lat="44.58265" lon="1.89101">
        <ele>316</ele>
        <time>2022-05-11T22:16:19Z</time>
      </trkpt>
      <trkpt lat="44.58295" lon="1.89065">
        <ele>315</ele>
        <time>2022-05-11T22:16:28Z</time>
      </trkpt>
      <trkpt lat="44.58378" lon="1.88944">
        <ele>313</ele>
        <time>2022-05-11T22:16:56Z</time>
      </trkpt>
      <trkpt lat="44.5841" lon="1.88893">
        <ele>313</ele>
        <time>2022-05-11T22:17:08Z</time>
      </trkpt>
      <trkpt lat="44.58422" lon="1.88877">
        <ele>313</ele>
        <time>2022-05-11T22:17:12Z</time>
      </trkpt>
      <trkpt lat="44.58428" lon="1.88874">
        <ele>312</ele>
        <time>2022-05-11T22:17:13Z</time>
      </trkpt>
      <trkpt lat="44.58425" lon="1.88862">
        <ele>312</ele>
        <time>2022-05-11T22:17:15Z</time>
      </trkpt>
      <trkpt lat="44.58414" lon="1.88837">
        <ele>311</ele>
        <time>2022-05-11T22:17:20Z</time>
      </trkpt>
      <trkpt lat="44.58409" lon="1.88821">
        <ele>312</ele>
        <time>2022-05-11T22:17:23Z</time>
      </trkpt>
      <trkpt lat="44.58407" lon="1.88766">
        <ele>316</ele>
        <time>2022-05-11T22:17:32Z</time>
      </trkpt>
      <trkpt lat="44.58399" lon="1.88735">
        <ele>319</ele>
        <time>2022-05-11T22:17:38Z</time>
      </trkpt>
      <trkpt lat="44.58391" lon="1.88724">
        <ele>321</ele>
        <time>2022-05-11T22:17:40Z</time>
      </trkpt>
      <trkpt lat="44.58364" lon="1.88695">
        <ele>327</ele>
        <time>2022-05-11T22:17:48Z</time>
      </trkpt>
      <trkpt lat="44.58327" lon="1.88663">
        <ele>335</ele>
        <time>2022-05-11T22:17:58Z</time>
      </trkpt>
      <trkpt lat="44.58301" lon="1.88635">
        <ele>341</ele>
        <time>2022-05-11T22:18:06Z</time>
      </trkpt>
      <trkpt lat="44.58294" lon="1.88625">
        <ele>342</ele>
        <time>2022-05-11T22:18:08Z</time>
      </trkpt>
      <trkpt lat="44.58289" lon="1.88608">
        <ele>345</ele>
        <time>2022-05-11T22:18:11Z</time>
      </trkpt>
      <trkpt lat="44.58286" lon="1.8859">
        <ele>347</ele>
        <time>2022-05-11T22:18:14Z</time>
      </trkpt>
      <trkpt lat="44.58283" lon="1.88517">
        <ele>351</ele>
        <time>2022-05-11T22:18:27Z</time>
      </trkpt>
      <trkpt lat="44.58282" lon="1.88505">
        <ele>352</ele>
        <time>2022-05-11T22:18:29Z</time>
      </trkpt>
      <trkpt lat="44.58279" lon="1.88499">
        <ele>353</ele>
        <time>2022-05-11T22:18:30Z</time>
      </trkpt>
      <trkpt lat="44.58273" lon="1.88497">
        <ele>354</ele>
        <time>2022-05-11T22:18:31Z</time>
      </trkpt>
      <trkpt lat="44.58263" lon="1.885">
        <ele>356</ele>
        <time>2022-05-11T22:18:34Z</time>
      </trkpt>
      <trkpt lat="44.58241" lon="1.88512">
        <ele>359</ele>
        <time>2022-05-11T22:18:39Z</time>
      </trkpt>
      <trkpt lat="44.58206" lon="1.88527">
        <ele>364</ele>
        <time>2022-05-11T22:18:48Z</time>
      </trkpt>
      <trkpt lat="44.58194" lon="1.8853">
        <ele>366</ele>
        <time>2022-05-11T22:18:51Z</time>
      </trkpt>
      <trkpt lat="44.58152" lon="1.88532">
        <ele>372</ele>
        <time>2022-05-11T22:19:00Z</time>
      </trkpt>
      <trkpt lat="44.58114" lon="1.88539">
        <ele>375</ele>
        <time>2022-05-11T22:19:09Z</time>
      </trkpt>
      <trkpt lat="44.58083" lon="1.88541">
        <ele>378</ele>
        <time>2022-05-11T22:19:17Z</time>
      </trkpt>
      <trkpt lat="44.58056" lon="1.88538">
        <ele>379</ele>
        <time>2022-05-11T22:19:23Z</time>
      </trkpt>
      <trkpt lat="44.58023" lon="1.88528">
        <ele>381</ele>
        <time>2022-05-11T22:19:31Z</time>
      </trkpt>
      <trkpt lat="44.58006" lon="1.88519">
        <ele>382</ele>
        <time>2022-05-11T22:19:35Z</time>
      </trkpt>
      <trkpt lat="44.57944" lon="1.88482">
        <ele>385</ele>
        <time>2022-05-11T22:19:51Z</time>
      </trkpt>
      <trkpt lat="44.57889" lon="1.88435">
        <ele>383</ele>
        <time>2022-05-11T22:20:06Z</time>
      </trkpt>
      <trkpt lat="44.5787" lon="1.88426">
        <ele>384</ele>
        <time>2022-05-11T22:20:10Z</time>
      </trkpt>
      <trkpt lat="44.57793" lon="1.88364">
        <ele>382</ele>
        <time>2022-05-11T22:20:31Z</time>
      </trkpt>
      <trkpt lat="44.57783" lon="1.88359">
        <ele>383</ele>
        <time>2022-05-11T22:20:34Z</time>
      </trkpt>
      <trkpt lat="44.57771" lon="1.88358">
        <ele>384</ele>
        <time>2022-05-11T22:20:36Z</time>
      </trkpt>
      <trkpt lat="44.57766" lon="1.88322">
        <ele>383</ele>
        <time>2022-05-11T22:20:43Z</time>
      </trkpt>
      <trkpt lat="44.57762" lon="1.88269">
        <ele>382</ele>
        <time>2022-05-11T22:20:51Z</time>
      </trkpt>
      <trkpt lat="44.57757" lon="1.8824">
        <ele>383</ele>
        <time>2022-05-11T22:20:56Z</time>
      </trkpt>
      <trkpt lat="44.57754" lon="1.88203">
        <ele>384</ele>
        <time>2022-05-11T22:21:03Z</time>
      </trkpt>
      <trkpt lat="44.5775" lon="1.88172">
        <ele>385</ele>
        <time>2022-05-11T22:21:08Z</time>
      </trkpt>
      <trkpt lat="44.57745" lon="1.88103">
        <ele>384</ele>
        <time>2022-05-11T22:21:19Z</time>
      </trkpt>
      <trkpt lat="44.57736" lon="1.88011">
        <ele>382</ele>
        <time>2022-05-11T22:21:35Z</time>
      </trkpt>
      <trkpt lat="44.57724" lon="1.87959">
        <ele>381</ele>
        <time>2022-05-11T22:21:44Z</time>
      </trkpt>
      <trkpt lat="44.57707" lon="1.87865">
        <ele>380</ele>
        <time>2022-05-11T22:22:00Z</time>
      </trkpt>
      <trkpt lat="44.57706" lon="1.87845">
        <ele>379</ele>
        <time>2022-05-11T22:22:03Z</time>
      </trkpt>
      <trkpt lat="44.5771" lon="1.87809">
        <ele>378</ele>
        <time>2022-05-11T22:22:09Z</time>
      </trkpt>
      <trkpt lat="44.57707" lon="1.87772">
        <ele>377</ele>
        <time>2022-05-11T22:22:16Z</time>
      </trkpt>
      <trkpt lat="44.57702" lon="1.87728">
        <ele>377</ele>
        <time>2022-05-11T22:22:23Z</time>
      </trkpt>
      <trkpt lat="44.57688" lon="1.87659">
        <ele>379</ele>
        <time>2022-05-11T22:22:35Z</time>
      </trkpt>
      <trkpt lat="44.57687" lon="1.87643">
        <ele>380</ele>
        <time>2022-05-11T22:22:38Z</time>
      </trkpt>
      <trkpt lat="44.57691" lon="1.87609">
        <ele>381</ele>
        <time>2022-05-11T22:22:43Z</time>
      </trkpt>
      <trkpt lat="44.57702" lon="1.87563">
        <ele>382</ele>
        <time>2022-05-11T22:22:51Z</time>
      </trkpt>
      <trkpt lat="44.57704" lon="1.87549">
        <ele>383</ele>
        <time>2022-05-11T22:22:54Z</time>
      </trkpt>
      <trkpt lat="44.57704" lon="1.87529">
        <ele>384</ele>
        <time>2022-05-11T22:22:57Z</time>
      </trkpt>
      <trkpt lat="44.577" lon="1.87499">
        <ele>385</ele>
        <time>2022-05-11T22:23:02Z</time>
      </trkpt>
      <trkpt lat="44.57702" lon="1.87458">
        <ele>387</ele>
        <time>2022-05-11T22:23:09Z</time>
      </trkpt>
      <trkpt lat="44.577" lon="1.87439">
        <ele>388</ele>
        <time>2022-05-11T22:23:12Z</time>
      </trkpt>
      <trkpt lat="44.57703" lon="1.87423">
        <ele>389</ele>
        <time>2022-05-11T22:23:15Z</time>
      </trkpt>
      <trkpt lat="44.57707" lon="1.87408">
        <ele>389</ele>
        <time>2022-05-11T22:23:18Z</time>
      </trkpt>
      <trkpt lat="44.57712" lon="1.87327">
        <ele>391</ele>
        <time>2022-05-11T22:23:31Z</time>
      </trkpt>
      <trkpt lat="44.57721" lon="1.87293">
        <ele>391</ele>
        <time>2022-05-11T22:23:37Z</time>
      </trkpt>
      <trkpt lat="44.57722" lon="1.87272">
        <ele>391</ele>
        <time>2022-05-11T22:23:41Z</time>
      </trkpt>
      <trkpt lat="44.57738" lon="1.8721">
        <ele>392</ele>
        <time>2022-05-11T22:23:52Z</time>
      </trkpt>
      <trkpt lat="44.57738" lon="1.87184">
        <ele>392</ele>
        <time>2022-05-11T22:23:56Z</time>
      </trkpt>
      <trkpt lat="44.57729" lon="1.87083">
        <ele>393</ele>
        <time>2022-05-11T22:24:13Z</time>
      </trkpt>
      <trkpt lat="44.57721" lon="1.87053">
        <ele>392</ele>
        <time>2022-05-11T22:24:18Z</time>
      </trkpt>
      <trkpt lat="44.5771" lon="1.87023">
        <ele>391</ele>
        <time>2022-05-11T22:24:24Z</time>
      </trkpt>
      <trkpt lat="44.57701" lon="1.8696">
        <ele>389</ele>
        <time>2022-05-11T22:24:35Z</time>
      </trkpt>
      <trkpt lat="44.57688" lon="1.86933">
        <ele>388</ele>
        <time>2022-05-11T22:24:40Z</time>
      </trkpt>
      <trkpt lat="44.57671" lon="1.86886">
        <ele>384</ele>
        <time>2022-05-11T22:24:49Z</time>
      </trkpt>
      <trkpt lat="44.57668" lon="1.86864">
        <ele>383</ele>
        <time>2022-05-11T22:24:52Z</time>
      </trkpt>
      <trkpt lat="44.57671" lon="1.86823">
        <ele>380</ele>
        <time>2022-05-11T22:24:59Z</time>
      </trkpt>
      <trkpt lat="44.5768" lon="1.86734">
        <ele>371</ele>
        <time>2022-05-11T22:25:14Z</time>
      </trkpt>
      <trkpt lat="44.57682" lon="1.86702">
        <ele>368</ele>
        <time>2022-05-11T22:25:20Z</time>
      </trkpt>
      <trkpt lat="44.5768" lon="1.86664">
        <ele>363</ele>
        <time>2022-05-11T22:25:26Z</time>
      </trkpt>
      <trkpt lat="44.5768" lon="1.8658">
        <ele>356</ele>
        <time>2022-05-11T22:25:40Z</time>
      </trkpt>
      <trkpt lat="44.57675" lon="1.86548">
        <ele>354</ele>
        <time>2022-05-11T22:25:45Z</time>
      </trkpt>
      <trkpt lat="44.57683" lon="1.86536">
        <ele>353</ele>
        <time>2022-05-11T22:25:48Z</time>
      </trkpt>
      <trkpt lat="44.57715" lon="1.86468">
        <ele>346</ele>
        <time>2022-05-11T22:26:02Z</time>
      </trkpt>
      <trkpt lat="44.57729" lon="1.86433">
        <ele>343</ele>
        <time>2022-05-11T22:26:08Z</time>
      </trkpt>
      <trkpt lat="44.5774" lon="1.86394">
        <ele>342</ele>
        <time>2022-05-11T22:26:15Z</time>
      </trkpt>
      <trkpt lat="44.5774" lon="1.86385">
        <ele>342</ele>
        <time>2022-05-11T22:26:17Z</time>
      </trkpt>
      <trkpt lat="44.57736" lon="1.86358">
        <ele>343</ele>
        <time>2022-05-11T22:26:21Z</time>
      </trkpt>
      <trkpt lat="44.57737" lon="1.8632">
        <ele>343</ele>
        <time>2022-05-11T22:26:28Z</time>
      </trkpt>
      <trkpt lat="44.57735" lon="1.86301">
        <ele>343</ele>
        <time>2022-05-11T22:26:31Z</time>
      </trkpt>
      <trkpt lat="44.57736" lon="1.8629">
        <ele>343</ele>
        <time>2022-05-11T22:26:33Z</time>
      </trkpt>
      <trkpt lat="44.57743" lon="1.86277">
        <ele>343</ele>
        <time>2022-05-11T22:26:36Z</time>
      </trkpt>
      <trkpt lat="44.57746" lon="1.86256">
        <ele>343</ele>
        <time>2022-05-11T22:26:39Z</time>
      </trkpt>
      <trkpt lat="44.57772" lon="1.86214">
        <ele>341</ele>
        <time>2022-05-11T22:26:48Z</time>
      </trkpt>
      <trkpt lat="44.57784" lon="1.86185">
        <ele>340</ele>
        <time>2022-05-11T22:26:54Z</time>
      </trkpt>
      <trkpt lat="44.57791" lon="1.86161">
        <ele>341</ele>
        <time>2022-05-11T22:26:58Z</time>
      </trkpt>
      <trkpt lat="44.57788" lon="1.86127">
        <ele>342</ele>
        <time>2022-05-11T22:27:04Z</time>
      </trkpt>
      <trkpt lat="44.5779" lon="1.86111">
        <ele>342</ele>
        <time>2022-05-11T22:27:07Z</time>
      </trkpt>
      <trkpt lat="44.57794" lon="1.86099">
        <ele>343</ele>
        <time>2022-05-11T22:27:09Z</time>
      </trkpt>
      <trkpt lat="44.57804" lon="1.86089">
        <ele>343</ele>
        <time>2022-05-11T22:27:12Z</time>
      </trkpt>
      <trkpt lat="44.57808" lon="1.86081">
        <ele>343</ele>
        <time>2022-05-11T22:27:13Z</time>
      </trkpt>
      <trkpt lat="44.5781" lon="1.86073">
        <ele>344</ele>
        <time>2022-05-11T22:27:15Z</time>
      </trkpt>
      <trkpt lat="44.57759" lon="1.86058">
        <ele>342</ele>
        <time>2022-05-11T22:27:27Z</time>
      </trkpt>
      <trkpt lat="44.57711" lon="1.86041">
        <ele>335</ele>
        <time>2022-05-11T22:27:38Z</time>
      </trkpt>
      <trkpt lat="44.57699" lon="1.86032">
        <ele>332</ele>
        <time>2022-05-11T22:27:42Z</time>
      </trkpt>
      <trkpt lat="44.57687" lon="1.86009">
        <ele>330</ele>
        <time>2022-05-11T22:27:46Z</time>
      </trkpt>
      <trkpt lat="44.57678" lon="1.85965">
        <ele>328</ele>
        <time>2022-05-11T22:27:54Z</time>
      </trkpt>
      <trkpt lat="44.5766" lon="1.85926">
        <ele>325</ele>
        <time>2022-05-11T22:28:02Z</time>
      </trkpt>
      <trkpt lat="44.57611" lon="1.8589">
        <ele>315</ele>
        <time>2022-05-11T22:28:15Z</time>
      </trkpt>
      <trkpt lat="44.57578" lon="1.85882">
        <ele>310</ele>
        <time>2022-05-11T22:28:22Z</time>
      </trkpt>
      <trkpt lat="44.57564" lon="1.85884">
        <ele>307</ele>
        <time>2022-05-11T22:28:26Z</time>
      </trkpt>
      <trkpt lat="44.57553" lon="1.8593">
        <ele>302</ele>
        <time>2022-05-11T22:28:34Z</time>
      </trkpt>
      <trkpt lat="44.57557" lon="1.85952">
        <ele>302</ele>
        <time>2022-05-11T22:28:38Z</time>
      </trkpt>
      <trkpt lat="44.57557" lon="1.85992">
        <ele>299</ele>
        <time>2022-05-11T22:28:44Z</time>
      </trkpt>
      <trkpt lat="44.57553" lon="1.86025">
        <ele>299</ele>
        <time>2022-05-11T22:28:50Z</time>
      </trkpt>
      <trkpt lat="44.57549" lon="1.86036">
        <ele>299</ele>
        <time>2022-05-11T22:28:52Z</time>
      </trkpt>
      <trkpt lat="44.57541" lon="1.86037">
        <ele>298</ele>
        <time>2022-05-11T22:28:54Z</time>
      </trkpt>
      <trkpt lat="44.57536" lon="1.86031">
        <ele>297</ele>
        <time>2022-05-11T22:28:55Z</time>
      </trkpt>
      <trkpt lat="44.57532" lon="1.86019">
        <ele>296</ele>
        <time>2022-05-11T22:28:57Z</time>
      </trkpt>
      <trkpt lat="44.57525" lon="1.86007">
        <ele>294</ele>
        <time>2022-05-11T22:29:00Z</time>
      </trkpt>
      <trkpt lat="44.57508" lon="1.85993">
        <ele>291</ele>
        <time>2022-05-11T22:29:05Z</time>
      </trkpt>
      <trkpt lat="44.57461" lon="1.85975">
        <ele>286</ele>
        <time>2022-05-11T22:29:16Z</time>
      </trkpt>
      <trkpt lat="44.57421" lon="1.85958">
        <ele>280</ele>
        <time>2022-05-11T22:29:26Z</time>
      </trkpt>
      <trkpt lat="44.57399" lon="1.85946">
        <ele>275</ele>
        <time>2022-05-11T22:29:31Z</time>
      </trkpt>
      <trkpt lat="44.57383" lon="1.85944">
        <ele>272</ele>
        <time>2022-05-11T22:29:35Z</time>
      </trkpt>
      <trkpt lat="44.57362" lon="1.85939">
        <ele>267</ele>
        <time>2022-05-11T22:29:40Z</time>
      </trkpt>
      <trkpt lat="44.57333" lon="1.85939">
        <ele>261</ele>
        <time>2022-05-11T22:29:47Z</time>
      </trkpt>
      <trkpt lat="44.57313" lon="1.85934">
        <ele>259</ele>
        <time>2022-05-11T22:29:52Z</time>
      </trkpt>
      <trkpt lat="44.57303" lon="1.85926">
        <ele>257</ele>
        <time>2022-05-11T22:29:54Z</time>
      </trkpt>
      <trkpt lat="44.57295" lon="1.8592">
        <ele>255</ele>
        <time>2022-05-11T22:29:56Z</time>
      </trkpt>
      <trkpt lat="44.57279" lon="1.859">
        <ele>252</ele>
        <time>2022-05-11T22:30:01Z</time>
      </trkpt>
      <trkpt lat="44.5727" lon="1.85878">
        <ele>248</ele>
        <time>2022-05-11T22:30:06Z</time>
      </trkpt>
      <trkpt lat="44.57266" lon="1.85857">
        <ele>245</ele>
        <time>2022-05-11T22:30:09Z</time>
      </trkpt>
      <trkpt lat="44.57253" lon="1.85831">
        <ele>240</ele>
        <time>2022-05-11T22:30:14Z</time>
      </trkpt>
      <trkpt lat="44.57246" lon="1.8582">
        <ele>240</ele>
        <time>2022-05-11T22:30:17Z</time>
      </trkpt>
      <trkpt lat="44.57219" lon="1.85856">
        <ele>245</ele>
        <time>2022-05-11T22:30:26Z</time>
      </trkpt>
      <trkpt lat="44.57204" lon="1.85869">
        <ele>247</ele>
        <time>2022-05-11T22:30:30Z</time>
      </trkpt>
      <trkpt lat="44.57177" lon="1.85882">
        <ele>248</ele>
        <time>2022-05-11T22:30:36Z</time>
      </trkpt>
      <trkpt lat="44.57161" lon="1.85891">
        <ele>249</ele>
        <time>2022-05-11T22:30:40Z</time>
      </trkpt>
      <trkpt lat="44.57147" lon="1.85911">
        <ele>249</ele>
        <time>2022-05-11T22:30:45Z</time>
      </trkpt>
      <trkpt lat="44.57138" lon="1.85928">
        <ele>250</ele>
        <time>2022-05-11T22:30:49Z</time>
      </trkpt>
      <trkpt lat="44.57111" lon="1.85985">
        <ele>251</ele>
        <time>2022-05-11T22:31:00Z</time>
      </trkpt>
      <trkpt lat="44.57101" lon="1.86001">
        <ele>249</ele>
        <time>2022-05-11T22:31:04Z</time>
      </trkpt>
      <trkpt lat="44.57069" lon="1.86044">
        <ele>250</ele>
        <time>2022-05-11T22:31:14Z</time>
      </trkpt>
      <trkpt lat="44.57064" lon="1.86058">
        <ele>251</ele>
        <time>2022-05-11T22:31:17Z</time>
      </trkpt>
      <trkpt lat="44.57063" lon="1.86076">
        <ele>251</ele>
        <time>2022-05-11T22:31:20Z</time>
      </trkpt>
      <trkpt lat="44.57066" lon="1.86098">
        <ele>252</ele>
        <time>2022-05-11T22:31:23Z</time>
      </trkpt>
      <trkpt lat="44.57065" lon="1.86114">
        <ele>252</ele>
        <time>2022-05-11T22:31:26Z</time>
      </trkpt>
      <trkpt lat="44.57059" lon="1.86133">
        <ele>253</ele>
        <time>2022-05-11T22:31:29Z</time>
      </trkpt>
      <trkpt lat="44.57052" lon="1.86147">
        <ele>253</ele>
        <time>2022-05-11T22:31:32Z</time>
      </trkpt>
      <trkpt lat="44.56958" lon="1.86225">
        <ele>258</ele>
        <time>2022-05-11T22:31:58Z</time>
      </trkpt>
      <trkpt lat="44.56888" lon="1.86325">
        <ele>262</ele>
        <time>2022-05-11T22:32:21Z</time>
      </trkpt>
      <trkpt lat="44.5687" lon="1.86353">
        <ele>263</ele>
        <time>2022-05-11T22:32:27Z</time>
      </trkpt>
      <trkpt lat="44.56861" lon="1.86373">
        <ele>264</ele>
        <time>2022-05-11T22:32:31Z</time>
      </trkpt>
      <trkpt lat="44.56857" lon="1.86393">
        <ele>264</ele>
        <time>2022-05-11T22:32:35Z</time>
      </trkpt>
      <trkpt lat="44.56854" lon="1.86537">
        <ele>269</ele>
        <time>2022-05-11T22:32:59Z</time>
      </trkpt>
      <trkpt lat="44.56849" lon="1.86567">
        <ele>269</ele>
        <time>2022-05-11T22:33:04Z</time>
      </trkpt>
      <trkpt lat="44.56841" lon="1.86592">
        <ele>268</ele>
        <time>2022-05-11T22:33:08Z</time>
      </trkpt>
      <trkpt lat="44.56796" lon="1.86716">
        <ele>272</ele>
        <time>2022-05-11T22:33:32Z</time>
      </trkpt>
      <trkpt lat="44.56752" lon="1.86698">
        <ele>268</ele>
        <time>2022-05-11T22:33:42Z</time>
      </trkpt>
      <trkpt lat="44.56701" lon="1.86674">
        <ele>273</ele>
        <time>2022-05-11T22:33:55Z</time>
      </trkpt>
      <trkpt lat="44.56643" lon="1.86622">
        <ele>280</ele>
        <time>2022-05-11T22:34:11Z</time>
      </trkpt>
      <trkpt lat="44.5657" lon="1.86551">
        <ele>286</ele>
        <time>2022-05-11T22:34:32Z</time>
      </trkpt>
      <trkpt lat="44.56554" lon="1.86526">
        <ele>287</ele>
        <time>2022-05-11T22:34:37Z</time>
      </trkpt>
      <trkpt lat="44.56557" lon="1.86518">
        <ele>287</ele>
        <time>2022-05-11T22:34:39Z</time>
      </trkpt>
      <trkpt lat="44.56574" lon="1.86498">
        <ele>286</ele>
        <time>2022-05-11T22:34:44Z</time>
      </trkpt>
      <trkpt lat="44.56592" lon="1.86498">
        <ele>286</ele>
        <time>2022-05-11T22:34:48Z</time>
      </trkpt>
      <trkpt lat="44.56614" lon="1.8651">
        <ele>286</ele>
        <time>2022-05-11T22:34:54Z</time>
      </trkpt>
      <trkpt lat="44.56646" lon="1.8652">
        <ele>285</ele>
        <time>2022-05-11T22:35:01Z</time>
      </trkpt>
      <trkpt lat="44.56649" lon="1.8651">
        <ele>286</ele>
        <time>2022-05-11T22:35:03Z</time>
      </trkpt>
      <trkpt lat="44.56636" lon="1.8649">
        <ele>287</ele>
        <time>2022-05-11T22:35:08Z</time>
      </trkpt>
      <trkpt lat="44.56633" lon="1.86462">
        <ele>287</ele>
        <time>2022-05-11T22:35:12Z</time>
      </trkpt>
      <trkpt lat="44.56628" lon="1.86444">
        <ele>288</ele>
        <time>2022-05-11T22:35:15Z</time>
      </trkpt>
      <trkpt lat="44.56604" lon="1.86428">
        <ele>289</ele>
        <time>2022-05-11T22:35:22Z</time>
      </trkpt>
      <trkpt lat="44.56592" lon="1.86405">
        <ele>291</ele>
        <time>2022-05-11T22:35:26Z</time>
      </trkpt>
      <trkpt lat="44.56581" lon="1.86405">
        <ele>292</ele>
        <time>2022-05-11T22:35:29Z</time>
      </trkpt>
      <trkpt lat="44.56554" lon="1.86342">
        <ele>299</ele>
        <time>2022-05-11T22:35:41Z</time>
      </trkpt>
      <trkpt lat="44.56533" lon="1.863">
        <ele>305</ele>
        <time>2022-05-11T22:35:50Z</time>
      </trkpt>
      <trkpt lat="44.56513" lon="1.8627">
        <ele>311</ele>
        <time>2022-05-11T22:35:57Z</time>
      </trkpt>
      <trkpt lat="44.56495" lon="1.86252">
        <ele>315</ele>
        <time>2022-05-11T22:36:02Z</time>
      </trkpt>
      <trkpt lat="44.56484" lon="1.86246">
        <ele>317</ele>
        <time>2022-05-11T22:36:05Z</time>
      </trkpt>
      <trkpt lat="44.56477" lon="1.86227">
        <ele>319</ele>
        <time>2022-05-11T22:36:08Z</time>
      </trkpt>
      <trkpt lat="44.5646" lon="1.86209">
        <ele>323</ele>
        <time>2022-05-11T22:36:13Z</time>
      </trkpt>
      <trkpt lat="44.56425" lon="1.8619">
        <ele>329</ele>
        <time>2022-05-11T22:36:22Z</time>
      </trkpt>
      <trkpt lat="44.56384" lon="1.86184">
        <ele>334</ele>
        <time>2022-05-11T22:36:31Z</time>
      </trkpt>
      <trkpt lat="44.56343" lon="1.86175">
        <ele>340</ele>
        <time>2022-05-11T22:36:41Z</time>
      </trkpt>
      <trkpt lat="44.56282" lon="1.86175">
        <ele>346</ele>
        <time>2022-05-11T22:36:55Z</time>
      </trkpt>
      <trkpt lat="44.56249" lon="1.86169">
        <ele>350</ele>
        <time>2022-05-11T22:37:03Z</time>
      </trkpt>
      <trkpt lat="44.56223" lon="1.86129">
        <ele>350</ele>
        <time>2022-05-11T22:37:12Z</time>
      </trkpt>
      <trkpt lat="44.56212" lon="1.861">
        <ele>349</ele>
        <time>2022-05-11T22:37:18Z</time>
      </trkpt>
      <trkpt lat="44.56186" lon="1.86093">
        <ele>349</ele>
        <time>2022-05-11T22:37:24Z</time>
      </trkpt>
      <trkpt lat="44.56166" lon="1.86079">
        <ele>348</ele>
        <time>2022-05-11T22:37:29Z</time>
      </trkpt>
      <trkpt lat="44.56134" lon="1.86091">
        <ele>352</ele>
        <time>2022-05-11T22:37:37Z</time>
      </trkpt>
      <trkpt lat="44.56093" lon="1.86082">
        <ele>354</ele>
        <time>2022-05-11T22:37:46Z</time>
      </trkpt>
      <trkpt lat="44.56048" lon="1.86075">
        <ele>356</ele>
        <time>2022-05-11T22:37:57Z</time>
      </trkpt>
      <trkpt lat="44.56003" lon="1.86057">
        <ele>358</ele>
        <time>2022-05-11T22:38:08Z</time>
      </trkpt>
      <trkpt lat="44.55969" lon="1.86051">
        <ele>359</ele>
        <time>2022-05-11T22:38:16Z</time>
      </trkpt>
      <trkpt lat="44.55946" lon="1.86043">
        <ele>359</ele>
        <time>2022-05-11T22:38:21Z</time>
      </trkpt>
      <trkpt lat="44.55915" lon="1.86048">
        <ele>360</ele>
        <time>2022-05-11T22:38:29Z</time>
      </trkpt>
      <trkpt lat="44.55887" lon="1.86033">
        <ele>361</ele>
        <time>2022-05-11T22:38:36Z</time>
      </trkpt>
      <trkpt lat="44.55863" lon="1.85999">
        <ele>365</ele>
        <time>2022-05-11T22:38:44Z</time>
      </trkpt>
      <trkpt lat="44.55851" lon="1.85985">
        <ele>367</ele>
        <time>2022-05-11T22:38:47Z</time>
      </trkpt>
      <trkpt lat="44.55831" lon="1.85974">
        <ele>368</ele>
        <time>2022-05-11T22:38:52Z</time>
      </trkpt>
      <trkpt lat="44.55802" lon="1.8591">
        <ele>371</ele>
        <time>2022-05-11T22:39:05Z</time>
      </trkpt>
      <trkpt lat="44.55774" lon="1.85839">
        <ele>374</ele>
        <time>2022-05-11T22:39:19Z</time>
      </trkpt>
      <trkpt lat="44.55769" lon="1.85819">
        <ele>374</ele>
        <time>2022-05-11T22:39:22Z</time>
      </trkpt>
      <trkpt lat="44.55782" lon="1.85788">
        <ele>373</ele>
        <time>2022-05-11T22:39:28Z</time>
      </trkpt>
      <trkpt lat="44.55791" lon="1.85774">
        <ele>372</ele>
        <time>2022-05-11T22:39:31Z</time>
      </trkpt>
      <trkpt lat="44.55786" lon="1.85741">
        <ele>371</ele>
        <time>2022-05-11T22:39:37Z</time>
      </trkpt>
      <trkpt lat="44.55777" lon="1.85707">
        <ele>371</ele>
        <time>2022-05-11T22:39:43Z</time>
      </trkpt>
      <trkpt lat="44.55747" lon="1.85635">
        <ele>371</ele>
        <time>2022-05-11T22:39:57Z</time>
      </trkpt>
      <trkpt lat="44.55743" lon="1.85591">
        <ele>369</ele>
        <time>2022-05-11T22:40:04Z</time>
      </trkpt>
      <trkpt lat="44.55743" lon="1.85554">
        <ele>368</ele>
        <time>2022-05-11T22:40:10Z</time>
      </trkpt>
      <trkpt lat="44.55749" lon="1.85518">
        <ele>369</ele>
        <time>2022-05-11T22:40:16Z</time>
      </trkpt>
      <trkpt lat="44.55746" lon="1.8548">
        <ele>369</ele>
        <time>2022-05-11T22:40:23Z</time>
      </trkpt>
      <trkpt lat="44.55759" lon="1.85447">
        <ele>368</ele>
        <time>2022-05-11T22:40:29Z</time>
      </trkpt>
      <trkpt lat="44.55779" lon="1.85413">
        <ele>366</ele>
        <time>2022-05-11T22:40:36Z</time>
      </trkpt>
      <trkpt lat="44.55787" lon="1.85343">
        <ele>365</ele>
        <time>2022-05-11T22:40:48Z</time>
      </trkpt>
      <trkpt lat="44.55787" lon="1.85313">
        <ele>365</ele>
        <time>2022-05-11T22:40:53Z</time>
      </trkpt>
      <trkpt lat="44.55773" lon="1.85273">
        <ele>368</ele>
        <time>2022-05-11T22:41:01Z</time>
      </trkpt>
      <trkpt lat="44.55761" lon="1.85225">
        <ele>371</ele>
        <time>2022-05-11T22:41:09Z</time>
      </trkpt>
      <trkpt lat="44.55759" lon="1.85153">
        <ele>373</ele>
        <time>2022-05-11T22:41:21Z</time>
      </trkpt>
      <trkpt lat="44.55769" lon="1.851">
        <ele>374</ele>
        <time>2022-05-11T22:41:30Z</time>
      </trkpt>
      <trkpt lat="44.55791" lon="1.85051">
        <ele>374</ele>
        <time>2022-05-11T22:41:40Z</time>
      </trkpt>
      <trkpt lat="44.55799" lon="1.85016">
        <ele>377</ele>
        <time>2022-05-11T22:41:46Z</time>
      </trkpt>
      <trkpt lat="44.55815" lon="1.84972">
        <ele>378</ele>
        <time>2022-05-11T22:41:54Z</time>
      </trkpt>
      <trkpt lat="44.55828" lon="1.84932">
        <ele>378</ele>
        <time>2022-05-11T22:42:01Z</time>
      </trkpt>
      <trkpt lat="44.55828" lon="1.84914">
        <ele>378</ele>
        <time>2022-05-11T22:42:04Z</time>
      </trkpt>
      <trkpt lat="44.55799" lon="1.84844">
        <ele>376</ele>
        <time>2022-05-11T22:42:18Z</time>
      </trkpt>
      <trkpt lat="44.55785" lon="1.84794">
        <ele>373</ele>
        <time>2022-05-11T22:42:27Z</time>
      </trkpt>
      <trkpt lat="44.55774" lon="1.84769">
        <ele>372</ele>
        <time>2022-05-11T22:42:32Z</time>
      </trkpt>
      <trkpt lat="44.5574" lon="1.84739">
        <ele>370</ele>
        <time>2022-05-11T22:42:41Z</time>
      </trkpt>
      <trkpt lat="44.55736" lon="1.84712">
        <ele>369</ele>
        <time>2022-05-11T22:42:46Z</time>
      </trkpt>
      <trkpt lat="44.55732" lon="1.84649">
        <ele>367</ele>
        <time>2022-05-11T22:42:56Z</time>
      </trkpt>
      <trkpt lat="44.55727" lon="1.84607">
        <ele>365</ele>
        <time>2022-05-11T22:43:03Z</time>
      </trkpt>
      <trkpt lat="44.55711" lon="1.84565">
        <ele>364</ele>
        <time>2022-05-11T22:43:11Z</time>
      </trkpt>
      <trkpt lat="44.55681" lon="1.84508">
        <ele>361</ele>
        <time>2022-05-11T22:43:23Z</time>
      </trkpt>
      <trkpt lat="44.55675" lon="1.84501">
        <ele>361</ele>
        <time>2022-05-11T22:43:25Z</time>
      </trkpt>
      <trkpt lat="44.5571" lon="1.84488">
        <ele>362</ele>
        <time>2022-05-11T22:43:33Z</time>
      </trkpt>
      <trkpt lat="44.5572" lon="1.84481">
        <ele>363</ele>
        <time>2022-05-11T22:43:36Z</time>
      </trkpt>
      <trkpt lat="44.55731" lon="1.84471">
        <ele>363</ele>
        <time>2022-05-11T22:43:39Z</time>
      </trkpt>
      <trkpt lat="44.55741" lon="1.84457">
        <ele>363</ele>
        <time>2022-05-11T22:43:42Z</time>
      </trkpt>
      <trkpt lat="44.55848" lon="1.84253">
        <ele>350</ele>
        <time>2022-05-11T22:44:24Z</time>
      </trkpt>
      <trkpt lat="44.55868" lon="1.84226">
        <ele>347</ele>
        <time>2022-05-11T22:44:31Z</time>
      </trkpt>
      <trkpt lat="44.55925" lon="1.84168">
        <ele>343</ele>
        <time>2022-05-11T22:44:47Z</time>
      </trkpt>
      <trkpt lat="44.55932" lon="1.84164">
        <ele>343</ele>
        <time>2022-05-11T22:44:49Z</time>
      </trkpt>
      <trkpt lat="44.5594" lon="1.84159">
        <ele>342</ele>
        <time>2022-05-11T22:44:51Z</time>
      </trkpt>
      <trkpt lat="44.55983" lon="1.84145">
        <ele>339</ele>
        <time>2022-05-11T22:45:01Z</time>
      </trkpt>
      <trkpt lat="44.55993" lon="1.84145">
        <ele>338</ele>
        <time>2022-05-11T22:45:04Z</time>
      </trkpt>
      <trkpt lat="44.56009" lon="1.84148">
        <ele>337</ele>
        <time>2022-05-11T22:45:08Z</time>
      </trkpt>
      <trkpt lat="44.5601" lon="1.84141">
        <ele>338</ele>
        <time>2022-05-11T22:45:09Z</time>
      </trkpt>
      <trkpt lat="44.56013" lon="1.84138">
        <ele>338</ele>
        <time>2022-05-11T22:45:10Z</time>
      </trkpt>
      <trkpt lat="44.56033" lon="1.8413">
        <ele>339</ele>
        <time>2022-05-11T22:45:14Z</time>
      </trkpt>
      <trkpt lat="44.56055" lon="1.84107">
        <ele>341</ele>
        <time>2022-05-11T22:45:21Z</time>
      </trkpt>
      <trkpt lat="44.5611" lon="1.84037">
        <ele>344</ele>
        <time>2022-05-11T22:45:38Z</time>
      </trkpt>
      <trkpt lat="44.56114" lon="1.84028">
        <ele>344</ele>
        <time>2022-05-11T22:45:40Z</time>
      </trkpt>
      <trkpt lat="44.56126" lon="1.84012">
        <ele>344</ele>
        <time>2022-05-11T22:45:44Z</time>
      </trkpt>
      <trkpt lat="44.56129" lon="1.83987">
        <ele>343</ele>
        <time>2022-05-11T22:45:48Z</time>
      </trkpt>
      <trkpt lat="44.56125" lon="1.8397">
        <ele>343</ele>
        <time>2022-05-11T22:45:51Z</time>
      </trkpt>
      <trkpt lat="44.5612" lon="1.83964">
        <ele>342</ele>
        <time>2022-05-11T22:45:53Z</time>
      </trkpt>
      <trkpt lat="44.56098" lon="1.83946">
        <ele>343</ele>
        <time>2022-05-11T22:45:59Z</time>
      </trkpt>
      <trkpt lat="44.56031" lon="1.83914">
        <ele>350</ele>
        <time>2022-05-11T22:46:15Z</time>
      </trkpt>
      <trkpt lat="44.56014" lon="1.83899">
        <ele>351</ele>
        <time>2022-05-11T22:46:20Z</time>
      </trkpt>
      <trkpt lat="44.55983" lon="1.8381">
        <ele>349</ele>
        <time>2022-05-11T22:46:36Z</time>
      </trkpt>
      <trkpt lat="44.5596" lon="1.83762">
        <ele>348</ele>
        <time>2022-05-11T22:46:46Z</time>
      </trkpt>
      <trkpt lat="44.5595" lon="1.8372">
        <ele>346</ele>
        <time>2022-05-11T22:46:53Z</time>
      </trkpt>
      <trkpt lat="44.55934" lon="1.83694">
        <ele>345</ele>
        <time>2022-05-11T22:46:59Z</time>
      </trkpt>
      <trkpt lat="44.5592" lon="1.83674">
        <ele>345</ele>
        <time>2022-05-11T22:47:04Z</time>
      </trkpt>
      <trkpt lat="44.55909" lon="1.83651">
        <ele>344</ele>
        <time>2022-05-11T22:47:08Z</time>
      </trkpt>
      <trkpt lat="44.559" lon="1.83642">
        <ele>343</ele>
        <time>2022-05-11T22:47:11Z</time>
      </trkpt>
      <trkpt lat="44.55874" lon="1.83636">
        <ele>342</ele>
        <time>2022-05-11T22:47:17Z</time>
      </trkpt>
      <trkpt lat="44.55854" lon="1.83617">
        <ele>341</ele>
        <time>2022-05-11T22:47:23Z</time>
      </trkpt>
      <trkpt lat="44.55829" lon="1.83611">
        <ele>340</ele>
        <time>2022-05-11T22:47:29Z</time>
      </trkpt>
      <trkpt lat="44.55814" lon="1.83597">
        <ele>338</ele>
        <time>2022-05-11T22:47:33Z</time>
      </trkpt>
      <trkpt lat="44.55785" lon="1.83577">
        <ele>333</ele>
        <time>2022-05-11T22:47:40Z</time>
      </trkpt>
      <trkpt lat="44.5578" lon="1.83569">
        <ele>333</ele>
        <time>2022-05-11T22:47:42Z</time>
      </trkpt>
      <trkpt lat="44.55746" lon="1.83505">
        <ele>329</ele>
        <time>2022-05-11T22:47:55Z</time>
      </trkpt>
      <trkpt lat="44.55731" lon="1.835">
        <ele>327</ele>
        <time>2022-05-11T22:47:59Z</time>
      </trkpt>
      <trkpt lat="44.55723" lon="1.83494">
        <ele>326</ele>
        <time>2022-05-11T22:48:01Z</time>
      </trkpt>
      <trkpt lat="44.55719" lon="1.83489">
        <ele>326</ele>
        <time>2022-05-11T22:48:02Z</time>
      </trkpt>
      <trkpt lat="44.55626" lon="1.83331">
        <ele>319</ele>
        <time>2022-05-11T22:48:36Z</time>
      </trkpt>
      <trkpt lat="44.55618" lon="1.83315">
        <ele>318</ele>
        <time>2022-05-11T22:48:40Z</time>
      </trkpt>
      <trkpt lat="44.55616" lon="1.83305">
        <ele>317</ele>
        <time>2022-05-11T22:48:41Z</time>
      </trkpt>
      <trkpt lat="44.5561" lon="1.83299">
        <ele>316</ele>
        <time>2022-05-11T22:48:43Z</time>
      </trkpt>
      <trkpt lat="44.55601" lon="1.83299">
        <ele>315</ele>
        <time>2022-05-11T22:48:45Z</time>
      </trkpt>
      <trkpt lat="44.55592" lon="1.83306">
        <ele>315</ele>
        <time>2022-05-11T22:48:48Z</time>
      </trkpt>
      <trkpt lat="44.55582" lon="1.8331">
        <ele>315</ele>
        <time>2022-05-11T22:48:50Z</time>
      </trkpt>
      <trkpt lat="44.55524" lon="1.8332">
        <ele>308</ele>
        <time>2022-05-11T22:49:04Z</time>
      </trkpt>
      <trkpt lat="44.5549" lon="1.83321">
        <ele>304</ele>
        <time>2022-05-11T22:49:12Z</time>
      </trkpt>
      <trkpt lat="44.55479" lon="1.8332">
        <ele>303</ele>
        <time>2022-05-11T22:49:14Z</time>
      </trkpt>
      <trkpt lat="44.55473" lon="1.83317">
        <ele>302</ele>
        <time>2022-05-11T22:49:16Z</time>
      </trkpt>
      <trkpt lat="44.55463" lon="1.83317">
        <ele>301</ele>
        <time>2022-05-11T22:49:18Z</time>
      </trkpt>
      <trkpt lat="44.55457" lon="1.8332">
        <ele>300</ele>
        <time>2022-05-11T22:49:20Z</time>
      </trkpt>
      <trkpt lat="44.55433" lon="1.83344">
        <ele>296</ele>
        <time>2022-05-11T22:49:26Z</time>
      </trkpt>
      <trkpt lat="44.55415" lon="1.83348">
        <ele>294</ele>
        <time>2022-05-11T22:49:31Z</time>
      </trkpt>
      <trkpt lat="44.55379" lon="1.83343">
        <ele>290</ele>
        <time>2022-05-11T22:49:39Z</time>
      </trkpt>
      <trkpt lat="44.55368" lon="1.83331">
        <ele>290</ele>
        <time>2022-05-11T22:49:42Z</time>
      </trkpt>
      <trkpt lat="44.55358" lon="1.83308">
        <ele>288</ele>
        <time>2022-05-11T22:49:47Z</time>
      </trkpt>
      <trkpt lat="44.55355" lon="1.83298">
        <ele>288</ele>
        <time>2022-05-11T22:49:49Z</time>
      </trkpt>
      <trkpt lat="44.55354" lon="1.83282">
        <ele>288</ele>
        <time>2022-05-11T22:49:51Z</time>
      </trkpt>
      <trkpt lat="44.55365" lon="1.83235">
        <ele>287</ele>
        <time>2022-05-11T22:50:00Z</time>
      </trkpt>
      <trkpt lat="44.55393" lon="1.83167">
        <ele>282</ele>
        <time>2022-05-11T22:50:13Z</time>
      </trkpt>
      <trkpt lat="44.55401" lon="1.83157">
        <ele>282</ele>
        <time>2022-05-11T22:50:15Z</time>
      </trkpt>
      <trkpt lat="44.55414" lon="1.83147">
        <ele>282</ele>
        <time>2022-05-11T22:50:19Z</time>
      </trkpt>
      <trkpt lat="44.55472" lon="1.83088">
        <ele>280</ele>
        <time>2022-05-11T22:50:35Z</time>
      </trkpt>
      <trkpt lat="44.55494" lon="1.83071">
        <ele>279</ele>
        <time>2022-05-11T22:50:41Z</time>
      </trkpt>
      <trkpt lat="44.55512" lon="1.83067">
        <ele>280</ele>
        <time>2022-05-11T22:50:45Z</time>
      </trkpt>
      <trkpt lat="44.55579" lon="1.83059">
        <ele>285</ele>
        <time>2022-05-11T22:51:01Z</time>
      </trkpt>
      <trkpt lat="44.55589" lon="1.83055">
        <ele>285</ele>
        <time>2022-05-11T22:51:04Z</time>
      </trkpt>
      <trkpt lat="44.55618" lon="1.83035">
        <ele>285</ele>
        <time>2022-05-11T22:51:11Z</time>
      </trkpt>
      <trkpt lat="44.55629" lon="1.83025">
        <ele>285</ele>
        <time>2022-05-11T22:51:14Z</time>
      </trkpt>
      <trkpt lat="44.55664" lon="1.82976">
        <ele>286</ele>
        <time>2022-05-11T22:51:26Z</time>
      </trkpt>
      <trkpt lat="44.55699" lon="1.82936">
        <ele>288</ele>
        <time>2022-05-11T22:51:36Z</time>
      </trkpt>
      <trkpt lat="44.55718" lon="1.82929">
        <ele>290</ele>
        <time>2022-05-11T22:51:41Z</time>
      </trkpt>
      <trkpt lat="44.55734" lon="1.82911">
        <ele>291</ele>
        <time>2022-05-11T22:51:46Z</time>
      </trkpt>
      <trkpt lat="44.55743" lon="1.82906">
        <ele>292</ele>
        <time>2022-05-11T22:51:48Z</time>
      </trkpt>
      <trkpt lat="44.55768" lon="1.82881">
        <ele>291</ele>
        <time>2022-05-11T22:51:55Z</time>
      </trkpt>
      <trkpt lat="44.55782" lon="1.82872">
        <ele>291</ele>
        <time>2022-05-11T22:51:59Z</time>
      </trkpt>
      <trkpt lat="44.55788" lon="1.82866">
        <ele>291</ele>
        <time>2022-05-11T22:52:00Z</time>
      </trkpt>
      <trkpt lat="44.55811" lon="1.8283">
        <ele>290</ele>
        <time>2022-05-11T22:52:08Z</time>
      </trkpt>
      <trkpt lat="44.55816" lon="1.82818">
        <ele>290</ele>
        <time>2022-05-11T22:52:11Z</time>
      </trkpt>
      <trkpt lat="44.55837" lon="1.82753">
        <ele>289</ele>
        <time>2022-05-11T22:52:23Z</time>
      </trkpt>
      <trkpt lat="44.55856" lon="1.82731">
        <ele>288</ele>
        <time>2022-05-11T22:52:28Z</time>
      </trkpt>
      <trkpt lat="44.55866" lon="1.82715">
        <ele>287</ele>
        <time>2022-05-11T22:52:32Z</time>
      </trkpt>
      <trkpt lat="44.55872" lon="1.82704">
        <ele>287</ele>
        <time>2022-05-11T22:52:34Z</time>
      </trkpt>
      <trkpt lat="44.55905" lon="1.82667">
        <ele>284</ele>
        <time>2022-05-11T22:52:44Z</time>
      </trkpt>
      <trkpt lat="44.55936" lon="1.8263">
        <ele>285</ele>
        <time>2022-05-11T22:52:54Z</time>
      </trkpt>
      <trkpt lat="44.55976" lon="1.82602">
        <ele>283</ele>
        <time>2022-05-11T22:53:04Z</time>
      </trkpt>
      <trkpt lat="44.55996" lon="1.82594">
        <ele>282</ele>
        <time>2022-05-11T22:53:09Z</time>
      </trkpt>
      <trkpt lat="44.56069" lon="1.82585">
        <ele>277</ele>
        <time>2022-05-11T22:53:26Z</time>
      </trkpt>
      <trkpt lat="44.56091" lon="1.82562">
        <ele>276</ele>
        <time>2022-05-11T22:53:32Z</time>
      </trkpt>
      <trkpt lat="44.56097" lon="1.82546">
        <ele>276</ele>
        <time>2022-05-11T22:53:35Z</time>
      </trkpt>
      <trkpt lat="44.56101" lon="1.82544">
        <ele>275</ele>
        <time>2022-05-11T22:53:36Z</time>
      </trkpt>
      <trkpt lat="44.56108" lon="1.82546">
        <ele>274</ele>
        <time>2022-05-11T22:53:38Z</time>
      </trkpt>
      <trkpt lat="44.56144" lon="1.8247">
        <ele>268</ele>
        <time>2022-05-11T22:53:53Z</time>
      </trkpt>
      <trkpt lat="44.56165" lon="1.82418">
        <ele>265</ele>
        <time>2022-05-11T22:54:03Z</time>
      </trkpt>
      <trkpt lat="44.56172" lon="1.82394">
        <ele>265</ele>
        <time>2022-05-11T22:54:07Z</time>
      </trkpt>
      <trkpt lat="44.5623" lon="1.82265">
        <ele>252</ele>
        <time>2022-05-11T22:54:33Z</time>
      </trkpt>
      <trkpt lat="44.56237" lon="1.82245">
        <ele>250</ele>
        <time>2022-05-11T22:54:37Z</time>
      </trkpt>
      <trkpt lat="44.56244" lon="1.82208">
        <ele>246</ele>
        <time>2022-05-11T22:54:43Z</time>
      </trkpt>
      <trkpt lat="44.56251" lon="1.82146">
        <ele>242</ele>
        <time>2022-05-11T22:54:53Z</time>
      </trkpt>
      <trkpt lat="44.56252" lon="1.82112">
        <ele>240</ele>
        <time>2022-05-11T22:54:59Z</time>
      </trkpt>
      <trkpt lat="44.56249" lon="1.82037">
        <ele>235</ele>
        <time>2022-05-11T22:55:12Z</time>
      </trkpt>
      <trkpt lat="44.56259" lon="1.81915">
        <ele>219</ele>
        <time>2022-05-11T22:55:32Z</time>
      </trkpt>
      <trkpt lat="44.56245" lon="1.8181">
        <ele>205</ele>
        <time>2022-05-11T22:55:50Z</time>
      </trkpt>
      <trkpt lat="44.56235" lon="1.81778">
        <ele>201</ele>
        <time>2022-05-11T22:55:56Z</time>
      </trkpt>
      <trkpt lat="44.56237" lon="1.81756">
        <ele>196</ele>
        <time>2022-05-11T22:55:59Z</time>
      </trkpt>
      <trkpt lat="44.5625" lon="1.81733">
        <ele>189</ele>
        <time>2022-05-11T22:56:04Z</time>
      </trkpt>
      <trkpt lat="44.5627" lon="1.81716">
        <ele>183</ele>
        <time>2022-05-11T22:56:10Z</time>
      </trkpt>
      <trkpt lat="44.56331" lon="1.81695">
        <ele>175</ele>
        <time>2022-05-11T22:56:24Z</time>
      </trkpt>
      <trkpt lat="44.56344" lon="1.81687">
        <ele>174</ele>
        <time>2022-05-11T22:56:28Z</time>
      </trkpt>
      <trkpt lat="44.56361" lon="1.81627">
        <ele>168</ele>
        <time>2022-05-11T22:56:38Z</time>
      </trkpt>
      <trkpt lat="44.56362" lon="1.81608">
        <ele>166</ele>
        <time>2022-05-11T22:56:42Z</time>
      </trkpt>
      <trkpt lat="44.56382" lon="1.81533">
        <ele>162</ele>
        <time>2022-05-11T22:56:55Z</time>
      </trkpt>
      <trkpt lat="44.564" lon="1.81494">
        <ele>160</ele>
        <time>2022-05-11T22:57:03Z</time>
      </trkpt>
      <trkpt lat="44.56431" lon="1.81236">
        <ele>159</ele>
        <time>2022-05-11T22:57:46Z</time>
      </trkpt>
      <trkpt lat="44.56405" lon="1.81239">
        <ele>163</ele>
        <time>2022-05-11T22:57:52Z</time>
      </trkpt>
      <trkpt lat="44.56391" lon="1.81233">
        <ele>166</ele>
        <time>2022-05-11T22:57:56Z</time>
      </trkpt>
      <trkpt lat="44.56356" lon="1.81185">
        <ele>176</ele>
        <time>2022-05-11T22:58:07Z</time>
      </trkpt>
      <trkpt lat="44.56284" lon="1.81061">
        <ele>186</ele>
        <time>2022-05-11T22:58:34Z</time>
      </trkpt>
      <trkpt lat="44.56233" lon="1.80981">
        <ele>183</ele>
        <time>2022-05-11T22:58:52Z</time>
      </trkpt>
      <trkpt lat="44.56225" lon="1.80975">
        <ele>183</ele>
        <time>2022-05-11T22:58:54Z</time>
      </trkpt>
      <trkpt lat="44.56214" lon="1.80972">
        <ele>185</ele>
        <time>2022-05-11T22:58:56Z</time>
      </trkpt>
      <trkpt lat="44.56179" lon="1.80974">
        <ele>191</ele>
        <time>2022-05-11T22:59:04Z</time>
      </trkpt>
      <trkpt lat="44.5617" lon="1.80973">
        <ele>192</ele>
        <time>2022-05-11T22:59:07Z</time>
      </trkpt>
      <trkpt lat="44.56162" lon="1.80965">
        <ele>192</ele>
        <time>2022-05-11T22:59:09Z</time>
      </trkpt>
      <trkpt lat="44.56156" lon="1.80955">
        <ele>192</ele>
        <time>2022-05-11T22:59:11Z</time>
      </trkpt>
      <trkpt lat="44.56149" lon="1.80935">
        <ele>190</ele>
        <time>2022-05-11T22:59:15Z</time>
      </trkpt>
      <trkpt lat="44.56136" lon="1.8091">
        <ele>189</ele>
        <time>2022-05-11T22:59:20Z</time>
      </trkpt>
      <trkpt lat="44.56105" lon="1.80879">
        <ele>193</ele>
        <time>2022-05-11T22:59:29Z</time>
      </trkpt>
      <trkpt lat="44.5607" lon="1.80832">
        <ele>197</ele>
        <time>2022-05-11T22:59:40Z</time>
      </trkpt>
      <trkpt lat="44.56035" lon="1.80769">
        <ele>197</ele>
        <time>2022-05-11T22:59:53Z</time>
      </trkpt>
      <trkpt lat="44.55988" lon="1.80723">
        <ele>202</ele>
        <time>2022-05-11T23:00:07Z</time>
      </trkpt>
      <trkpt lat="44.55942" lon="1.80704">
        <ele>206</ele>
        <time>2022-05-11T23:00:18Z</time>
      </trkpt>
      <trkpt lat="44.55909" lon="1.80698">
        <ele>210</ele>
        <time>2022-05-11T23:00:26Z</time>
      </trkpt>
      <trkpt lat="44.55863" lon="1.80702">
        <ele>214</ele>
        <time>2022-05-11T23:00:36Z</time>
      </trkpt>
      <trkpt lat="44.55807" lon="1.80736">
        <ele>221</ele>
        <time>2022-05-11T23:00:51Z</time>
      </trkpt>
      <trkpt lat="44.55764" lon="1.80777">
        <ele>226</ele>
        <time>2022-05-11T23:01:03Z</time>
      </trkpt>
      <trkpt lat="44.55743" lon="1.80801">
        <ele>230</ele>
        <time>2022-05-11T23:01:09Z</time>
      </trkpt>
      <trkpt lat="44.55723" lon="1.80813">
        <ele>234</ele>
        <time>2022-05-11T23:01:14Z</time>
      </trkpt>
      <trkpt lat="44.55709" lon="1.80809">
        <ele>235</ele>
        <time>2022-05-11T23:01:18Z</time>
      </trkpt>
      <trkpt lat="44.55689" lon="1.80783">
        <ele>233</ele>
        <time>2022-05-11T23:01:24Z</time>
      </trkpt>
      <trkpt lat="44.55664" lon="1.80727">
        <ele>235</ele>
        <time>2022-05-11T23:01:35Z</time>
      </trkpt>
      <trkpt lat="44.55643" lon="1.8071">
        <ele>240</ele>
        <time>2022-05-11T23:01:41Z</time>
      </trkpt>
      <trkpt lat="44.55626" lon="1.80711">
        <ele>242</ele>
        <time>2022-05-11T23:01:45Z</time>
      </trkpt>
      <trkpt lat="44.5561" lon="1.80717">
        <ele>243</ele>
        <time>2022-05-11T23:01:48Z</time>
      </trkpt>
      <trkpt lat="44.55588" lon="1.80734">
        <ele>244</ele>
        <time>2022-05-11T23:01:54Z</time>
      </trkpt>
      <trkpt lat="44.55574" lon="1.80755">
        <ele>245</ele>
        <time>2022-05-11T23:01:59Z</time>
      </trkpt>
      <trkpt lat="44.55563" lon="1.80782">
        <ele>248</ele>
        <time>2022-05-11T23:02:04Z</time>
      </trkpt>
      <trkpt lat="44.55539" lon="1.80872">
        <ele>253</ele>
        <time>2022-05-11T23:02:20Z</time>
      </trkpt>
      <trkpt lat="44.55525" lon="1.80902">
        <ele>254</ele>
        <time>2022-05-11T23:02:26Z</time>
      </trkpt>
      <trkpt lat="44.55507" lon="1.80924">
        <ele>254</ele>
        <time>2022-05-11T23:02:32Z</time>
      </trkpt>
      <trkpt lat="44.55463" lon="1.80964">
        <ele>259</ele>
        <time>2022-05-11T23:02:44Z</time>
      </trkpt>
      <trkpt lat="44.55412" lon="1.80988">
        <ele>259</ele>
        <time>2022-05-11T23:02:57Z</time>
      </trkpt>
      <trkpt lat="44.55384" lon="1.81029">
        <ele>265</ele>
        <time>2022-05-11T23:03:06Z</time>
      </trkpt>
      <trkpt lat="44.5536" lon="1.81099">
        <ele>269</ele>
        <time>2022-05-11T23:03:19Z</time>
      </trkpt>
      <trkpt lat="44.55338" lon="1.81157">
        <ele>268</ele>
        <time>2022-05-11T23:03:30Z</time>
      </trkpt>
      <trkpt lat="44.55316" lon="1.81202">
        <ele>271</ele>
        <time>2022-05-11T23:03:39Z</time>
      </trkpt>
      <trkpt lat="44.55296" lon="1.81234">
        <ele>273</ele>
        <time>2022-05-11T23:03:46Z</time>
      </trkpt>
      <trkpt lat="44.5528" lon="1.81255">
        <ele>273</ele>
        <time>2022-05-11T23:03:51Z</time>
      </trkpt>
      <trkpt lat="44.55265" lon="1.81264">
        <ele>273</ele>
        <time>2022-05-11T23:03:55Z</time>
      </trkpt>
      <trkpt lat="44.55246" lon="1.81269">
        <ele>273</ele>
        <time>2022-05-11T23:04:00Z</time>
      </trkpt>
      <trkpt lat="44.55224" lon="1.8127">
        <ele>275</ele>
        <time>2022-05-11T23:04:05Z</time>
      </trkpt>
      <trkpt lat="44.55121" lon="1.81264">
        <ele>281</ele>
        <time>2022-05-11T23:04:29Z</time>
      </trkpt>
      <trkpt lat="44.55046" lon="1.81269">
        <ele>284</ele>
        <time>2022-05-11T23:04:46Z</time>
      </trkpt>
      <trkpt lat="44.55016" lon="1.81286">
        <ele>285</ele>
        <time>2022-05-11T23:04:54Z</time>
      </trkpt>
      <trkpt lat="44.54987" lon="1.81285">
        <ele>286</ele>
        <time>2022-05-11T23:05:01Z</time>
      </trkpt>
      <trkpt lat="44.54917" lon="1.81273">
        <ele>285</ele>
        <time>2022-05-11T23:05:17Z</time>
      </trkpt>
      <trkpt lat="44.54819" lon="1.81271">
        <ele>286</ele>
        <time>2022-05-11T23:05:40Z</time>
      </trkpt>
      <trkpt lat="44.54796" lon="1.81253">
        <ele>286</ele>
        <time>2022-05-11T23:05:46Z</time>
      </trkpt>
      <trkpt lat="44.54735" lon="1.81234">
        <ele>288</ele>
        <time>2022-05-11T23:06:01Z</time>
      </trkpt>
      <trkpt lat="44.54658" lon="1.81179">
        <ele>286</ele>
        <time>2022-05-11T23:06:21Z</time>
      </trkpt>
      <trkpt lat="44.5463" lon="1.81153">
        <ele>285</ele>
        <time>2022-05-11T23:06:29Z</time>
      </trkpt>
      <trkpt lat="44.54843" lon="1.80788">
        <ele>302</ele>
        <time>2022-05-11T23:07:47Z</time>
      </trkpt>
      <trkpt lat="44.54962" lon="1.80523">
        <ele>297</ele>
        <time>2022-05-11T23:08:39Z</time>
      </trkpt>
      <trkpt lat="44.5513" lon="1.80305">
        <ele>294</ele>
        <time>2022-05-11T23:09:33Z</time>
      </trkpt>
      <trkpt lat="44.55172" lon="1.80256">
        <ele>292</ele>
        <time>2022-05-11T23:09:46Z</time>
      </trkpt>
      <trkpt lat="44.55188" lon="1.80241">
        <ele>291</ele>
        <time>2022-05-11T23:09:50Z</time>
      </trkpt>
      <trkpt lat="44.55182" lon="1.80243">
        <ele>291</ele>
        <time>2022-05-11T23:09:52Z</time>
      </trkpt>
      <trkpt lat="44.55188" lon="1.80241">
        <ele>291</ele>
        <time>2022-05-11T23:09:53Z</time>
      </trkpt>
      <trkpt lat="44.55193" lon="1.80233">
        <ele>291</ele>
        <time>2022-05-11T23:09:55Z</time>
      </trkpt>
      <trkpt lat="44.55196" lon="1.80219">
        <ele>290</ele>
        <time>2022-05-11T23:09:57Z</time>
      </trkpt>
      <trkpt lat="44.55198" lon="1.80194">
        <ele>290</ele>
        <time>2022-05-11T23:10:01Z</time>
      </trkpt>
      <trkpt lat="44.55201" lon="1.80184">
        <ele>290</ele>
        <time>2022-05-11T23:10:03Z</time>
      </trkpt>
      <trkpt lat="44.55209" lon="1.80167">
        <ele>288</ele>
        <time>2022-05-11T23:10:07Z</time>
      </trkpt>
      <trkpt lat="44.55224" lon="1.80144">
        <ele>288</ele>
        <time>2022-05-11T23:10:12Z</time>
      </trkpt>
      <trkpt lat="44.5522" lon="1.80141">
        <ele>289</ele>
        <time>2022-05-11T23:10:13Z</time>
      </trkpt>
      <trkpt lat="44.5521" lon="1.80112">
        <ele>292</ele>
        <time>2022-05-11T23:10:18Z</time>
      </trkpt>
      <trkpt lat="44.55196" lon="1.80103">
        <ele>294</ele>
        <time>2022-05-11T23:10:22Z</time>
      </trkpt>
      <trkpt lat="44.55158" lon="1.80099">
        <ele>298</ele>
        <time>2022-05-11T23:10:31Z</time>
      </trkpt>
      <trkpt lat="44.55163" lon="1.7999">
        <ele>303</ele>
        <time>2022-05-11T23:10:49Z</time>
      </trkpt>
      <trkpt lat="44.55169" lon="1.79908">
        <ele>304</ele>
        <time>2022-05-11T23:11:03Z</time>
      </trkpt>
      <trkpt lat="44.55179" lon="1.79858">
        <ele>302</ele>
        <time>2022-05-11T23:11:11Z</time>
      </trkpt>
      <trkpt lat="44.55175" lon="1.79817">
        <ele>302</ele>
        <time>2022-05-11T23:11:18Z</time>
      </trkpt>
      <trkpt lat="44.5518" lon="1.79812">
        <ele>302</ele>
        <time>2022-05-11T23:11:20Z</time>
      </trkpt>
      <trkpt lat="44.55161" lon="1.79826">
        <ele>302</ele>
        <time>2022-05-11T23:11:25Z</time>
      </trkpt>
      <trkpt lat="44.54918" lon="1.79903">
        <ele>294</ele>
        <time>2022-05-11T23:12:23Z</time>
      </trkpt>
      <trkpt lat="44.54903" lon="1.79911">
        <ele>293</ele>
        <time>2022-05-11T23:12:26Z</time>
      </trkpt>
      <trkpt lat="44.54892" lon="1.79924">
        <ele>292</ele>
        <time>2022-05-11T23:12:30Z</time>
      </trkpt>
      <trkpt lat="44.54877" lon="1.79952">
        <ele>291</ele>
        <time>2022-05-11T23:12:36Z</time>
      </trkpt>
      <trkpt lat="44.54855" lon="1.7994">
        <ele>289</ele>
        <time>2022-05-11T23:12:41Z</time>
      </trkpt>
      <trkpt lat="44.54834" lon="1.79911">
        <ele>288</ele>
        <time>2022-05-11T23:12:48Z</time>
      </trkpt>
      <trkpt lat="44.54789" lon="1.79873">
        <ele>292</ele>
        <time>2022-05-11T23:13:00Z</time>
      </trkpt>
      <trkpt lat="44.5476" lon="1.79846">
        <ele>296</ele>
        <time>2022-05-11T23:13:08Z</time>
      </trkpt>
      <trkpt lat="44.54728" lon="1.79798">
        <ele>300</ele>
        <time>2022-05-11T23:13:19Z</time>
      </trkpt>
      <trkpt lat="44.54694" lon="1.7976">
        <ele>303</ele>
        <time>2022-05-11T23:13:30Z</time>
      </trkpt>
      <trkpt lat="44.54673" lon="1.79754">
        <ele>304</ele>
        <time>2022-05-11T23:13:35Z</time>
      </trkpt>
      <trkpt lat="44.54643" lon="1.797">
        <ele>309</ele>
        <time>2022-05-11T23:13:46Z</time>
      </trkpt>
      <trkpt lat="44.5463" lon="1.79653">
        <ele>313</ele>
        <time>2022-05-11T23:13:54Z</time>
      </trkpt>
      <trkpt lat="44.54615" lon="1.79637">
        <ele>315</ele>
        <time>2022-05-11T23:13:59Z</time>
      </trkpt>
      <trkpt lat="44.54531" lon="1.79604">
        <ele>326</ele>
        <time>2022-05-11T23:14:19Z</time>
      </trkpt>
      <trkpt lat="44.54413" lon="1.79626">
        <ele>336</ele>
        <time>2022-05-11T23:14:47Z</time>
      </trkpt>
      <trkpt lat="44.54375" lon="1.79647">
        <ele>339</ele>
        <time>2022-05-11T23:14:56Z</time>
      </trkpt>
      <trkpt lat="44.54327" lon="1.79648">
        <ele>342</ele>
        <time>2022-05-11T23:15:08Z</time>
      </trkpt>
      <trkpt lat="44.54192" lon="1.79688">
        <ele>351</ele>
        <time>2022-05-11T23:15:40Z</time>
      </trkpt>
      <trkpt lat="44.54124" lon="1.79699">
        <ele>359</ele>
        <time>2022-05-11T23:15:56Z</time>
      </trkpt>
      <trkpt lat="44.54099" lon="1.79714">
        <ele>361</ele>
        <time>2022-05-11T23:16:02Z</time>
      </trkpt>
      <trkpt lat="44.54034" lon="1.79733">
        <ele>366</ele>
        <time>2022-05-11T23:16:18Z</time>
      </trkpt>
      <trkpt lat="44.53974" lon="1.79747">
        <ele>370</ele>
        <time>2022-05-11T23:16:32Z</time>
      </trkpt>
      <trkpt lat="44.53906" lon="1.7975">
        <ele>374</ele>
        <time>2022-05-11T23:16:48Z</time>
      </trkpt>
      <trkpt lat="44.53848" lon="1.79762">
        <ele>373</ele>
        <time>2022-05-11T23:17:01Z</time>
      </trkpt>
      <trkpt lat="44.53796" lon="1.79796">
        <ele>369</ele>
        <time>2022-05-11T23:17:15Z</time>
      </trkpt>
      <trkpt lat="44.53777" lon="1.79811">
        <ele>368</ele>
        <time>2022-05-11T23:17:20Z</time>
      </trkpt>
      <trkpt lat="44.53703" lon="1.79923">
        <ele>369</ele>
        <time>2022-05-11T23:17:45Z</time>
      </trkpt>
      <trkpt lat="44.53605" lon="1.80034">
        <ele>372</ele>
        <time>2022-05-11T23:18:15Z</time>
      </trkpt>
      <trkpt lat="44.53592" lon="1.80045">
        <ele>372</ele>
        <time>2022-05-11T23:18:18Z</time>
      </trkpt>
      <trkpt lat="44.53581" lon="1.80046">
        <ele>372</ele>
        <time>2022-05-11T23:18:21Z</time>
      </trkpt>
      <trkpt lat="44.53517" lon="1.80039">
        <ele>374</ele>
        <time>2022-05-11T23:18:36Z</time>
      </trkpt>
      <trkpt lat="44.53441" lon="1.80026">
        <ele>376</ele>
        <time>2022-05-11T23:18:54Z</time>
      </trkpt>
      <trkpt lat="44.53403" lon="1.80037">
        <ele>374</ele>
        <time>2022-05-11T23:19:03Z</time>
      </trkpt>
      <trkpt lat="44.53349" lon="1.80041">
        <ele>372</ele>
        <time>2022-05-11T23:19:15Z</time>
      </trkpt>
      <trkpt lat="44.5332" lon="1.8005">
        <ele>370</ele>
        <time>2022-05-11T23:19:22Z</time>
      </trkpt>
      <trkpt lat="44.533" lon="1.80047">
        <ele>371</ele>
        <time>2022-05-11T23:19:27Z</time>
      </trkpt>
      <trkpt lat="44.53266" lon="1.80046">
        <ele>371</ele>
        <time>2022-05-11T23:19:35Z</time>
      </trkpt>
      <trkpt lat="44.53208" lon="1.80057">
        <ele>371</ele>
        <time>2022-05-11T23:19:49Z</time>
      </trkpt>
      <trkpt lat="44.53195" lon="1.80054">
        <ele>372</ele>
        <time>2022-05-11T23:19:52Z</time>
      </trkpt>
      <trkpt lat="44.53181" lon="1.80038">
        <ele>373</ele>
        <time>2022-05-11T23:19:56Z</time>
      </trkpt>
      <trkpt lat="44.53173" lon="1.80017">
        <ele>375</ele>
        <time>2022-05-11T23:20:00Z</time>
      </trkpt>
      <trkpt lat="44.53032" lon="1.80046">
        <ele>378</ele>
        <time>2022-05-11T23:20:33Z</time>
      </trkpt>
      <trkpt lat="44.52993" lon="1.80074">
        <ele>381</ele>
        <time>2022-05-11T23:20:43Z</time>
      </trkpt>
      <trkpt lat="44.5298" lon="1.80076">
        <ele>381</ele>
        <time>2022-05-11T23:20:47Z</time>
      </trkpt>
      <trkpt lat="44.52947" lon="1.80066">
        <ele>382</ele>
        <time>2022-05-11T23:20:54Z</time>
      </trkpt>
      <trkpt lat="44.52937" lon="1.80072">
        <ele>382</ele>
        <time>2022-05-11T23:20:57Z</time>
      </trkpt>
      <trkpt lat="44.52922" lon="1.801">
        <ele>381</ele>
        <time>2022-05-11T23:21:03Z</time>
      </trkpt>
      <trkpt lat="44.52879" lon="1.80121">
        <ele>381</ele>
        <time>2022-05-11T23:21:13Z</time>
      </trkpt>
      <trkpt lat="44.52867" lon="1.80074">
        <ele>383</ele>
        <time>2022-05-11T23:21:22Z</time>
      </trkpt>
      <trkpt lat="44.52853" lon="1.80016">
        <ele>385</ele>
        <time>2022-05-11T23:21:32Z</time>
      </trkpt>
      <trkpt lat="44.52834" lon="1.79974">
        <ele>388</ele>
        <time>2022-05-11T23:21:40Z</time>
      </trkpt>
      <trkpt lat="44.52836" lon="1.79954">
        <ele>389</ele>
        <time>2022-05-11T23:21:44Z</time>
      </trkpt>
      <trkpt lat="44.52868" lon="1.79842">
        <ele>391</ele>
        <time>2022-05-11T23:22:04Z</time>
      </trkpt>
      <trkpt lat="44.52883" lon="1.7974">
        <ele>388</ele>
        <time>2022-05-11T23:22:21Z</time>
      </trkpt>
      <trkpt lat="44.52884" lon="1.79698">
        <ele>387</ele>
        <time>2022-05-11T23:22:28Z</time>
      </trkpt>
      <trkpt lat="44.52867" lon="1.79641">
        <ele>387</ele>
        <time>2022-05-11T23:22:38Z</time>
      </trkpt>
      <trkpt lat="44.52867" lon="1.79566">
        <ele>384</ele>
        <time>2022-05-11T23:22:51Z</time>
      </trkpt>
      <trkpt lat="44.52878" lon="1.7942">
        <ele>376</ele>
        <time>2022-05-11T23:23:15Z</time>
      </trkpt>
      <trkpt lat="44.52884" lon="1.79294">
        <ele>379</ele>
        <time>2022-05-11T23:23:36Z</time>
      </trkpt>
      <trkpt lat="44.52887" lon="1.7927">
        <ele>380</ele>
        <time>2022-05-11T23:23:40Z</time>
      </trkpt>
      <trkpt lat="44.52882" lon="1.79234">
        <ele>381</ele>
        <time>2022-05-11T23:23:46Z</time>
      </trkpt>
      <trkpt lat="44.5292" lon="1.7904">
        <ele>385</ele>
        <time>2022-05-11T23:24:20Z</time>
      </trkpt>
      <trkpt lat="44.5292" lon="1.79018">
        <ele>385</ele>
        <time>2022-05-11T23:24:24Z</time>
      </trkpt>
      <trkpt lat="44.52903" lon="1.7896">
        <ele>384</ele>
        <time>2022-05-11T23:24:34Z</time>
      </trkpt>
      <trkpt lat="44.52899" lon="1.78918">
        <ele>383</ele>
        <time>2022-05-11T23:24:41Z</time>
      </trkpt>
      <trkpt lat="44.52903" lon="1.78882">
        <ele>383</ele>
        <time>2022-05-11T23:24:47Z</time>
      </trkpt>
      <trkpt lat="44.52963" lon="1.78689">
        <ele>370</ele>
        <time>2022-05-11T23:25:22Z</time>
      </trkpt>
      <trkpt lat="44.52985" lon="1.78641">
        <ele>368</ele>
        <time>2022-05-11T23:25:32Z</time>
      </trkpt>
      <trkpt lat="44.52995" lon="1.78602">
        <ele>369</ele>
        <time>2022-05-11T23:25:39Z</time>
      </trkpt>
      <trkpt lat="44.53006" lon="1.78572">
        <ele>368</ele>
        <time>2022-05-11T23:25:44Z</time>
      </trkpt>
      <trkpt lat="44.53073" lon="1.78457">
        <ele>361</ele>
        <time>2022-05-11T23:26:09Z</time>
      </trkpt>
      <trkpt lat="44.53076" lon="1.78445">
        <ele>360</ele>
        <time>2022-05-11T23:26:11Z</time>
      </trkpt>
      <trkpt lat="44.5308" lon="1.78446">
        <ele>360</ele>
        <time>2022-05-11T23:26:12Z</time>
      </trkpt>
      <trkpt lat="44.53084" lon="1.78442">
        <ele>360</ele>
        <time>2022-05-11T23:26:13Z</time>
      </trkpt>
      <trkpt lat="44.53097" lon="1.78417">
        <ele>359</ele>
        <time>2022-05-11T23:26:18Z</time>
      </trkpt>
      <trkpt lat="44.53167" lon="1.78328">
        <ele>356</ele>
        <time>2022-05-11T23:26:40Z</time>
      </trkpt>
      <trkpt lat="44.5319" lon="1.78296">
        <ele>353</ele>
        <time>2022-05-11T23:26:48Z</time>
      </trkpt>
      <trkpt lat="44.53269" lon="1.78167">
        <ele>348</ele>
        <time>2022-05-11T23:27:16Z</time>
      </trkpt>
      <trkpt lat="44.53291" lon="1.78137">
        <ele>346</ele>
        <time>2022-05-11T23:27:23Z</time>
      </trkpt>
      <trkpt lat="44.53368" lon="1.78061">
        <ele>342</ele>
        <time>2022-05-11T23:27:45Z</time>
      </trkpt>
      <trkpt lat="44.53376" lon="1.78049">
        <ele>342</ele>
        <time>2022-05-11T23:27:48Z</time>
      </trkpt>
      <trkpt lat="44.53379" lon="1.78037">
        <ele>341</ele>
        <time>2022-05-11T23:27:50Z</time>
      </trkpt>
      <trkpt lat="44.53382" lon="1.77969">
        <ele>335</ele>
        <time>2022-05-11T23:28:02Z</time>
      </trkpt>
      <trkpt lat="44.53384" lon="1.77952">
        <ele>333</ele>
        <time>2022-05-11T23:28:04Z</time>
      </trkpt>
      <trkpt lat="44.53402" lon="1.77907">
        <ele>330</ele>
        <time>2022-05-11T23:28:13Z</time>
      </trkpt>
      <trkpt lat="44.53415" lon="1.77886">
        <ele>329</ele>
        <time>2022-05-11T23:28:18Z</time>
      </trkpt>
      <trkpt lat="44.53484" lon="1.7779">
        <ele>323</ele>
        <time>2022-05-11T23:28:40Z</time>
      </trkpt>
      <trkpt lat="44.53592" lon="1.77682">
        <ele>312</ele>
        <time>2022-05-11T23:29:11Z</time>
      </trkpt>
      <trkpt lat="44.53669" lon="1.7759">
        <ele>304</ele>
        <time>2022-05-11T23:29:35Z</time>
      </trkpt>
      <trkpt lat="44.53676" lon="1.77581">
        <ele>303</ele>
        <time>2022-05-11T23:29:37Z</time>
      </trkpt>
      <trkpt lat="44.53709" lon="1.77518">
        <ele>299</ele>
        <time>2022-05-11T23:29:50Z</time>
      </trkpt>
      <trkpt lat="44.5372" lon="1.77502">
        <ele>298</ele>
        <time>2022-05-11T23:29:54Z</time>
      </trkpt>
      <trkpt lat="44.53739" lon="1.77481">
        <ele>297</ele>
        <time>2022-05-11T23:30:00Z</time>
      </trkpt>
      <trkpt lat="44.53801" lon="1.77435">
        <ele>292</ele>
        <time>2022-05-11T23:30:16Z</time>
      </trkpt>
      <trkpt lat="44.5384" lon="1.77388">
        <ele>287</ele>
        <time>2022-05-11T23:30:28Z</time>
      </trkpt>
      <trkpt lat="44.53849" lon="1.77384">
        <ele>286</ele>
        <time>2022-05-11T23:30:30Z</time>
      </trkpt>
      <trkpt lat="44.5386" lon="1.77386">
        <ele>285</ele>
        <time>2022-05-11T23:30:33Z</time>
      </trkpt>
      <trkpt lat="44.53903" lon="1.77418">
        <ele>282</ele>
        <time>2022-05-11T23:30:44Z</time>
      </trkpt>
      <trkpt lat="44.53908" lon="1.77418">
        <ele>282</ele>
        <time>2022-05-11T23:30:45Z</time>
      </trkpt>
      <trkpt lat="44.53912" lon="1.77415">
        <ele>281</ele>
        <time>2022-05-11T23:30:46Z</time>
      </trkpt>
      <trkpt lat="44.53913" lon="1.77407">
        <ele>281</ele>
        <time>2022-05-11T23:30:48Z</time>
      </trkpt>
      <trkpt lat="44.53902" lon="1.77356">
        <ele>279</ele>
        <time>2022-05-11T23:30:57Z</time>
      </trkpt>
      <trkpt lat="44.53902" lon="1.77335">
        <ele>278</ele>
        <time>2022-05-11T23:31:00Z</time>
      </trkpt>
      <trkpt lat="44.53905" lon="1.77329">
        <ele>279</ele>
        <time>2022-05-11T23:31:01Z</time>
      </trkpt>
      <trkpt lat="44.5391" lon="1.77325">
        <ele>279</ele>
        <time>2022-05-11T23:31:03Z</time>
      </trkpt>
      <trkpt lat="44.53922" lon="1.77324">
        <ele>278</ele>
        <time>2022-05-11T23:31:05Z</time>
      </trkpt>
      <trkpt lat="44.53949" lon="1.77338">
        <ele>275</ele>
        <time>2022-05-11T23:31:12Z</time>
      </trkpt>
      <trkpt lat="44.53949" lon="1.77341">
        <ele>275</ele>
        <time>2022-05-11T23:31:13Z</time>
      </trkpt>
      <trkpt lat="44.53954" lon="1.77345">
        <ele>274</ele>
        <time>2022-05-11T23:31:14Z</time>
      </trkpt>
      <trkpt lat="44.54015" lon="1.77361">
        <ele>269</ele>
        <time>2022-05-11T23:31:28Z</time>
      </trkpt>
      <trkpt lat="44.54053" lon="1.77377">
        <ele>263</ele>
        <time>2022-05-11T23:31:38Z</time>
      </trkpt>
      <trkpt lat="44.54081" lon="1.77378">
        <ele>260</ele>
        <time>2022-05-11T23:31:44Z</time>
      </trkpt>
      <trkpt lat="44.54093" lon="1.77375">
        <ele>258</ele>
        <time>2022-05-11T23:31:47Z</time>
      </trkpt>
      <trkpt lat="44.54102" lon="1.77368">
        <ele>257</ele>
        <time>2022-05-11T23:31:49Z</time>
      </trkpt>
      <trkpt lat="44.54128" lon="1.77337">
        <ele>254</ele>
        <time>2022-05-11T23:31:57Z</time>
      </trkpt>
      <trkpt lat="44.54142" lon="1.77324">
        <ele>254</ele>
        <time>2022-05-11T23:32:01Z</time>
      </trkpt>
      <trkpt lat="44.54221" lon="1.77286">
        <ele>247</ele>
        <time>2022-05-11T23:32:21Z</time>
      </trkpt>
      <trkpt lat="44.54282" lon="1.77224">
        <ele>241</ele>
        <time>2022-05-11T23:32:38Z</time>
      </trkpt>
      <trkpt lat="44.54307" lon="1.77207">
        <ele>236</ele>
        <time>2022-05-11T23:32:45Z</time>
      </trkpt>
      <trkpt lat="44.54322" lon="1.77191">
        <ele>234</ele>
        <time>2022-05-11T23:32:49Z</time>
      </trkpt>
      <trkpt lat="44.54345" lon="1.77157">
        <ele>233</ele>
        <time>2022-05-11T23:32:57Z</time>
      </trkpt>
      <trkpt lat="44.54417" lon="1.77093">
        <ele>216</ele>
        <time>2022-05-11T23:33:17Z</time>
      </trkpt>
      <trkpt lat="44.54438" lon="1.77022">
        <ele>216</ele>
        <time>2022-05-11T23:33:30Z</time>
      </trkpt>
      <trkpt lat="44.54487" lon="1.76885">
        <ele>201</ele>
        <time>2022-05-11T23:33:55Z</time>
      </trkpt>
      <trkpt lat="44.54502" lon="1.76821">
        <ele>197</ele>
        <time>2022-05-11T23:34:07Z</time>
      </trkpt>
      <trkpt lat="44.54524" lon="1.7675">
        <ele>187</ele>
        <time>2022-05-11T23:34:19Z</time>
      </trkpt>
      <trkpt lat="44.54523" lon="1.76724">
        <ele>184</ele>
        <time>2022-05-11T23:34:24Z</time>
      </trkpt>
      <trkpt lat="44.54515" lon="1.76709">
        <ele>183</ele>
        <time>2022-05-11T23:34:27Z</time>
      </trkpt>
      <trkpt lat="44.54492" lon="1.76704">
        <ele>183</ele>
        <time>2022-05-11T23:34:32Z</time>
      </trkpt>
      <trkpt lat="44.54464" lon="1.76722">
        <ele>180</ele>
        <time>2022-05-11T23:34:40Z</time>
      </trkpt>
      <trkpt lat="44.54461" lon="1.76715">
        <ele>178</ele>
        <time>2022-05-11T23:34:41Z</time>
      </trkpt>
      <trkpt lat="44.54538" lon="1.76612">
        <ele>169</ele>
        <time>2022-05-11T23:35:06Z</time>
      </trkpt>
      <trkpt lat="44.54567" lon="1.76594">
        <ele>168</ele>
        <time>2022-05-11T23:35:13Z</time>
      </trkpt>
      <trkpt lat="44.54587" lon="1.76603">
        <ele>169</ele>
        <time>2022-05-11T23:35:18Z</time>
      </trkpt>
      <trkpt lat="44.54599" lon="1.76621">
        <ele>169</ele>
        <time>2022-05-11T23:35:22Z</time>
      </trkpt>
      <trkpt lat="44.54609" lon="1.76662">
        <ele>172</ele>
        <time>2022-05-11T23:35:29Z</time>
      </trkpt>
      <trkpt lat="44.54615" lon="1.7669">
        <ele>173</ele>
        <time>2022-05-11T23:35:34Z</time>
      </trkpt>
      <trkpt lat="44.54615" lon="1.76718">
        <ele>174</ele>
        <time>2022-05-11T23:35:39Z</time>
      </trkpt>
      <trkpt lat="44.54623" lon="1.76737">
        <ele>175</ele>
        <time>2022-05-11T23:35:43Z</time>
      </trkpt>
      <trkpt lat="44.54633" lon="1.76741">
        <ele>176</ele>
        <time>2022-05-11T23:35:45Z</time>
      </trkpt>
      <trkpt lat="44.54647" lon="1.76737">
        <ele>175</ele>
        <time>2022-05-11T23:35:48Z</time>
      </trkpt>
      <trkpt lat="44.54656" lon="1.76729">
        <ele>175</ele>
        <time>2022-05-11T23:35:51Z</time>
      </trkpt>
      <trkpt lat="44.5468" lon="1.76687">
        <ele>173</ele>
        <time>2022-05-11T23:36:00Z</time>
      </trkpt>
      <trkpt lat="44.54703" lon="1.76608">
        <ele>174</ele>
        <time>2022-05-11T23:36:14Z</time>
      </trkpt>
      <trkpt lat="44.54703" lon="1.76528">
        <ele>171</ele>
        <time>2022-05-11T23:36:27Z</time>
      </trkpt>
      <trkpt lat="44.54708" lon="1.76521">
        <ele>171</ele>
        <time>2022-05-11T23:36:29Z</time>
      </trkpt>
      <trkpt lat="44.54713" lon="1.76519">
        <ele>172</ele>
        <time>2022-05-11T23:36:30Z</time>
      </trkpt>
      <trkpt lat="44.54719" lon="1.76509">
        <ele>173</ele>
        <time>2022-05-11T23:36:32Z</time>
      </trkpt>
      <trkpt lat="44.54781" lon="1.76473">
        <ele>169</ele>
        <time>2022-05-11T23:36:48Z</time>
      </trkpt>
      <trkpt lat="44.54794" lon="1.76481">
        <ele>168</ele>
        <time>2022-05-11T23:36:51Z</time>
      </trkpt>
      <trkpt lat="44.54811" lon="1.76514">
        <ele>168</ele>
        <time>2022-05-11T23:36:58Z</time>
      </trkpt>
      <trkpt lat="44.54889" lon="1.7679">
        <ele>177</ele>
        <time>2022-05-11T23:37:48Z</time>
      </trkpt>
      <trkpt lat="44.54921" lon="1.76864">
        <ele>173</ele>
        <time>2022-05-11T23:38:02Z</time>
      </trkpt>
      <trkpt lat="44.55036" lon="1.77072">
        <ele>173</ele>
        <time>2022-05-11T23:38:46Z</time>
      </trkpt>
      <trkpt lat="44.55075" lon="1.77117">
        <ele>165</ele>
        <time>2022-05-11T23:38:58Z</time>
      </trkpt>
      <trkpt lat="44.55082" lon="1.77108">
        <ele>160</ele>
        <time>2022-05-11T23:39:00Z</time>
      </trkpt>
      <trkpt lat="44.55118" lon="1.7707">
        <ele>155</ele>
        <time>2022-05-11T23:39:10Z</time>
      </trkpt>
      <trkpt lat="44.55176" lon="1.77022">
        <ele>156</ele>
        <time>2022-05-11T23:39:26Z</time>
      </trkpt>
    </trkseg>
  </trk>
</gpx>